Provisional Data: Chemung River near Elmira, NY


Please select a monitoring station.
Please select start date.
Please select start date.

Toggle Unit: C/F Toggle Unit: C/F
Sample Time Temperature (C) Temperature (F) Specific Conductivity (mS/cm) pH   Turbidity (NTU+) DO (mg/L)
5/4/2021 12:13:57 AM 11.64 52.952 214.1 7.4424 29.1475 11.64
5/4/2021 12:28:57 AM 11.6225 52.9205 214.4 7.4424 29.515 11.6225
5/4/2021 12:43:57 AM 11.6225 52.9205 214.4 7.4417 29.2375 11.6225
5/4/2021 12:58:57 AM 11.62 52.916 214.4 7.4466 29.39 11.62
5/4/2021 1:13:57 AM 11.6225 52.9205 214.45 7.4445 29.185 11.6225
5/4/2021 1:28:57 AM 11.6225 52.9205 214.45 7.4452 29.395 11.6225
5/4/2021 1:43:57 AM 11.625 52.925 214.45 7.4452 29.325 11.625
5/4/2021 1:58:57 AM 11.64 52.952 214.1 7.4508 33.1475 11.64
5/4/2021 2:13:57 AM 11.6725 53.0105 213.7 7.4599 54.40002 11.6725
5/4/2021 2:28:57 AM 11.69 53.042 213.7 7.4641 48.3501 11.69
5/4/2021 2:43:57 AM 11.6925 53.0465 213.7 7.4599 44.7625 11.6925
5/4/2021 2:58:57 AM 11.6575 52.9835 214.1 7.4445 34.6925 11.6575
5/4/2021 3:13:57 AM 11.655 52.979 214.45 7.441 29.9 11.655
5/4/2021 3:28:57 AM 11.6375 52.9475 214.8 7.441 29.06 11.6375
5/4/2021 3:43:57 AM 11.6375 52.9475 214.7501 7.441 28.7425 11.6375
5/4/2021 3:58:57 AM 11.64 52.952 214.8 7.4452 28.3175 11.64
5/4/2021 4:13:57 AM 11.64 52.952 214.7501 7.441 28.1125 11.64
5/4/2021 4:28:57 AM 11.655 52.979 214.7501 7.441 26.5475 11.655
5/4/2021 4:43:57 AM 11.6575 52.9835 214.8 7.441 26.215 11.6575
5/4/2021 4:58:57 AM 11.6575 52.9835 214.7501 7.4445 26.41 11.6575
5/4/2021 5:13:57 AM 11.6575 52.9835 215.15 7.4452 26.6725 11.6575
5/4/2021 5:28:57 AM 11.64 52.952 215.5 7.4459 26.69 11.64
5/4/2021 5:43:57 AM 11.64 52.952 215.8 7.4459 26.34 11.64
5/4/2021 5:58:57 AM 11.64 52.952 215.85 7.4417 26.5325 11.64
5/4/2021 6:13:57 AM 11.6225 52.9205 215.85 7.4368 26.865 11.6225
5/4/2021 6:28:57 AM 11.6225 52.9205 216.2 7.4319 26.915 11.6225
5/4/2021 6:43:57 AM 11.6225 52.9205 216.2 7.4319 26.55 11.6225
5/4/2021 6:58:57 AM 11.6225 52.9205 216.2 7.4368 26.6575 11.6225
5/4/2021 7:13:57 AM 11.6225 52.9205 216.2 7.4375 26.255 11.6225
5/4/2021 7:28:57 AM 11.625 52.925 216.2 7.4375 26.0625 11.625
5/4/2021 7:43:57 AM 11.6225 52.9205 216.55 7.4382 26.165 11.6225
5/4/2021 7:58:57 AM 11.64 52.952 216.5 7.4368 25.925 11.64
5/4/2021 8:13:57 AM 11.6575 52.9835 216.9 7.4368 25.5425 11.6575
5/4/2021 8:28:57 AM 11.6575 52.9835 216.85 7.4389 25.195 11.6575
5/4/2021 8:43:57 AM 11.675 53.015 216.85 7.4319 25.055 11.675
5/4/2021 8:58:57 AM 11.6925 53.0465 216.85 7.427 24.775 11.6925
5/4/2021 9:13:57 AM 11.6925 53.0465 216.9 7.4312 24.3375 11.6925
5/4/2021 9:28:57 AM 11.69 53.042 216.9 7.4312 24.24 11.69
5/4/2021 9:43:57 AM 11.71 53.078 216.9 7.4298 23.8225 11.71
5/4/2021 9:58:57 AM 11.725 53.105 216.85 7.4312 23.715 11.725
5/4/2021 10:13:57 AM 11.775 53.195 216.85 7.4319 23.4525 11.775
5/4/2021 10:28:57 AM 11.8275 53.2895 216.85 7.4277 22.9325 11.8275
5/4/2021 10:43:57 AM 11.8975 53.4155 216.85 7.4326 23 11.8975
5/4/2021 10:58:57 AM 11.9675 53.5415 216.8 7.4263 22.9475 11.9675
5/4/2021 11:13:57 AM 12.09 53.762 216.1 7.4256 22.565 12.09
5/4/2021 11:28:57 AM 12.1375 53.8475 215.8 7.4207 22.4225 12.1375
5/4/2021 11:43:57 AM 12.1925 53.9465 215.8 7.4214 22.48 12.1925
5/4/2021 11:58:57 AM 12.2425 54.0365 215.45 7.4249 22.305 12.2425
5/4/2021 12:13:57 PM 12.38 54.284 215.1 7.4312 22.3725 12.38
5/4/2021 12:28:57 PM 12.485 54.473 214.7501 7.4305 22.5625 12.485
5/4/2021 12:43:57 PM 12.5875 54.6575 214.7501 7.4298 22.5275 12.5875
5/4/2021 12:58:57 PM 12.6225 54.7205 214.7501 7.434 22.7875 12.6225
5/4/2021 1:13:57 PM 12.675 54.815 214.7 7.4305 22.595 12.675
5/4/2021 1:28:57 PM 12.7925 55.0265 214.7 7.4305 22.63 12.7925
5/4/2021 1:43:57 PM 12.8625 55.1525 214.7 7.4298 22.09 12.8625
5/4/2021 1:58:57 PM 12.95 55.31 214.7 7.4333 22.52 12.95
5/4/2021 2:13:57 PM 12.985 55.373 214.6499 7.4354 22.405 12.985
5/4/2021 2:28:57 PM 13.055 55.499 214.7 7.4347 22.6325 13.055
5/4/2021 2:43:57 PM 13.1075 55.5935 215.0499 7.4382 22.8225 13.1075
5/4/2021 2:58:57 PM 13.175 55.715 215.0499 7.4389 22.4325 13.175
5/4/2021 3:13:57 PM 13.26 55.868 215.0499 7.4403 22.4525 13.26
5/4/2021 3:28:57 PM 13.3125 55.9625 215.3501 7.4403 21.775 13.3125
5/4/2021 3:43:57 PM 13.385 56.093 215.4 7.4424 22.02 13.385
5/4/2021 3:58:57 PM 13.47 56.246 215.4 7.4431 22.015 13.47
5/4/2021 4:13:57 PM 13.54 56.372 215.4 7.4431 21.9325 13.54
5/4/2021 4:28:57 PM 13.645 56.561 215.3501 7.4494 21.93 13.645
5/4/2021 4:43:57 PM 13.73 56.714 215.4 7.4473 21.675 13.73
5/4/2021 4:58:57 PM 13.7825 56.8085 216.45 7.4487 22.225 13.7825
5/4/2021 5:13:57 PM 13.8175 56.8715 218.15 7.4536 21.74 13.8175
5/4/2021 5:28:57 PM 13.85 56.93 221.6 7.4543 21.7775 13.85
5/4/2021 5:43:57 PM 13.85 56.93 226.8 7.4543 21.69 13.85
5/4/2021 5:58:57 PM 13.8325 56.8985 233.7 7.4592 21.92 13.8325
5/4/2021 6:13:57 PM 13.8325 56.8985 241.3501 7.4634 22.0175 13.8325
5/4/2021 6:28:57 PM 13.8175 56.8715 249.6 7.4683 21.7925 13.8175
5/4/2021 6:43:57 PM 13.82 56.876 258.2499 7.469 21.565 13.82
5/4/2021 6:58:57 PM 13.8025 56.8445 267.2499 7.4718 21.6525 13.8025
5/4/2021 7:13:57 PM 13.8 56.84 274.85 7.4774 22.33 13.8
5/4/2021 7:28:57 PM 13.7825 56.8085 282.5 7.4718 22.4325 13.7825
5/4/2021 7:43:57 PM 13.8 56.84 288.7501 7.4774 22.52 13.8
5/4/2021 7:58:57 PM 13.8175 56.8715 293.55 7.483 22.0175 13.8175
5/4/2021 8:13:57 PM 13.7975 56.8355 297.7 7.4837 22.1225 13.7975
5/4/2021 8:28:57 PM 13.8 56.84 300.8 7.483 22.14 13.8
5/4/2021 8:43:57 PM 13.8 56.84 303.2499 7.4886 22.225 13.8
5/4/2021 8:58:57 PM 13.8 56.84 304.9501 7.4879 22.245 13.8
5/4/2021 9:13:57 PM 13.8175 56.8715 306 7.4879 22.33 13.8175
5/4/2021 9:28:57 PM 13.835 56.903 307 7.4879 22.7125 13.835
5/4/2021 9:43:57 PM 13.835 56.903 307.7 7.4928 23.01 13.835
5/4/2021 9:58:57 PM 13.7825 56.8085 308 7.4872 23.115 13.7825
5/4/2021 10:13:57 PM 13.7475 56.7455 308.7501 7.4886 22.9225 13.7475
5/4/2021 10:28:57 PM 13.6975 56.6555 309.45 7.4837 22.8025 13.6975
5/4/2021 10:43:57 PM 13.6625 56.5925 309.8 7.4816 22.76 13.6625
5/4/2021 10:58:57 PM 13.6275 56.5295 310.1 7.4879 22.665 13.6275
5/4/2021 11:13:57 PM 13.575 56.435 310.1 7.4879 23.03 13.575
5/4/2021 11:28:57 PM 13.56 56.408 309.8 7.4879 22.575 13.56
5/4/2021 11:43:57 PM 13.56 56.408 309.1 7.4872 22.7875 13.56
5/5/2021 12:13:57 AM 13.5425 56.3765 307.7 7.4928 21.3975 13.5425
5/5/2021 12:28:57 AM 13.5075 56.3135 307.7 7.4928 20.7875 13.5075
5/5/2021 12:43:57 AM 13.4725 56.2505 307.3501 7.4935 21.2575 13.4725
5/5/2021 12:58:57 AM 13.4375 56.1875 307.4 7.4893 21.6925 13.4375
5/5/2021 1:13:57 AM 13.42 56.156 306.7 7.4886 22.0075 13.42
5/5/2021 1:28:57 AM 13.3875 56.0975 306.3 7.4837 21.64 13.3875
5/5/2021 1:43:57 AM 13.3675 56.0615 306.3501 7.4851 22.3725 13.3675
5/5/2021 1:58:57 AM 13.37 56.066 305.6499 7.4844 22.0975 13.37
5/5/2021 2:13:57 AM 13.37 56.066 305.3 7.4851 22.9825 13.37
5/5/2021 2:28:57 AM 13.3525 56.0345 305.3501 7.4795 23.9175 13.3525
5/5/2021 2:43:57 AM 13.3525 56.0345 304.9501 7.4746 22.8225 13.3525
5/5/2021 2:58:57 AM 13.335 56.003 304.6499 7.4697 22.8775 13.335
5/5/2021 3:13:57 AM 13.335 56.003 304.6499 7.4697 23.1925 13.335
5/5/2021 3:28:57 AM 13.3175 55.9715 304.3 7.4697 22.9825 13.3175
5/5/2021 3:43:57 AM 13.3175 55.9715 304.3 7.4697 23.5225 13.3175
5/5/2021 3:58:57 AM 13.3175 55.9715 304.6499 7.4648 23.5875 13.3175
5/5/2021 4:13:57 AM 13.3175 55.9715 304.6499 7.4662 23.8875 13.3175
5/5/2021 4:28:57 AM 13.3175 55.9715 304.6499 7.4599 24.0075 13.3175
5/5/2021 4:43:57 AM 13.3025 55.9445 305.0499 7.4599 24.025 13.3025
5/5/2021 4:58:57 AM 13.3025 55.9445 305 7.4599 23.4725 13.3025
5/5/2021 5:13:57 AM 13.3025 55.9445 305 7.4592 23.1425 13.3025
5/5/2021 5:28:57 AM 13.32 55.976 305.0499 7.4599 22.5675 13.32
5/5/2021 5:43:57 AM 13.3175 55.9715 305.3501 7.4606 23.1075 13.3175
5/5/2021 5:58:57 AM 13.32 55.976 305.4 7.455 23.06 13.32
5/5/2021 6:13:57 AM 13.32 55.976 305.3501 7.455 22.9475 13.32
5/5/2021 6:28:57 AM 13.32 55.976 305.4 7.455 23.505 13.32
5/5/2021 6:43:57 AM 13.3 55.94 305 7.4515 23.385 13.3
5/5/2021 6:58:57 AM 13.3025 55.9445 304.6499 7.4508 23.365 13.3025
5/5/2021 7:13:57 AM 13.32 55.976 304.3 7.4445 23.4875 13.32
5/5/2021 7:28:57 AM 13.3025 55.9445 304 7.4445 23.78 13.3025
5/5/2021 7:43:57 AM 13.3025 55.9445 303.9501 7.441 23.1075 13.3025
5/5/2021 7:58:57 AM 13.285 55.913 304 7.4396 23.4875 13.285
5/5/2021 8:13:57 AM 13.2675 55.8815 304.3501 7.441 23.2125 13.2675
5/5/2021 8:28:57 AM 13.235 55.823 304.6499 7.4417 23.5575 13.235
5/5/2021 8:43:57 AM 13.1975 55.7555 305.0499 7.4417 23.625 13.1975
5/5/2021 8:58:57 AM 13.1825 55.7285 305 7.4417 23.0225 13.1825
5/5/2021 9:13:57 AM 13.165 55.697 304.7 7.4368 23.4375 13.165
5/5/2021 9:28:57 AM 13.13 55.634 304.3501 7.4361 23.0375 13.13
5/5/2021 9:43:57 AM 13.1125 55.6025 304.3501 7.4382 22.38 13.11
5/5/2021 9:58:57 AM 13.0775 55.5395 304.3501 7.4417 22.64 13.0775
5/5/2021 10:13:57 AM 13.06 55.508 304.3501 7.4382 22.2775 13.06
5/5/2021 10:28:57 AM 13.0275 55.4495 304.3501 7.4361 22.7275 13.0275
5/5/2021 10:43:57 AM 13.0275 55.4495 304.7 7.4375 22 13.0275
5/5/2021 10:58:57 AM 12.9925 55.3865 304.6499 7.4361 21.9975 12.9925
5/5/2021 11:13:57 AM 12.9925 55.3865 304.3501 7.4361 22.03 12.9925
5/5/2021 11:28:57 AM 12.975 55.355 304 7.4368 21.6375 12.975
5/5/2021 11:43:57 AM 12.94 55.292 304 7.4354 21.7025 12.94
5/5/2021 11:58:57 AM 12.9225 55.2605 304 7.4375 21.0775 12.9225
5/5/2021 12:13:57 PM 12.9025 55.2245 303.7 7.4347 21.35 12.9025
5/5/2021 12:28:57 PM 12.865 55.157 304 7.4361 21.24 12.865
5/5/2021 12:43:57 PM 12.85 55.13 304.3501 7.4403 21.0375 12.85
5/5/2021 12:58:57 PM 12.8325 55.0985 304.4 7.4389 20.6 12.8325
5/5/2021 1:13:57 PM 12.8325 55.0985 304.7501 7.4403 20.55 12.8325
5/5/2021 1:28:57 PM 12.815 55.067 305.0499 7.441 20.4825 12.815
5/5/2021 1:43:57 PM 12.8325 55.0985 305.0499 7.4389 20.1525 12.8325
5/5/2021 1:58:57 PM 13.075 55.535 303.3 7.4473 20.14 13.075
5/5/2021 2:13:57 PM 13.285 55.913 301.9 7.4459 20.31 13.285
5/5/2021 2:28:57 PM 13.405 56.129 301.2 7.4466 20.3775 13.405
5/5/2021 2:43:57 PM 13.475 56.255 300.5 7.4494 20.4275 13.475
5/5/2021 2:58:57 PM 13.44 56.192 300.85 7.4501 19.9575 13.44
5/5/2021 3:13:57 PM 13.1625 55.6925 303.2499 7.4501 20.2375 13.1625
5/5/2021 3:28:57 PM 13.0225 55.4405 304.3501 7.4543 20.465 13.0225
5/5/2021 3:43:57 PM 12.92 55.256 305.3501 7.4557 20.1375 12.92
5/5/2021 3:58:57 PM 12.8525 55.1345 305.7501 7.4557 20.2775 12.8525
5/5/2021 4:13:57 PM 12.8175 55.0715 305.4 7.4606 20.1375 12.8175
5/5/2021 4:28:57 PM 12.8025 55.0445 304.3501 7.4606 19.8825 12.8025
5/5/2021 4:43:57 PM 13.0075 55.4135 300.2 7.4669 19.9825 13.0075
5/5/2021 4:58:57 PM 13.215 55.787 295 7.4634 20.4775 13.215
5/5/2021 5:13:57 PM 13.32 55.976 289.1 7.4697 19.945 13.32
5/5/2021 5:28:57 PM 13.37 56.066 281.9 7.469 20.0975 13.37
5/5/2021 5:43:57 PM 13.4225 56.1605 274.2499 7.4732 19.9925 13.4225
5/5/2021 5:58:57 PM 13.18 55.724 267.3501 7.4746 20.185 13.18
5/5/2021 6:13:57 PM 12.9175 55.2515 261.1 7.4809 20.2425 12.9175
5/5/2021 6:28:57 PM 12.7625 54.9725 254.2 7.4809 20.0675 12.7625
5/5/2021 6:43:57 PM 12.665 54.797 248 7.4802 19.7225 12.665
5/5/2021 6:58:57 PM 12.5925 54.6665 241.8 7.4809 20.0375 12.5925
5/5/2021 7:13:57 PM 12.665 54.797 236.2499 7.4802 20.52 12.665
5/5/2021 7:28:57 PM 12.905 55.229 230.0499 7.4802 20.225 12.905
5/5/2021 7:43:57 PM 13.0425 55.4765 225.5 7.4802 20.4675 13.0425
5/5/2021 7:58:57 PM 13.1075 55.5935 221.6499 7.4858 19.96 13.1075
5/5/2021 8:13:57 PM 13.16 55.688 219.2499 7.483 20.255 13.16
5/5/2021 8:28:57 PM 13.1425 55.6565 217.1 7.4844 34.3875 13.1425
5/5/2021 8:43:57 PM 12.885 55.193 217.1 7.4851 25.7275 12.885
5/5/2021 8:58:57 PM 12.575 54.635 217.55 7.483 24.8425 12.575
5/5/2021 9:13:57 PM 12.4175 54.3515 217.55 7.4844 24.465 12.4175
5/5/2021 9:28:57 PM 12.3325 54.1985 217.2499 7.4851 24.2575 12.3325
5/5/2021 9:43:57 PM 12.59 54.662 215.15 7.4858 23.9775 12.59
5/5/2021 9:58:57 PM 12.745 54.941 214.1 7.49 23.92 12.745
5/5/2021 10:13:57 PM 12.7975 55.0355 213.3501 7.4879 23.9525 12.7975
5/5/2021 10:28:57 PM 12.83 55.094 213 7.4879 23.8975 12.83
5/5/2021 10:43:57 PM 12.8475 55.1255 212.6499 7.4886 23.64 12.8475
5/5/2021 10:58:57 PM 12.625 54.725 214.1 7.4928 23.655 12.625
5/5/2021 11:13:57 PM 12.2975 54.1355 215.8 7.4949 23.695 12.2975
5/5/2021 11:28:57 PM 12.3325 54.1985 215.45 7.4942 23.6975 12.3325
5/5/2021 11:43:57 PM 12.5225 54.5405 214.4 7.4942 23.95 12.5225
5/6/2021 12:13:57 AM 12.66 54.788 214.0499 7.4928 24.5575 12.66
5/6/2021 12:28:57 AM 12.6575 54.7835 214.0499 7.4949 24.645 12.6575
5/6/2021 12:43:57 AM 12.6725 54.8105 214.3501 7.4928 25.0425 12.6725
5/6/2021 12:58:57 AM 12.485 54.473 215.4 7.4935 24.7325 12.485
5/6/2021 1:13:57 AM 12.105 53.789 217.85 7.4928 24.91 12.105
5/6/2021 1:28:57 AM 11.9175 53.4515 218.9501 7.4949 24.9325 11.9175
5/6/2021 1:43:57 AM 11.7975 53.2355 219.6499 7.4956 25.0225 11.7975
5/6/2021 1:58:57 AM 11.8425 53.3165 219.6499 7.4956 25.76 11.8425
5/6/2021 2:13:57 AM 12.125 53.825 217.9 7.4949 25.7475 12.125
5/6/2021 2:28:57 AM 12.26 54.068 217.2 7.4956 26.3525 12.26
5/6/2021 2:43:57 AM 12.3475 54.2255 216.85 7.4935 26.2625 12.3475
5/6/2021 2:58:57 AM 12.3975 54.3155 216.5 7.4935 26.28 12.3975
5/6/2021 3:13:57 AM 12.4325 54.3785 216.5 7.4949 27.1175 12.4325
5/6/2021 3:28:57 AM 12.4325 54.3785 216.8 7.4921 27.0475 12.4325
5/6/2021 3:43:57 AM 12.415 54.347 216.8 7.4921 27.3425 12.415
5/6/2021 3:58:57 AM 12.1025 53.7845 218.55 7.4998 27.415 12.1025
5/6/2021 4:13:57 AM 11.8625 53.3525 219.9501 7.4984 27.5225 11.8625
5/6/2021 4:28:57 AM 12.07 53.726 218.55 7.4984 27.555 12.07
5/6/2021 4:43:57 AM 12.1725 53.9105 217.85 7.4998 27.7275 12.1725
5/6/2021 4:58:57 AM 12.245 54.041 217.15 7.4977 27.83 12.245
5/6/2021 5:13:57 AM 12.26 54.068 217.15 7.4991 27.1325 12.26
5/6/2021 5:28:57 AM 12.2725 54.0905 216.8 7.4984 28.225 12.2725
5/6/2021 5:43:57 AM 12.2575 54.0635 216.8 7.4991 27.4275 12.2575
5/6/2021 5:58:57 AM 12.24 54.032 216.45 7.4977 27.48 12.24
5/6/2021 6:13:57 AM 12.0325 53.6585 217.45 7.4984 27.4125 12.0325
5/6/2021 6:28:57 AM 11.6225 52.9205 219.9501 7.4984 27.4525 11.6225
5/6/2021 6:43:57 AM 11.395 52.511 221 7.4991 27.3 11.395
5/6/2021 6:58:57 AM 11.605 52.889 219.6499 7.4984 27.35 11.605
5/6/2021 7:13:57 AM 11.7775 53.1995 218.2499 7.4991 26.8925 11.7775
5/6/2021 7:28:57 AM 11.8425 53.3165 217.5 7.4991 26.8525 11.8425
5/6/2021 7:43:57 AM 11.88 53.384 216.8 7.4991 27.05 11.88
5/6/2021 7:58:57 AM 11.915 53.447 216.45 7.4921 26.8 11.915
5/6/2021 8:13:57 AM 11.945 53.501 216.1 7.4949 26.9925 11.945
5/6/2021 8:28:57 AM 11.9475 53.5055 216.1 7.4949 26.3475 11.9475
5/6/2021 8:43:57 AM 11.945 53.501 216.1 7.4935 26.48 11.945
5/6/2021 8:58:57 AM 11.9275 53.4695 215.7501 7.4942 26.485 11.9275
5/6/2021 9:13:57 AM 11.585 52.853 217.85 7.4949 26.28 11.585
5/6/2021 9:28:57 AM 11.3625 52.4525 218.9501 7.4942 10.51 11.3625
5/6/2021 9:43:57 AM 11.31 52.358 219.6 7.4949 22.31 11.31
5/6/2021 9:58:57 AM 11.33 52.394 219.3 7.4949 22.8675 11.33
5/6/2021 10:13:57 AM 11.6225 52.9205 217.2 7.4942 22.9325 11.6225
5/6/2021 10:28:57 AM 11.795 53.231 216.15 7.4942 23.07 11.795
5/6/2021 10:43:57 AM 11.9125 53.4425 215.45 7.4928 23.66 11.9125
5/6/2021 10:58:57 AM 12 53.6 215.1 7.4984 24.0225 12
5/6/2021 11:13:57 AM 12.0525 53.6945 214.4 7.4921 24.5075 12.0525
5/6/2021 11:28:57 AM 12.12 53.816 214.0499 7.4935 25.2525 12.12
5/6/2021 11:43:57 AM 12.19 53.942 214 7.4942 25.8225 12.19
5/6/2021 11:58:57 AM 11.8975 53.4155 215.45 7.4935 26.1575 11.8975
5/6/2021 12:13:56 PM 11.69 53.042 216.5 7.4956 26.84 11.69
5/6/2021 12:28:57 PM 11.5875 52.8575 217.2 7.49 27.21 11.5875
5/6/2021 12:43:57 PM 11.5875 52.8575 217.2 7.4893 27.4575 11.5875
5/6/2021 12:58:57 PM 11.605 52.889 217.55 7.314301 57.6499 11.605
5/6/2021 1:13:57 PM 11.5525 52.7945 217.55 7.4466 37.475 11.5525
5/6/2021 1:28:57 PM 11.5375 52.7675 217.5 7.4711 35.1975 11.5375
5/6/2021 1:43:57 PM 11.5725 52.8305 217.55 7.4816 33.2725 11.5725
5/6/2021 1:58:57 PM 11.605 52.889 217.2499 7.4865 31.7925 11.605
5/6/2021 2:13:57 PM 11.6175 52.9115 217.2 7.4893 30.2275 11.6175
5/6/2021 2:28:57 PM 11.6525 52.9745 216.85 7.4935 30.05 11.6525
5/6/2021 2:43:57 PM 11.705 53.069 216.15 7.4991 29.9125 11.705
5/6/2021 2:58:57 PM 11.7225 53.1005 216.55 7.4928 29.7575 11.7225
5/6/2021 3:13:57 PM 11.7925 53.2265 216.2 7.4984 29.685 11.7925
5/6/2021 3:28:57 PM 11.8425 53.3165 216.2 7.4991 29.32 11.8425
5/6/2021 3:43:57 PM 11.8775 53.3795 216.15 7.4928 29.1425 11.8775
5/6/2021 3:58:57 PM 11.93 53.474 216.15 7.4984 28.9825 11.93
5/6/2021 4:13:57 PM 11.965 53.537 216.15 7.504 28.8325 11.965
5/6/2021 4:28:57 PM 12 53.6 216.5 7.5047 28.535 12
5/6/2021 4:43:57 PM 12.0675 53.7215 216.5 7.5096 28.66 12.0675
5/6/2021 4:58:57 PM 12.12 53.816 216.55 7.5082 28.64 12.12
5/6/2021 5:13:57 PM 12.1375 53.8475 216.55 7.5117 28.5025 12.1375
5/6/2021 5:28:57 PM 12.12 53.816 216.85 7.5187 27.96 12.12
5/6/2021 5:43:57 PM 12.105 53.789 216.85 7.5229 27.89 12.105
5/6/2021 5:58:57 PM 12.09 53.762 217.2499 7.5222 28.01 12.09
5/6/2021 6:13:57 PM 12.07 53.726 217.55 7.5285 27.8175 12.07
5/6/2021 6:28:57 PM 12.055 53.699 217.9501 7.5362 27.75 12.055
5/6/2021 6:43:57 PM 12.015 53.627 217.9 7.5376 27.59 12.015
5/6/2021 6:58:57 PM 11.9675 53.5415 218.2499 7.546 27.205 11.9675
5/6/2021 7:13:57 PM 11.93 53.474 218.6499 7.552999 27.05 11.93
5/6/2021 7:28:57 PM 11.895 53.411 218.6 7.558599 26.5275 11.895
5/6/2021 7:43:57 PM 11.8625 53.3525 219 7.557899 26.285 11.8625
5/6/2021 7:58:57 PM 11.8475 53.3255 219.3 7.557899 26.13 11.8475
5/6/2021 8:13:57 PM 11.81 53.258 219.7 7.564199 25.745 11.81
5/6/2021 8:28:57 PM 11.795 53.231 220.3501 7.561399 25.555 11.795
5/6/2021 8:43:57 PM 11.7925 53.2265 220.7501 7.562099 25.9725 11.7925
5/6/2021 8:58:57 PM 11.795 53.231 221.0499 7.562799 25.54 11.795
5/6/2021 9:13:57 PM 11.7775 53.1995 221.4 7.561399 25.835 11.7775
5/6/2021 9:28:57 PM 11.7775 53.1995 221.7501 7.562799 26.0975 11.7775
5/6/2021 9:43:57 PM 11.76 53.168 221.8 7.564199 25.475 11.76
5/6/2021 9:58:57 PM 11.7425 53.1365 222.15 7.562799 25.475 11.7425
5/6/2021 10:13:57 PM 11.71 53.078 222.5 7.567699 25.6475 11.71
5/6/2021 10:28:57 PM 11.6925 53.0465 222.8 7.568399 26.0125 11.6925
5/6/2021 10:43:57 PM 11.675 53.015 223.2 7.569099 25.7725 11.675
5/6/2021 10:58:57 PM 11.6425 52.9565 223.55 7.566999 25.8225 11.6425
5/6/2021 11:13:57 PM 11.605 52.889 223.9 7.564199 26.2275 11.605
5/6/2021 11:28:57 PM 11.5875 52.8575 224.2499 7.569099 26.105 11.5875
5/6/2021 11:43:57 PM 11.5725 52.8305 224.6499 7.569099 26.1925 11.5725
5/7/2021 12:13:57 AM 11.4675 52.6415 224.9501 7.569799 25.9825 11.4675
5/7/2021 12:28:57 AM 11.415 52.547 224.9 7.564899 26.6075 11.415
5/7/2021 12:43:57 AM 11.3625 52.4525 225.3 7.570499 26.33 11.3625
5/7/2021 12:58:57 AM 11.3125 52.3625 225.3 7.569099 26.075 11.3125
5/7/2021 1:13:57 AM 11.2775 52.2995 225.6499 7.568399 25.6425 11.2775
5/7/2021 1:28:57 AM 11.21 52.178 226.0499 7.574699 25.6925 11.21
5/7/2021 1:43:57 AM 11.155 52.079 226.4 7.575399 24.9975 11.155
5/7/2021 1:58:57 AM 11.105 51.989 226.4 7.576099 25.26 11.105
5/7/2021 2:13:57 AM 11.0525 51.8945 226.4 7.575399 25.1875 11.0525
5/7/2021 2:28:57 AM 11.0025 51.8045 226.7501 7.573999 25.33 11.0025
5/7/2021 2:43:57 AM 10.9475 51.7055 226.7501 7.574699 25.0375 10.9475
5/7/2021 2:58:57 AM 10.9 51.62 226.8 7.573999 24.43 10.9
5/7/2021 3:13:57 AM 10.845 51.521 226.7501 7.571899 24.5175 10.845
5/7/2021 3:28:57 AM 10.7925 51.4265 226.7501 7.571199 24.4475 10.7925
5/7/2021 3:43:57 AM 10.76 51.368 226.7501 7.568399 24.29 10.76
5/7/2021 3:58:57 AM 10.7075 51.2735 226.8 7.571199 24.6925 10.7075
5/7/2021 4:13:57 AM 10.655 51.179 227.1 7.570499 24.19 10.655
5/7/2021 4:28:57 AM 10.605 51.089 227.15 7.569799 23.7 10.605
5/7/2021 4:43:57 AM 10.5525 50.9945 227.1 7.566299 23.8925 10.5525
5/7/2021 5:13:57 AM 10.465 50.837 227.5 7.567699 23.8425 10.465
5/7/2021 5:28:57 AM 10.43 50.774 227.45 7.566299 23.5125 10.43
5/7/2021 5:43:57 AM 10.3775 50.6795 227.45 7.566299 23.705 10.3775
5/7/2021 5:58:57 AM 10.3275 50.5895 227.45 7.561399 23.7425 10.3275
5/7/2021 6:13:57 AM 10.29 50.522 227.8 7.562799 23.67 10.29
5/7/2021 6:28:57 AM 10.255 50.459 227.8 7.557199 23.5125 10.255
5/7/2021 6:43:57 AM 10.24 50.432 227.8 7.555799 23.375 10.24
5/7/2021 6:58:57 AM 10.2225 50.4005 227.85 7.557899 23.355 10.2225
5/7/2021 7:13:57 AM 10.2075 50.3735 227.5 7.5509 23.0625 10.2075
5/7/2021 7:28:57 AM 10.205 50.369 227.5 7.552999 23.08 10.205
5/7/2021 7:43:57 AM 10.1875 50.3375 227.15 7.546 22.8525 10.1875
5/7/2021 7:58:57 AM 10.205 50.369 227.15 7.5481 23.1125 10.205
5/7/2021 8:13:57 AM 10.2225 50.4005 226.7501 7.5453 22.6725 10.2225
5/7/2021 8:28:57 AM 10.24 50.432 226.7501 7.5404 22.365 10.24
5/7/2021 8:43:57 AM 10.2725 50.4905 226.7501 7.5418 22.155 10.2725
5/7/2021 8:58:57 AM 10.3075 50.5535 226.4 7.5369 22.17 10.3075
5/7/2021 9:13:57 AM 10.36 50.648 226.4 7.5362 21.7025 10.36
5/7/2021 9:28:57 AM 10.3775 50.6795 226.7501 7.5369 21.68 10.3775
5/7/2021 9:43:57 AM 10.4275 50.7695 226.7501 7.5376 21.44 10.4275
5/7/2021 9:58:57 AM 10.4625 50.8325 226.4 7.5362 21.295 10.4625
5/7/2021 10:13:57 AM 10.515 50.927 226.4 7.5299 21.1275 10.515
5/7/2021 10:28:57 AM 10.53 50.954 226.4 7.5299 19.785 10.53
5/7/2021 10:43:57 AM 10.5475 50.9855 226.7501 7.532 19.6975 10.5475
5/7/2021 10:58:57 AM 10.565 51.017 226.7501 7.5313 19.4725 10.565
5/7/2021 11:13:57 AM 10.565 51.017 227.1 7.5369 19.09 10.565
5/7/2021 11:28:57 AM 10.5825 51.0485 227.4 7.5362 18.845 10.5825
5/7/2021 11:43:57 AM 10.615 51.107 227.4 7.5348 18.8825 10.615
5/7/2021 11:58:57 AM 10.635 51.143 227.4 7.5397 18.67 10.635
5/7/2021 12:13:57 PM 10.6525 51.1745 227.4 7.539 18.745 10.6525
5/7/2021 12:28:57 PM 10.67 51.206 227.7501 7.5411 18.3425 10.67
5/7/2021 12:43:57 PM 10.7025 51.2645 227.7501 7.5453 18.6875 10.7025
5/7/2021 12:58:57 PM 10.7375 51.3275 227.7 7.5453 18.43 10.7375
5/7/2021 1:13:57 PM 10.755 51.359 227.7 7.5481 18.17 10.755
5/7/2021 1:28:57 PM 10.7725 51.3905 227.7501 7.552999 18.0125 10.7725
5/7/2021 1:43:57 PM 10.805 51.449 227.7501 7.554399 17.975 10.805
5/7/2021 1:58:57 PM 10.84 51.512 227.7501 7.558599 18.0125 10.84
5/7/2021 2:13:57 PM 10.8775 51.5795 228.0499 7.559299 17.89 10.8775
5/7/2021 2:28:57 PM 10.91 51.638 228.0499 7.563499 17.5875 10.91
5/7/2021 2:43:57 PM 10.8925 51.6065 228.4 7.569099 17.5575 10.8925
5/7/2021 2:58:57 PM 10.8925 51.6065 228.45 7.574699 17.42 10.8925
5/7/2021 3:13:57 PM 10.8725 51.5705 228.7501 7.578199 17.415 10.8725
5/7/2021 3:28:57 PM 10.825 51.485 229.1 7.578199 17.1725 10.825
5/7/2021 3:43:57 PM 10.79 51.422 229.1 7.583099 17.175 10.79
5/7/2021 3:58:57 PM 10.7725 51.3905 229.45 7.588699 15.7875 10.7725
5/7/2021 4:13:57 PM 10.7375 51.3275 229.45 7.593599 15.65 10.7375
5/7/2021 4:28:57 PM 10.7025 51.2645 229.85 7.592899 15.84 10.7025
5/7/2021 4:43:57 PM 10.67 51.206 230.15 7.598499 15.8075 10.67
5/7/2021 4:58:57 PM 10.6375 51.1475 230.2 7.597799 15.065 10.6375
5/7/2021 5:13:57 PM 10.6175 51.1115 230.5 7.599199 15.485 10.6175
5/7/2021 5:28:57 PM 10.5975 51.0755 230.55 7.597799 15.4825 10.5975
5/7/2021 5:43:57 PM 10.5825 51.0485 230.85 7.597799 15.185 10.5825
5/7/2021 5:58:57 PM 10.565 51.017 230.85 7.603399 15.1475 10.565
5/7/2021 6:13:57 PM 10.5475 50.9855 230.9 7.601999 16.71 10.5475
5/7/2021 6:28:57 PM 10.53 50.954 230.85 7.614599 24.095 10.53
5/7/2021 6:43:57 PM 10.5125 50.9225 230.5 7.616699 23.135 10.5125
5/7/2021 6:58:57 PM 10.495 50.891 230.85 7.622999 21.0175 10.495
5/7/2021 7:13:57 PM 10.46 50.828 230.85 7.597799 18.6025 10.46
5/7/2021 7:28:57 PM 10.4425 50.7965 231.2499 7.598499 16.33 10.4425
5/7/2021 7:43:57 PM 10.41 50.738 231.55 7.599899 14.9425 10.41
5/7/2021 7:58:57 PM 10.375 50.675 231.9 7.599899 15.1175 10.375
5/7/2021 8:13:57 PM 10.34 50.612 231.9501 7.597799 14.9075 10.34
5/7/2021 8:28:57 PM 10.29 50.522 232.3 7.604099 14.685 10.29
5/7/2021 8:43:57 PM 10.255 50.459 232.2499 7.602699 14.4225 10.255
5/7/2021 8:58:57 PM 10.22 50.396 232.6 7.607599 14.3825 10.22
5/7/2021 9:13:57 PM 10.185 50.333 232.6 7.608999 14.09 10.185
5/7/2021 9:28:57 PM 10.15 50.27 232.9501 7.604799 14.455 10.15
5/7/2021 9:43:57 PM 10.115 50.207 233.3 7.604799 14.265 10.115
5/7/2021 9:58:57 PM 10.0975 50.1755 233.3 7.604099 14.435 10.0975
5/7/2021 10:13:57 PM 10.065 50.117 233.3 7.604799 14.23 10.065
5/7/2021 10:28:57 PM 10.045 50.081 233.6499 7.604799 13.965 10.045
5/7/2021 10:43:57 PM 10.03 50.054 233.6499 7.603399 14.23 10.03
5/7/2021 10:58:57 PM 10.0125 50.0225 233.9501 7.603399 14.2475 10.0125
5/7/2021 11:13:57 PM 10.0125 50.0225 234 7.598499 14.37 10.0125
5/7/2021 11:28:57 PM 9.9975 49.9955 233.9501 7.599199 14.095 9.997498
5/7/2021 11:43:57 PM 9.995 49.991 234.3501 7.601299 14.285 9.995003
5/8/2021 12:13:57 AM 9.96 49.928 235.3501 7.599899 14.3675 9.959999
5/8/2021 12:43:57 AM 9.94 49.892 236.0499 7.595699 14.335 9.942497
5/8/2021 12:58:57 AM 9.925 49.865 236.45 7.596399 14.3375 9.925003
5/8/2021 1:13:57 AM 9.925 49.865 236.7501 7.595699 14.13 9.925003
5/8/2021 1:28:57 AM 9.9275 49.8695 236.8 7.594299 14.265 9.927498
5/8/2021 1:43:57 AM 9.9075 49.8335 237.1 7.596399 14.3 9.907501
5/8/2021 1:58:57 AM 9.8925 49.8065 237.1 7.594299 14.49 9.892502
5/8/2021 2:13:57 AM 9.8575 49.7435 237.5 7.595699 14.4075 9.857498
5/8/2021 2:28:57 AM 9.8225 49.6805 237.8 7.595699 14.405 9.822502
5/8/2021 2:43:57 AM 9.805 49.649 237.8 7.596399 14.4225 9.805
5/8/2021 2:58:57 AM 9.77 49.586 238.15 7.594999 14.6825 9.769997
5/8/2021 3:13:57 AM 9.735 49.523 238.15 7.594999 14.4925 9.735001
5/8/2021 3:28:57 AM 9.7025 49.4645 238.15 7.596399 14.1975 9.702499
5/8/2021 3:43:57 AM 9.685 49.433 238.2 7.594299 14.7525 9.684998
5/8/2021 3:58:57 AM 9.6325 49.3385 238.15 7.590799 14.755 9.6325
5/8/2021 4:13:57 AM 9.615 49.307 237.8 7.590799 14.93 9.614998
5/8/2021 4:28:57 AM 9.58 49.244 238.15 7.585199 14.91 9.580002
5/8/2021 4:43:57 AM 9.5625 49.2125 238.2 7.585199 15.2425 9.5625
5/8/2021 4:58:57 AM 9.5475 49.1855 238.2 7.579599 15.2625 9.547501
5/8/2021 5:13:57 AM 9.5275 49.1495 238.2 7.576799 15.595 9.527496
5/8/2021 5:28:57 AM 9.4925 49.0865 238.2 7.576099 15.3475 9.4925
5/8/2021 5:43:57 AM 9.4775 49.0595 238.2 7.570499 15.7175 9.477501
5/8/2021 5:58:57 AM 9.46 49.028 238.15 7.567699 15.9275 9.459999
5/8/2021 6:13:57 AM 9.4275 48.9695 238.2 7.561399 15.825 9.427498
5/8/2021 6:28:57 AM 9.405 48.929 238.2 7.557199 16.24 9.404999
5/8/2021 6:43:57 AM 9.39 48.902 238.15 7.555799 16.0825 9.389999
5/8/2021 6:58:57 AM 9.3725 48.8705 237.85 7.553699 16.17 9.372498
5/8/2021 7:13:57 AM 9.3575 48.8435 237.5 7.5481 16.24 9.357498
5/8/2021 7:28:57 AM 9.34 48.812 237.15 7.5453 16.31 9.339996
5/8/2021 7:43:57 AM 9.3375 48.8075 236.8 7.5425 16.3625 9.337502
5/8/2021 7:58:57 AM 9.32 48.776 236.45 7.5425 16.5325 9.32
5/8/2021 8:13:57 AM 9.32 48.776 236.1 7.5376 16.3425 9.32
5/8/2021 8:43:57 AM 9.32 48.776 236.1 7.5327 16.86 9.32
5/8/2021 8:58:57 AM 9.305 48.749 236.1 7.5278 17.3275 9.305
5/8/2021 9:13:57 AM 9.285 48.713 236.45 7.5285 17.0325 9.285004
5/8/2021 9:28:57 AM 9.285 48.713 236.8 7.5285 17.38 9.285004
5/8/2021 9:43:56 AM 9.2675 48.6815 236.7501 7.5236 17.2525 9.267502
5/8/2021 9:58:56 AM 9.2675 48.6815 236.45 7.5222 17.7975 9.267502
5/8/2021 10:13:57 AM 9.25 48.65 236.0499 7.518 18.44 9.25
5/8/2021 10:28:57 AM 9.2325 48.6185 235.7501 7.5187 18.6875 9.232498
5/8/2021 10:43:57 AM 9.215 48.587 235.0499 7.5173 19.485 9.214996
5/8/2021 10:58:57 AM 9.1975 48.5555 234.3501 7.5124 19.635 9.197502
5/8/2021 11:13:57 AM 9.18 48.524 233.6499 7.5117 19.95 9.18
5/8/2021 11:28:57 AM 9.1625 48.4925 232.55 7.5138 20.455 9.162498
5/8/2021 11:43:57 AM 9.1625 48.4925 231.2499 7.5068 20.6775 9.162498
5/8/2021 11:58:57 AM 9.1825 48.5285 229.85 7.5075 21.06 9.182503
5/8/2021 12:13:57 PM 9.18 48.524 228.45 7.5075 20.7125 9.18
5/8/2021 12:28:57 PM 9.2 48.56 227.45 7.5075 21.565 9.199997
5/8/2021 12:43:57 PM 9.215 48.587 226.3501 7.5026 21.0075 9.214996
5/8/2021 12:58:57 PM 9.215 48.587 225.3501 7.5019 21.2525 9.214996
5/8/2021 1:13:57 PM 9.215 48.587 224.9501 7.5026 20.765 9.214996
5/8/2021 1:28:57 PM 9.2325 48.6185 224.3 7.5012 20.6925 9.232498
5/8/2021 1:43:57 PM 9.25 48.65 223.6499 7.5026 20.505 9.25
5/8/2021 1:58:57 PM 9.265 48.677 222.9 7.5012 20.1 9.264999
5/8/2021 2:13:57 PM 9.3025 48.7445 221.9 7.5019 20.1025 9.302498
5/8/2021 2:28:57 PM 9.335 48.803 221.2 7.5026 19.9275 9.334999
5/8/2021 2:43:57 PM 9.3525 48.8345 220.5 7.5012 20.1 9.352501
5/8/2021 2:58:57 PM 9.385 48.893 219.7501 7.5026 19.945 9.385002
5/8/2021 3:13:57 PM 9.405 48.929 219.45 7.5012 19.375 9.404999
5/8/2021 3:28:57 PM 9.405 48.929 219.1 7.5019 20.3625 9.404999
5/8/2021 3:43:57 PM 9.405 48.929 218.4 7.5012 19.39 9.404999
5/8/2021 3:58:57 PM 9.4225 48.9605 218.0499 7.5033 19.4375 9.422501
5/8/2021 4:13:57 PM 9.455 49.019 217.7 7.5075 19.405 9.455002
5/8/2021 4:28:57 PM 9.4725 49.0505 217 7.5082 19.44 9.472504
5/8/2021 4:43:57 PM 9.4575 49.0235 216.7 7.5061 19.165 9.457497
5/8/2021 4:58:57 PM 9.4375 48.9875 216.7 7.5124 19.4775 9.4375
5/8/2021 5:13:57 PM 9.455 49.019 216.3501 7.5131 19.2675 9.455002
5/8/2021 5:28:57 PM 9.4725 49.0505 216.3 7.5166 19.285 9.472504
5/8/2021 5:43:57 PM 9.49 49.082 216.3 7.5208 19.1275 9.489998
5/8/2021 5:58:57 PM 9.545 49.181 216 7.5222 19.8425 9.544998
5/8/2021 6:13:57 PM 9.61 49.298 215.6499 7.5264 19.405 9.610001
5/8/2021 6:28:57 PM 9.6475 49.3655 215.3501 7.5264 19.5425 9.647499
5/8/2021 6:43:57 PM 9.68 49.424 214.9501 7.532 19.42 9.68
5/8/2021 6:58:56 PM 9.665 49.397 215 7.5369 19.58 9.665001
5/8/2021 7:13:57 PM 9.645 49.361 214.9501 7.5418 19.5425 9.644997
5/8/2021 7:28:57 PM 9.6475 49.3655 214.9501 7.546 19.5075 9.647499
5/8/2021 7:43:57 PM 9.6475 49.3655 215 7.5502 19.0725 9.647499
5/8/2021 7:58:57 PM 9.6475 49.3655 214.9501 7.5509 19.2125 9.647499
5/8/2021 8:13:57 PM 9.63 49.334 215 7.555799 19.9075 9.629997
5/8/2021 8:28:57 PM 9.6125 49.3025 215 7.556499 19.2 9.612503
5/8/2021 8:43:57 PM 9.595 49.271 215.3 7.562099 19.355 9.595001
5/8/2021 8:58:57 PM 9.5775 49.2395 215 7.561399 19.4775 9.577499
5/8/2021 9:13:57 PM 9.5625 49.2125 215 7.565599 19.8425 9.5625
5/8/2021 9:28:57 PM 9.545 49.181 215.3501 7.565599 19.8975 9.544998
5/8/2021 9:43:57 PM 9.51 49.118 215.6499 7.566999 20.1025 9.510002
5/8/2021 9:58:57 PM 9.475 49.055 216 7.571199 20.4175 9.474998
5/8/2021 10:13:57 PM 9.44 48.992 216.3501 7.571899 20.695 9.440002
5/8/2021 10:28:57 PM 9.405 48.929 216.7 7.570499 20.485 9.404999
5/8/2021 10:43:57 PM 9.3875 48.8975 216.7 7.571899 20.2275 9.387497
5/8/2021 10:58:57 PM 9.3725 48.8705 216.3501 7.571199 20.505 9.372498
5/8/2021 11:13:57 PM 9.3525 48.8345 215.6499 7.571899 20.7125 9.355003
5/8/2021 11:28:57 PM 9.355 48.839 215 7.572599 20.6625 9.355003
5/8/2021 11:43:57 PM 9.3375 48.8075 214.3 7.564899 20.6775 9.337502
5/9/2021 12:13:57 AM 9.3025 48.7445 212.6 7.557199 20.5475 9.302498
5/9/2021 12:28:57 AM 9.285 48.713 211.9 7.557199 19.8975 9.285004
5/9/2021 12:43:57 AM 9.2675 48.6815 210.9 7.5509 19.24 9.267502
5/9/2021 12:58:57 AM 9.25 48.65 209.8 7.5474 19.025 9.25
5/9/2021 1:13:57 AM 9.2175 48.5915 208.8 7.546 19.5875 9.217499
5/9/2021 1:43:57 AM 9.1825 48.5285 207.0499 7.5439 19.1875 9.182503
5/9/2021 1:58:57 AM 9.165 48.497 206 7.5432 19.155 9.165001
5/9/2021 2:13:57 AM 9.1325 48.4385 205.7 7.5369 18.8425 9.1325
5/9/2021 2:28:57 AM 9.115 48.407 205.3501 7.5327 18.895 9.114998
5/9/2021 2:43:57 AM 9.0775 48.3395 205 7.5341 18.585 9.077499
5/9/2021 2:58:57 AM 9.06 48.308 204.6499 7.5299 19.1375 9.059998
5/9/2021 3:13:57 AM 9.0275 48.2495 204.3501 7.5229 18.2875 9.027496
5/9/2021 3:28:57 AM 9.01 48.218 204.3501 7.5222 18.88 9.010002
5/9/2021 3:43:57 AM 8.9925 48.1865 203.9501 7.5201 18.8625 8.9925
5/9/2021 3:58:57 AM 8.9575 48.1235 203.6499 7.5152 18.4275 8.957497
5/9/2021 4:13:57 AM 8.9425 48.0965 203.6499 7.5082 18.8675 8.942497
5/9/2021 4:28:57 AM 8.9075 48.0335 203.3 7.5089 18.6225 8.907501
5/9/2021 4:43:57 AM 8.8725 47.9705 203.3 7.504 18.6075 8.872498
5/9/2021 4:58:57 AM 8.8525 47.9345 203.3 7.504 18.7725 8.852501
5/9/2021 5:13:57 AM 8.835 47.903 203.3 7.4998 19.2475 8.834999
5/9/2021 5:28:57 AM 8.805 47.849 203.3 7.4998 18.9875 8.805
5/9/2021 5:43:57 AM 8.9225 48.0605 202.2499 7.4942 18.655 8.922501
5/9/2021 5:58:57 AM 9.13 48.434 200.9 7.4893 19.135 9.129997
5/9/2021 6:13:57 AM 9.285 48.713 199.8 7.4886 18.4725 9.285004
5/9/2021 6:28:57 AM 9.37 48.866 199.0499 7.4844 18.5575 9.370003
5/9/2021 6:43:57 AM 9.44 48.992 198.7501 7.483 18.64 9.440002
5/9/2021 6:58:57 AM 9.455 49.019 198.7501 7.4774 18.41 9.455002
5/9/2021 7:13:57 AM 9.1625 48.4925 200.85 7.4774 18.3675 9.162498
5/9/2021 7:28:57 AM 9.0075 48.2135 201.9 7.4739 18.335 9.0075
5/9/2021 7:43:57 AM 8.9225 48.0605 202.9501 7.4746 17.92 8.922501
5/9/2021 7:58:57 AM 8.885 47.993 203.6 7.4704 17.5375 8.885002
5/9/2021 8:13:57 AM 8.885 47.993 203.9501 7.4697 17.6225 8.885002
5/9/2021 8:28:57 AM 8.905 48.029 204.3 7.469 17.54 8.904999
5/9/2021 8:43:57 AM 8.9225 48.0605 204.3501 7.4683 16.95 8.922501
5/9/2021 8:58:57 AM 8.955 48.119 203.9501 7.4683 17.2775 8.955002
5/9/2021 9:13:57 AM 9.0075 48.2135 203.9501 7.4648 16.825 9.0075
5/9/2021 9:28:57 AM 9.0425 48.2765 203.9501 7.4634 16.65 9.042503
5/9/2021 9:43:57 AM 9.0575 48.3035 203.9501 7.4641 16.5625 9.057503
5/9/2021 9:58:57 AM 9.0775 48.3395 203.9501 7.4627 16.685 9.077499
5/9/2021 10:13:57 AM 9.075 48.335 203.55 7.4389 732.1501 9.074997
5/9/2021 10:28:57 AM 9.005 48.209 204.6499 7.4151 18.11 9.004997
5/9/2021 10:43:57 AM 9.025 48.245 204.6 7.4298 17.3775 9.025002
5/9/2021 10:58:57 AM 9.04 48.272 204.2499 7.434 16.89 9.040001
5/9/2021 11:13:57 AM 9.075 48.335 204.2499 7.448 16.73 9.074997
5/9/2021 11:28:57 AM 9.0925 48.3665 203.9 7.4529 16.5925 9.092499
5/9/2021 11:43:57 AM 9.11 48.398 203.55 7.4592 16.4025 9.110001
5/9/2021 11:58:57 AM 9.1425 48.4565 203.6 7.4592 16.665 9.142502
5/9/2021 12:13:57 PM 9.1625 48.4925 203.55 7.4648 16.65 9.162498
5/9/2021 12:28:57 PM 9.195 48.551 203.6 7.469 16.7175 9.195
5/9/2021 12:43:57 PM 9.2125 48.5825 203.6 7.4746 16.5925 9.212502
5/9/2021 12:58:57 PM 9.245 48.641 203.55 7.4746 16.5425 9.245003
5/9/2021 1:13:57 PM 9.25 48.65 203.55 7.4788 16.525 9.25
5/9/2021 1:28:57 PM 9.265 48.677 203.6 7.4781 16.5925 9.264999
5/9/2021 1:43:57 PM 9.28 48.704 203.6 7.483 16.5425 9.279999
5/9/2021 1:58:57 PM 9.25 48.65 203.9 7.4809 16.6825 9.25
5/9/2021 2:13:57 PM 9.245 48.641 203.55 7.4886 16.5725 9.245003
5/9/2021 2:28:57 PM 9.2125 48.5825 203.9 7.4921 16.555 9.212502
5/9/2021 2:43:57 PM 9.18 48.524 204.2499 7.4984 16.44 9.18
5/9/2021 2:58:57 PM 9.125 48.425 204.6 7.4984 16.455 9.125
5/9/2021 3:13:57 PM 9.2675 48.6815 203.9 7.4984 16.3125 9.267502
5/9/2021 3:28:57 PM 9.42 48.956 202.9 7.5033 16.16 9.419998
5/9/2021 3:43:57 PM 9.49 49.082 202.55 7.5019 16.4 9.489998
5/9/2021 3:58:57 PM 9.525 49.145 202.5 7.5019 19.4725 9.525002
5/9/2021 4:13:57 PM 9.2975 48.7355 203.55 7.511 35.1575 9.297501
5/9/2021 4:28:57 PM 9.1775 48.5195 204.2 7.5208 34.3925 9.177498
5/9/2021 4:43:57 PM 9.09 48.362 204.9 7.5264 30.56 9.089996
5/9/2021 4:58:57 PM 9.0225 48.2405 205.2499 7.5257 26.3025 9.022499
5/9/2021 5:13:57 PM 8.99 48.182 205.6 7.5257 20.9 8.989998
5/9/2021 5:28:57 PM 8.97 48.146 205.9501 7.5271 18.505 8.970001
5/9/2021 5:43:57 PM 8.955 48.119 206.3501 7.5327 17.605 8.955002
5/9/2021 5:58:57 PM 8.9025 48.0245 206.7 7.5285 18.1225 8.902496
5/9/2021 6:13:57 PM 8.8675 47.9615 207.0499 7.5411 26.0975 8.8675
5/9/2021 6:28:57 PM 8.85 47.93 207.3501 7.5467 25.3325 8.849998
5/9/2021 6:43:57 PM 8.8325 47.8985 207.3501 7.5474 24.6025 8.832497
5/9/2021 6:58:57 PM 8.8 47.84 207.3501 7.5467 22.14 8.800003
5/9/2021 7:13:57 PM 8.78 47.804 207.7501 7.5369 18.56 8.779999
5/9/2021 7:28:57 PM 8.765 47.777 208.0499 7.5411 16.72 8.764999
5/9/2021 7:43:57 PM 8.7475 47.7455 208.1 7.5425 16.195 8.747498
5/9/2021 7:58:57 PM 8.7125 47.6825 208.4 7.5439 16.055 8.712502
5/9/2021 8:13:57 PM 8.675 47.615 208.8 7.5425 15.8025 8.675003
5/9/2021 8:28:57 PM 8.66 47.588 208.8 7.5481 15.61 8.660004
5/9/2021 8:43:57 PM 8.6275 47.5295 209.15 7.5481 15.525 8.627502
5/9/2021 8:58:57 PM 8.61 47.498 209.15 7.5481 15.3575 8.610001
5/9/2021 9:13:57 PM 8.5925 47.4665 209.15 7.5488 15.475 8.592499
5/9/2021 9:28:57 PM 8.5775 47.4395 208.8 7.552999 15.63 8.577499
5/9/2021 9:43:57 PM 8.5575 47.4035 208.8 7.552299 15.6475 8.557503
5/9/2021 9:58:57 PM 8.5575 47.4035 208.45 7.552999 15.785 8.557503
5/9/2021 10:13:57 PM 8.5425 47.3765 208.45 7.554399 15.89 8.542503
5/9/2021 10:28:57 PM 8.54 47.372 208.4 7.553699 16.185 8.540001
5/9/2021 10:43:57 PM 8.5225 47.3405 208.1 7.5474 16.4475 8.522499
5/9/2021 10:58:57 PM 8.505 47.309 207.7501 7.5474 16.6375 8.504997
5/9/2021 11:13:57 PM 8.505 47.309 207.4 7.5439 16.635 8.504997
5/9/2021 11:28:57 PM 8.4875 47.2775 207.1 7.5425 17.16 8.487503
5/9/2021 11:43:57 PM 8.4875 47.2775 206.7 7.5432 17.4025 8.487503
5/10/2021 12:13:57 AM 8.4725 47.2505 206.3501 7.5376 17.6325 8.472504
5/10/2021 12:28:57 AM 8.455 47.219 206.0499 7.5383 18.0275 8.455002
5/10/2021 12:43:57 AM 8.4525 47.2145 205.7 7.5376 18.3225 8.452499
5/10/2021 12:58:57 AM 8.4525 47.2145 205.7 7.5348 18.7925 8.455002
5/10/2021 1:13:57 AM 8.4375 47.1875 205.3 7.5341 19.1375 8.4375
5/10/2021 1:28:57 AM 8.42 47.156 205 7.5278 19.85 8.419998
5/10/2021 1:43:57 AM 8.4 47.12 204.6499 7.5278 20.46 8.400002
5/10/2021 1:58:57 AM 8.385 47.093 204.6 7.5236 21.31 8.385002
5/10/2021 2:13:57 AM 8.3675 47.0615 204.3 7.5222 22.72 8.3675
5/10/2021 2:28:57 AM 8.35 47.03 203.9501 7.5194 23.9875 8.349998
5/10/2021 2:43:57 AM 8.315 46.967 203.6 7.5187 25.7725 8.315002
5/10/2021 2:58:57 AM 8.28 46.904 202.9 7.5152 27.59 8.279999
5/10/2021 3:13:57 AM 8.2625 46.8725 201.85 7.5075 29.75 8.262497
5/10/2021 3:28:57 AM 8.2275 46.8095 200.8 7.5026 31.6975 8.227501
5/10/2021 3:43:57 AM 8.195 46.751 200.1 7.4977 33.5925 8.195
5/10/2021 3:58:57 AM 8.1775 46.7195 199.1 7.4893 35.69 8.177498
5/10/2021 4:13:57 AM 8.1575 46.6835 198.0499 7.4844 40.35 8.157501
5/10/2021 4:28:57 AM 8.1225 46.6205 196.9501 7.4816 43.3825 8.122498
5/10/2021 4:43:57 AM 8.105 46.589 195.9501 7.4774 44.95 8.105003
5/10/2021 4:58:57 AM 8.07 46.526 194.55 7.4746 43.15002 8.07
5/10/2021 5:13:57 AM 8.0525 46.4945 193.2 7.4648 44.24988 8.052498
5/10/2021 5:28:57 AM 8.035 46.463 191.85 7.4592 46.75012 8.035004
5/10/2021 5:43:57 AM 8 46.4 190.4 7.4508 49.55005 8
5/10/2021 5:58:57 AM 7.95 46.31 189.0499 7.4396 52.59998 7.949997
5/10/2021 6:13:57 AM 7.915 46.247 187.3 7.434 56.44995 7.915001
5/10/2021 6:28:57 AM 7.8625 46.1525 185.6 7.4305 61.04993 7.862503
5/10/2021 6:43:57 AM 7.8275 46.0895 184.2 7.4242 63.5 7.827499
5/10/2021 6:58:57 AM 7.7775 45.9995 182.5 7.42 66.55005 7.777496
5/10/2021 7:13:57 AM 7.74 45.932 181.1 7.4144 68.59998 7.739998
5/10/2021 7:28:57 AM 7.6875 45.8375 179.7501 7.4158 71.6499 7.6875
5/10/2021 7:43:57 AM 7.655 45.779 178.3 7.4109 73.80005 7.654999
5/10/2021 7:58:57 AM 7.62 45.716 177.3 7.4046 74.24988 7.620003
5/10/2021 8:13:57 AM 7.6 45.68 175.9 7.4004 74.80005 7.599998
5/10/2021 8:28:57 AM 7.5675 45.6215 174.85 7.4011 75.84998 7.567497
5/10/2021 8:43:57 AM 7.53 45.554 173.85 7.3955 77 7.529999
5/10/2021 8:58:57 AM 7.515 45.527 172.7501 7.3892 78.30005 7.514999
5/10/2021 9:13:57 AM 7.4975 45.4955 171.4 7.3892 79.75012 7.497498
5/10/2021 9:28:57 AM 7.4975 45.4955 172.45 7.3318 76.90002 7.497498
5/10/2021 9:43:57 AM 7.6875 45.8375 168.9501 7.303801 91.44995 7.6875
5/10/2021 9:58:57 AM 7.8925 46.2065 166.5 7.3346 87.55005 7.892502
5/10/2021 10:13:57 AM 7.995 46.391 164.8 7.3514 88.80005 7.995003
5/10/2021 10:28:57 AM 8.0475 46.4855 163.3501 7.3591 91 8.047501
5/10/2021 10:43:57 AM 8.1 46.58 162.3 7.3605 92.75012 8.099998
5/10/2021 10:58:57 AM 8.15 46.67 161.2499 7.3591 92.84998 8.150002
5/10/2021 11:13:57 AM 8.205 46.769 160.9 7.3549 92.55005 8.205002
5/10/2021 11:28:57 AM 8.27 46.886 160.55 7.3542 93.40002 8.269997
5/10/2021 11:43:57 AM 8.2875 46.9175 161.6 7.35 91.80005 8.287498
5/10/2021 11:58:57 AM 8.3425 47.0165 164 7.343 89.75012 8.342499
5/10/2021 12:13:57 PM 8.41 47.138 167.45 7.3388 88.95007 8.410004
5/10/2021 12:28:57 PM 8.48 47.264 171.3 7.3346 86.44995 8.480003
5/10/2021 12:43:57 PM 8.5475 47.3855 175.8 7.3339 83.40002 8.547501
5/10/2021 12:58:57 PM 8.6325 47.5385 179.2 7.3248 81.30005 8.6325
5/10/2021 1:13:57 PM 8.705 47.669 182.3 7.319201 79.5 8.705002
5/10/2021 1:43:57 PM 8.825 47.885 187.2 7.314301 75 8.824997
5/10/2021 1:58:57 PM 8.8925 48.0065 188.2 7.315701 73.3501 8.892502
5/10/2021 2:13:57 PM 8.965 48.137 189.2 7.309401 71.90002 8.964996
5/10/2021 2:28:57 PM 8.98 48.164 189.9 7.314301 70.55005 8.980003
5/10/2021 2:43:57 PM 9.0325 48.2585 190.3 7.310801 68.84998 9.032501
5/10/2021 2:58:57 PM 9.1 48.38 190.6 7.310801 67.15002 9.099998
5/10/2021 3:13:57 PM 9.17 48.506 190.9501 7.314301 65.44995 9.169998
5/10/2021 3:28:57 PM 9.24 48.632 191 7.309401 64.30005 9.239998
5/10/2021 3:43:57 PM 9.2925 48.7265 190.9 7.310801 63 9.294998
5/10/2021 3:58:57 PM 9.3325 48.7985 191 7.309401 61.95007 9.332497
5/10/2021 4:13:57 PM 9.3825 48.8885 190.9 7.311501 60.09998 9.3825
5/10/2021 4:28:57 PM 9.455 49.019 190.9501 7.309401 59.24988 9.455002
5/10/2021 4:43:56 PM 9.4875 49.0775 190.9 7.315701 57.44995 9.487503
5/10/2021 4:58:57 PM 9.54 49.172 190.55 7.314301 57.84998 9.540001
5/10/2021 5:13:57 PM 9.59 49.262 190.2499 7.316401 56.09998 9.589996
5/10/2021 5:28:57 PM 9.6425 49.3565 189.55 7.322001 55.40002 9.642502
5/10/2021 5:43:57 PM 9.6975 49.4555 189.2 7.319901 54.3501 9.697502
5/10/2021 5:58:57 PM 9.73 49.514 188.8 7.320601 54.44995 9.730003
5/10/2021 6:13:57 PM 9.7825 49.6085 188.45 7.242901 52.95007 9.764999
5/10/2021 6:28:57 PM 9.8175 49.6715 188.15 7.319901 52.95007 9.817497
5/10/2021 6:43:57 PM 9.87 49.766 187.45 7.292601 52.5 9.870003
5/10/2021 6:58:57 PM 9.9375 49.8875 187.45 7.291201 52.15002 9.9375
5/10/2021 7:13:57 PM 9.9925 49.9865 187.15 7.296801 52.80005 9.9925
5/10/2021 7:28:57 PM 10.045 50.081 186.7501 7.300301 53.6499 10.045
5/10/2021 7:43:57 PM 10.0775 50.1395 186.0499 7.300301 54.3501 10.0775
5/10/2021 7:58:57 PM 10.0975 50.1755 185.7501 7.304501 54.04993 10.0975
5/10/2021 8:13:57 PM 10.13 50.234 185.7 7.317101 55.30005 10.13
5/10/2021 8:28:57 PM 10.1475 50.2655 185.7 7.319201 56.15002 10.1475
5/10/2021 8:43:57 PM 10.165 50.297 185.4 7.319901 57.5 10.165
5/10/2021 8:58:57 PM 10.1625 50.2925 185.4 7.320601 57.19995 10.1625
5/10/2021 9:13:57 PM 10.1625 50.2925 185.4 7.316401 58.59998 10.1625
5/10/2021 9:28:57 PM 10.1825 50.3285 185.4 7.314301 59.24988 10.1825
5/10/2021 9:43:57 PM 10.165 50.297 185.4 7.314301 58.90002 10.165
5/10/2021 9:58:57 PM 10.1825 50.3285 185.3501 7.322001 58.44995 10.1825
5/10/2021 10:13:57 PM 10.1825 50.3285 185.3501 7.3248 59.15002 10.18
5/10/2021 10:28:57 PM 10.1625 50.2925 185.3501 7.3297 59.19995 10.1625
5/10/2021 10:43:57 PM 10.165 50.297 185.45 7.3346 58.95007 10.165
5/10/2021 10:58:57 PM 10.165 50.297 185.0499 7.3339 58.55005 10.165
5/10/2021 11:13:57 PM 10.165 50.297 185 7.3381 59.24988 10.165
5/10/2021 11:28:57 PM 10.165 50.297 185.3501 7.3388 59.09998 10.165
5/10/2021 11:43:57 PM 10.165 50.297 185.7501 7.3402 59.09998 10.165
5/11/2021 12:13:57 AM 10.1325 50.2385 186.1 7.3388 59.6499 10.1325
5/11/2021 12:28:57 AM 10.11 50.198 186.0499 7.3395 59.69995 10.11
5/11/2021 12:43:57 AM 10.1125 50.2025 186.0499 7.3388 58.55005 10.1125
5/11/2021 12:58:57 AM 10.0975 50.1755 186.0499 7.3353 59.59998 10.0975
5/11/2021 1:13:57 AM 10.08 50.144 186.4 7.3339 60.59998 10.08
5/11/2021 1:28:57 AM 10.06 50.108 186.0499 7.280701 60.59998 10.06
5/11/2021 1:43:57 AM 10.0425 50.0765 186.0499 7.305901 62.04993 10.0425
5/11/2021 1:58:57 AM 10.0425 50.0765 186.0499 7.310101 62.75012 10.0425
5/11/2021 2:13:57 AM 10.0275 50.0495 186.4 7.315001 62.3501 10.0275
5/11/2021 2:28:57 AM 10.0075 50.0135 186.4 7.315001 63.40002 10.0075
5/11/2021 2:43:57 AM 10.0075 50.0135 186.4 7.314301 63.80005 10.0075
5/11/2021 2:58:57 AM 9.99 49.982 186.7501 7.319901 63.75012 9.989998
5/11/2021 3:13:57 AM 9.9725 49.9505 186.4 7.320601 64.3501 9.972504
5/11/2021 3:28:57 AM 9.955 49.919 186.45 7.321301 64.75012 9.955002
5/11/2021 3:43:57 AM 9.9375 49.8875 186.0499 7.320601 65.19995 9.9375
5/11/2021 3:58:57 AM 9.9225 49.8605 185.7501 7.321301 64.69995 9.922501
5/11/2021 4:13:57 AM 9.885 49.793 185.4 7.321301 65.40002 9.885002
5/11/2021 4:28:57 AM 9.87 49.766 185 7.3255 64.90002 9.870003
5/11/2021 4:43:57 AM 9.8375 49.7075 184.7 7.3234 65.44995 9.837502
5/11/2021 4:58:57 AM 9.82 49.676 184.3501 7.3283 65.04993 9.82
5/11/2021 5:13:57 AM 9.7825 49.6085 183.9501 7.3402 66.15002 9.782501
5/11/2021 5:28:57 AM 9.7475 49.5455 184 7.3451 66.55005 9.747498
5/11/2021 5:43:57 AM 9.7325 49.5185 184 7.3458 65.84998 9.732498
5/11/2021 5:58:57 AM 9.6775 49.4195 184 7.3444 66.59998 9.677498
5/11/2021 6:13:57 AM 9.6425 49.3565 183.6 7.3458 67.90002 9.642502
5/11/2021 6:28:57 AM 9.61 49.298 183.6499 7.3437 66.55005 9.610001
5/11/2021 6:43:57 AM 9.5725 49.2305 183.3 7.3451 65 9.572502
5/11/2021 6:58:57 AM 9.5375 49.1675 182.9501 7.3409 65.15002 9.537498
5/11/2021 7:13:57 AM 9.5225 49.1405 182.9501 7.314301 65.09998 9.522499
5/11/2021 7:28:57 AM 9.5225 49.1405 182.6499 7.320601 65.04993 9.522499
5/11/2021 7:43:57 AM 9.505 49.109 182.3 7.321301 65.15002 9.504997
5/11/2021 7:58:57 AM 9.505 49.109 181.9 7.321301 64.5 9.504997
5/11/2021 8:13:57 AM 9.5025 49.1045 181.55 7.319901 64.80005 9.502502
5/11/2021 8:25:56 AM 9.5025 49.1045 181.55 7.319901 64.5 9.502502
5/11/2021 8:40:55 AM 9.5225 49.1405 181.2 7.320601 64.5 9.522499
5/11/2021 8:55:55 AM 9.5375 49.1675 180.85 7.321301 64.19995 9.537498
5/11/2021 9:10:55 AM 9.5575 49.2035 180.55 7.319201 63.69995 9.557503
5/11/2021 9:25:55 AM 9.5725 49.2305 180.15 7.313601 63.3501 9.572502
5/11/2021 9:40:55 AM 9.6075 49.2935 179.8 7.315001 64.6499 9.607498
5/11/2021 9:55:55 AM 9.6075 49.2935 179.8 7.315701 65.09998 9.607498
5/11/2021 10:10:55 AM 9.625 49.325 179.5 7.314301 65.15002 9.625
5/11/2021 10:25:55 AM 9.66 49.388 179.1 7.315001 65.09998 9.660004
5/11/2021 10:40:55 AM 9.695 49.451 178.7501 7.310801 65.44995 9.695
5/11/2021 10:55:56 AM 9.6925 49.4465 178.4 7.310801 66.80005 9.692497
5/11/2021 11:10:55 AM 9.7125 49.4825 178.0499 7.310101 67.59998 9.712502
5/11/2021 11:25:56 AM 9.745 49.541 178.1 7.321301 67.24988 9.745003
5/11/2021 11:40:56 AM 9.7625 49.5725 178.1 7.315701 68.24988 9.762497
5/11/2021 11:55:56 AM 9.765 49.577 177.7501 7.312901 68.30005 9.764999
5/11/2021 12:10:56 PM 9.7975 49.6355 177.4 7.318501 70.30005 9.797501
5/11/2021 12:25:55 PM 9.8325 49.6985 177.0499 7.3234 69 9.832497
5/11/2021 12:40:56 PM 9.885 49.793 176.3501 7.320601 70.6499 9.885002
5/11/2021 12:55:55 PM 9.9 49.82 176.3501 7.3241 71 9.900002
5/11/2021 1:10:55 PM 9.9175 49.8515 176.3501 5.6938 165.8 9.917503
5/11/2021 1:25:55 PM 9.485 49.073 178.8 7.193899 65.09998 9.485001
5/11/2021 1:40:55 PM 9.12 48.416 181.2 7.289101 56.3501 9.120003
5/11/2021 1:55:56 PM 9.1025 48.3845 181.2 7.273701 56.09998 9.102501
5/11/2021 2:10:55 PM 9.135 48.443 180.8 7.284901 56.3501 9.135002
5/11/2021 2:25:56 PM 9.19 48.542 180.85 7.294001 55.55005 9.190002
5/11/2021 2:40:55 PM 9.205 48.569 180.85 7.300301 56 9.205002
5/11/2021 2:55:55 PM 9.26 48.668 180.8 7.3241 54.95007 9.260002
5/11/2021 3:10:56 PM 9.2775 48.6995 180.8 7.3339 54.6499 9.277496
5/11/2021 3:25:55 PM 9.31 48.758 180.85 7.3395 53.95007 9.309998
5/11/2021 3:40:55 PM 9.345 48.821 180.8 7.3388 53.55005 9.345001
5/11/2021 3:55:55 PM 9.3625 48.8525 180.85 7.3388 51.75012 9.362503
5/11/2021 4:10:55 PM 9.38 48.884 180.5 7.3402 52.59998 9.379997
5/11/2021 4:25:55 PM 9.4125 48.9425 180.5 7.3402 51.15002 9.412498
5/11/2021 4:40:56 PM 9.38 48.884 180.85 7.3444 50.84998 9.379997
5/11/2021 4:55:56 PM 9.2225 48.6005 181.9 7.3444 50.19995 9.222504
5/11/2021 5:10:55 PM 9.155 48.479 182.2499 7.3437 49.04993 9.154999
5/11/2021 5:25:55 PM 9.105 48.389 182.6 7.3479 48.3501 9.105003
5/11/2021 5:40:55 PM 9.21 48.578 182.2499 7.3444 47.59998 9.209999
5/11/2021 5:55:56 PM 9.35 48.83 181.55 7.35 48.44995 9.349998
5/11/2021 6:10:55 PM 9.4525 49.0145 181.2 7.3493 46.59998 9.452499
5/11/2021 6:25:55 PM 9.5225 49.1405 181.2 7.3535 45.84998 9.522499
5/11/2021 6:40:55 PM 9.59 49.262 181.55 7.304501 45.24988 9.589996
5/11/2021 6:55:55 PM 9.6225 49.3205 182.2499 7.319901 45.30005 9.622498
5/11/2021 7:10:55 PM 9.625 49.325 182.6 7.3248 45 9.625
5/11/2021 7:25:55 PM 9.6575 49.3835 183.2499 7.3304 44.55005 9.657501
5/11/2021 7:40:55 PM 9.6575 49.3835 183.6 7.3325 43.44995 9.657501
5/11/2021 7:55:55 PM 9.6575 49.3835 183.9501 7.3402 43.5 9.657501
5/11/2021 8:10:56 PM 9.66 49.388 184.7 7.3472 42.80005 9.660004
5/11/2021 8:25:56 PM 9.675 49.415 185.3501 7.3535 42.69995 9.675003
5/11/2021 8:40:56 PM 9.5725 49.2305 186.4 7.364 42.69995 9.572502
5/11/2021 8:55:56 PM 9.33 48.794 188.5 7.3626 44.975 9.330002
5/11/2021 9:10:56 PM 9.205 48.569 189.9501 7.3675 41.75012 9.205002
5/11/2021 9:25:56 PM 9.1375 48.4475 191 7.3738 44.715 9.137497
5/11/2021 9:40:56 PM 9.12 48.416 192.0499 7.3731 41.80005 9.120003
5/11/2021 9:55:56 PM 9.2575 48.6635 192.0499 7.3738 43.8625 9.2575
5/11/2021 10:10:56 PM 9.415 48.947 192 7.3724 43.2875 9.415001
5/11/2021 10:25:56 PM 9.5025 49.1045 192.3501 7.3766 42.4525 9.502502
5/11/2021 10:40:56 PM 9.5525 49.1945 193 7.3577 41.8225 9.552498
5/11/2021 10:55:56 PM 9.5725 49.2305 193.7501 7.3633 42.1775 9.572502
5/11/2021 11:10:56 PM 9.6075 49.2935 194.7501 7.3626 41.3625 9.607498
5/11/2021 11:25:56 PM 9.605 49.289 195.8 7.3682 41.535 9.605003
5/11/2021 11:40:56 PM 9.6075 49.2935 196.85 7.3724 40.8375 9.607498
5/12/2021 12:10:56 AM 9.605 49.289 198.85 7.3836 43.79 9.605003
5/12/2021 12:25:56 AM 9.64 49.352 199.85 7.3969 52.09998 9.639999
5/12/2021 12:40:56 AM 9.64 49.352 199.9 7.4018 52.19995 9.639999
5/12/2021 12:55:55 AM 9.59 49.262 199.9 7.4074 46.90002 9.589996
5/12/2021 1:10:55 AM 9.24 48.632 201.3501 7.392 43.425 9.239998
5/12/2021 1:25:56 AM 9.0525 48.2945 201.0499 7.3864 40.7575 9.052498
5/12/2021 1:40:56 AM 9.2075 48.5735 197.9 7.3864 39.1525 9.207497
5/12/2021 1:55:56 AM 9.31 48.758 195.15 7.4025 38.74 9.309998
5/12/2021 2:10:56 AM 9.38 48.884 192.3501 7.4067 37.8375 9.379997
5/12/2021 2:25:56 AM 9.4125 48.9425 190.2499 7.4067 38.215 9.412498
5/12/2021 2:40:55 AM 9.43 48.974 188.2 7.4109 37.7075 9.43
5/12/2021 2:55:56 AM 9.435 48.983 186.45 7.3934 37.0725 9.434998
5/12/2021 3:10:56 AM 9.4525 49.0145 185.0499 7.4011 37.16 9.452499
5/12/2021 3:25:55 AM 9.4525 49.0145 184 7.4039 37.1275 9.452499
5/12/2021 3:40:56 AM 9.4525 49.0145 182.9501 7.4025 37.2625 9.452499
5/12/2021 3:55:56 AM 9.4525 49.0145 182.2499 7.4025 36.795 9.452499
5/12/2021 4:10:56 AM 9.4525 49.0145 181.55 7.4032 36.5325 9.452499
5/12/2021 4:25:56 AM 9.4525 49.0145 180.9 7.4025 36.4975 9.452499
5/12/2021 4:55:56 AM 9.4375 48.9875 179.85 7.4074 36.22 9.4375
5/12/2021 5:10:56 AM 9.435 48.983 179.5 7.4074 35.6825 9.434998
5/12/2021 5:25:56 AM 9.4175 48.9515 179.15 7.4067 35.665 9.417503
5/12/2021 5:40:56 AM 9.4025 48.9245 178.85 7.4067 35.14 9.402496
5/12/2021 5:55:56 AM 9.385 48.893 178.8 7.4067 35.4575 9.385002
5/12/2021 6:10:56 AM 9.365 48.857 179.2 7.406 35.055 9.364998
5/12/2021 6:25:56 AM 9.3275 48.7895 179.15 7.4088 34.9475 9.327499
5/12/2021 6:40:56 AM 9.3125 48.7625 179.1 7.4074 34.355 9.3125
5/12/2021 6:55:56 AM 9.2775 48.6995 179.15 7.4074 34.69 9.277496
5/12/2021 7:10:56 AM 9.2625 48.6725 178.8 7.4074 34.015 9.262497
5/12/2021 7:25:56 AM 9.26 48.668 178.85 7.406 34.2075 9.260002
5/12/2021 7:40:56 AM 9.2425 48.6365 178.5 7.4067 33.9775 9.2425
5/12/2021 7:55:56 AM 9.225 48.605 178.45 7.4081 33.8575 9.224998
5/12/2021 8:10:56 AM 9.2075 48.5735 178.45 7.4067 33.3 9.207497
5/12/2021 8:25:56 AM 9.19 48.542 178.45 7.4074 33.2025 9.190002
5/12/2021 8:40:56 AM 9.19 48.542 178.4 7.4025 32.71 9.190002
5/12/2021 8:55:56 AM 9.14 48.452 178.45 7.4025 32.535 9.139999
5/12/2021 9:10:56 AM 8.9125 48.0425 179.85 7.4018 32.505 8.912498
5/12/2021 9:25:56 AM 8.83 47.894 180.2499 7.4018 32.1925 8.830002
5/12/2021 9:40:56 AM 8.7725 47.7905 180.6 7.4011 31.8025 8.772499
5/12/2021 9:55:56 AM 8.775 47.795 180.6 7.4032 32.0375 8.775002
5/12/2021 10:10:56 AM 8.79 47.822 180.6499 7.3976 31.48 8.790001
5/12/2021 10:25:56 AM 8.8275 47.8895 180.6499 7.399 31.4125 8.827499
5/12/2021 10:40:56 AM 8.8625 47.9525 180.3 7.4018 31.88 8.862503
5/12/2021 10:55:56 AM 8.8975 48.0155 180.6499 7.3913 31.325 8.897499
5/12/2021 11:10:56 AM 8.9475 48.1055 180.6 7.392 31.045 8.947502
5/12/2021 11:25:56 AM 9.0175 48.2315 180.6 7.3878 30.91 9.017502
5/12/2021 11:40:56 AM 9.085 48.353 180.6 7.3878 30.735 9.084999
5/12/2021 11:55:56 AM 9.1375 48.4475 180.6 7.3871 30.4775 9.137497
5/12/2021 12:10:56 PM 9.19 48.542 180.2499 7.3864 30.04 9.190002
5/12/2021 12:25:56 PM 9.24 48.632 180.2499 7.3885 29.9325 9.239998
5/12/2021 12:40:56 PM 9.3275 48.7895 179.9 7.3871 29.6575 9.327499
5/12/2021 12:55:56 PM 9.36 48.848 180.2499 7.3878 29.775 9.360001
5/12/2021 1:10:56 PM 9.45 49.01 180.2499 7.3892 29.71 9.449997
5/12/2021 1:25:56 PM 9.4825 49.0685 180.2499 7.3864 29.8475 9.482498
5/12/2021 1:40:56 PM 9.5 49.1 180.2 7.3822 29.5 9.5
5/12/2021 1:55:56 PM 9.52 49.136 180.6 7.3871 29.565 9.519997
5/12/2021 2:10:56 PM 9.555 49.199 180.2499 7.3913 29.165 9.555
5/12/2021 2:25:56 PM 9.6075 49.2935 180.55 7.3913 29.215 9.607498
5/12/2021 2:40:56 PM 9.645 49.361 180.6 7.3976 29.345 9.644997
5/12/2021 2:55:56 PM 9.6625 49.3925 180.55 7.3976 29.4125 9.662498
5/12/2021 3:10:56 PM 9.645 49.361 180.55 7.4046 28.8575 9.644997
5/12/2021 3:25:56 PM 9.6425 49.3565 180.55 7.4025 29.5175 9.642502
5/12/2021 3:40:57 PM 9.6975 49.4555 180.55 7.4088 29.415 9.697502
5/12/2021 3:55:56 PM 9.7675 49.5815 180.6 7.4088 29.2925 9.767502
5/12/2021 4:10:56 PM 9.835 49.703 180.9501 7.4095 29.2475 9.834999
5/12/2021 4:25:56 PM 9.8875 49.7975 181.2499 7.4081 28.9075 9.887497
5/12/2021 4:40:56 PM 9.905 49.829 181.6 7.4095 29.2575 9.907501
5/12/2021 4:55:56 PM 9.925 49.865 182 7.4116 28.82 9.925003
5/12/2021 5:10:56 PM 9.9425 49.8965 181.9501 7.413 28.825 9.942497
5/12/2021 5:25:56 PM 9.96 49.928 181.9501 7.4172 28.27 9.959999
5/12/2021 5:40:56 PM 9.975 49.955 182.3 7.4186 28.2175 9.974998
5/12/2021 5:55:56 PM 10.0275 50.0495 182.6499 7.4291 28.13 10.0275
5/12/2021 6:10:56 PM 10.0275 50.0495 183.4 7.427 28.115 10.0275
5/12/2021 6:25:56 PM 10.025 50.045 184 7.434 27.8925 10.025
5/12/2021 6:40:56 PM 10.0275 50.0495 184.4 7.4368 28.0625 10.0275
5/12/2021 6:55:56 PM 10.045 50.081 185.0499 7.4361 27.8725 10.045
5/12/2021 7:10:56 PM 10.0625 50.1125 185.4 7.441 27.53 10.0625
5/12/2021 7:25:56 PM 10.095 50.171 186.0499 7.4473 27.5475 10.095
5/12/2021 7:40:56 PM 10.1125 50.2025 186.45 7.4529 27.15 10.1125
5/12/2021 7:55:56 PM 10.115 50.207 187.15 7.4515 27.005 10.115
5/12/2021 8:10:56 PM 10.115 50.207 187.85 7.4564 26.8675 10.115
5/12/2021 8:25:56 PM 10.0925 50.1665 188.55 7.4592 26.405 10.095
5/12/2021 8:40:56 PM 10.0425 50.0765 189.2 7.4662 26.25 10.0425
5/12/2021 8:55:56 PM 9.9875 49.9775 190.2499 7.4655 26.025 9.987503
5/12/2021 9:10:56 PM 9.9725 49.9505 191 7.4725 25.8275 9.972504
5/12/2021 9:25:56 PM 9.9225 49.8605 191.7501 7.4704 26.05 9.922501
5/12/2021 9:40:56 PM 9.885 49.793 192.7501 7.4767 25.82 9.885002
5/12/2021 9:55:56 PM 9.835 49.703 193.5 7.476 26.1225 9.834999
5/12/2021 10:10:56 PM 9.8 49.64 193.8 7.4774 25.62 9.800003
5/12/2021 10:25:56 PM 9.7825 49.6085 194.5 7.4767 25.755 9.782501
5/12/2021 10:40:56 PM 9.75 49.55 194.85 7.4809 25.5 9.75
5/12/2021 10:55:56 PM 9.715 49.487 195.55 7.4816 25.535 9.714996
5/12/2021 11:10:56 PM 9.7475 49.5455 195.55 7.4823 25.48 9.747498
5/12/2021 11:25:56 PM 9.9225 49.8605 194.8 7.4816 25.685 9.922501
5/12/2021 11:40:56 PM 10.0075 50.0135 194.8 7.4851 25.44 10.0075
5/13/2021 12:10:56 AM 10.075 50.135 195.1 7.483 25.12 10.075
5/13/2021 12:25:57 AM 10.09 50.162 195.4 7.4858 24.9325 10.09
5/13/2021 12:40:57 AM 10.11 50.198 195.45 7.4865 24.8225 10.11
5/13/2021 12:55:57 AM 10.13 50.234 195.45 7.4865 24.76 10.13
5/13/2021 1:10:57 AM 10.13 50.234 195.7501 7.4858 24.8275 10.13
5/13/2021 1:25:56 AM 9.9725 49.9505 197.2 7.4865 25.075 9.972504
5/13/2021 1:40:56 AM 9.7275 49.5095 199 7.4851 25.1075 9.727501
5/13/2021 1:55:56 AM 9.625 49.325 199.7 7.4872 24.995 9.625
5/13/2021 2:10:56 AM 9.7475 49.5455 199.3 7.4865 24.625 9.747498
5/13/2021 2:25:56 AM 9.92 49.856 199 7.4865 24.17 9.919998
5/13/2021 2:40:56 AM 10.0225 50.0405 198.9501 7.4809 24.1675 10.0225
5/13/2021 2:55:56 AM 10.075 50.135 198.9501 7.4795 24.255 10.075
5/13/2021 3:10:56 AM 10.1075 50.1935 198.85 7.4795 23.6425 10.1075
5/13/2021 3:25:56 AM 10.1275 50.2295 199.2499 7.4781 23.47 10.1275
5/13/2021 3:40:56 AM 10.1125 50.2025 199.2499 7.4872 23.305 10.1125
5/13/2021 3:55:56 AM 10.1125 50.2025 199.2499 7.4858 23.1975 10.1125
5/13/2021 4:10:56 AM 10.11 50.198 199.2 7.4844 23.0725 10.11
5/13/2021 4:25:56 AM 10.095 50.171 199.2499 7.4802 23.08 10.095
5/13/2021 4:40:56 AM 10.075 50.135 199.55 7.4809 23.145 10.075
5/13/2021 4:55:56 AM 10.06 50.108 199.6 7.4795 22.6075 10.06
5/13/2021 5:10:57 AM 10.0425 50.0765 199.55 7.4753 22.59 10.0425
5/13/2021 5:25:56 AM 10.0225 50.0405 199.9501 7.476 21.6325 10.0225
5/13/2021 5:40:57 AM 9.99 49.982 199.9501 7.4704 21.49 9.989998
5/13/2021 5:55:56 AM 9.955 49.919 199.9501 7.4704 21.3375 9.955002
5/13/2021 6:10:57 AM 9.9375 49.8875 199.9501 7.4662 21.0625 9.9375
5/13/2021 6:25:56 AM 9.92 49.856 199.6 7.4669 20.8875 9.919998
5/13/2021 6:40:56 AM 9.8825 49.7885 199.6 7.4669 21.0625 9.8825
5/13/2021 6:55:56 AM 9.8675 49.7615 199.6 7.4627 20.97 9.8675
5/13/2021 7:10:56 AM 9.8525 49.7345 199.6 7.4606 20.835 9.852501
5/13/2021 7:25:56 AM 9.8525 49.7345 199.9501 7.4606 20.7125 9.852501
5/13/2021 7:40:56 AM 9.835 49.703 199.9501 7.4613 20.5225 9.834999
5/13/2021 7:55:56 AM 9.8325 49.6985 199.9501 7.4606 20.2275 9.832497
5/13/2021 8:10:56 AM 9.815 49.667 200 7.4571 20.2975 9.815002
5/13/2021 8:25:56 AM 9.8175 49.6715 199.9501 7.4578 20.175 9.817497
5/13/2021 8:40:56 AM 9.815 49.667 199.9501 7.4557 19.9675 9.815002
5/13/2021 8:55:57 AM 9.8325 49.6985 199.6 7.4522 19.95 9.830002
5/13/2021 9:10:57 AM 9.8325 49.6985 199.6 7.4522 20.0175 9.832497
5/13/2021 9:25:57 AM 9.85 49.73 199.2499 7.4529 19.9325 9.849998
5/13/2021 9:40:57 AM 9.8825 49.7885 199.2 7.4522 19.8275 9.8825
5/13/2021 9:55:57 AM 9.92 49.856 199.2499 7.4508 19.69 9.919998
5/13/2021 10:10:57 AM 9.955 49.919 199.2 7.4452 19.62 9.955002
5/13/2021 10:25:57 AM 10.005 50.009 199.2 7.4508 19.37 10.005
5/13/2021 10:40:57 AM 9.9175 49.8515 199.6 7.4501 19.095 9.917503
5/13/2021 10:55:57 AM 9.8675 49.7615 200.3 7.4522 19.215 9.8675
5/13/2021 11:10:57 AM 9.8675 49.7615 200.3 7.4529 19.1475 9.8675
5/13/2021 11:25:57 AM 9.885 49.793 200.2499 7.4515 18.905 9.885002
5/13/2021 11:40:57 AM 9.955 49.919 200.2499 7.4529 18.855 9.955002
5/13/2021 11:55:57 AM 10.025 50.045 200.3 7.4529 18.5075 10.025
5/13/2021 12:10:57 PM 10.0925 50.1665 200.3 7.4522 18.455 10.0925
5/13/2021 12:25:57 PM 10.1475 50.2655 200.3 7.4508 18.3675 10.1475
5/13/2021 12:40:57 PM 10.215 50.387 200.3 7.4571 18.505 10.215
5/13/2021 12:55:57 PM 10.2825 50.5085 200.3 7.4578 18.195 10.2825
5/13/2021 1:10:57 PM 10.355 50.639 200.3 7.4522 18.1975 10.355
5/13/2021 1:25:57 PM 10.4075 50.7335 200.3 7.4557 18.1075 10.4075
5/13/2021 1:40:57 PM 10.4575 50.8235 199.9501 7.4578 18.0075 10.4575
5/13/2021 1:55:57 PM 10.4925 50.8865 199.9 7.4571 17.985 10.4925
5/13/2021 2:10:57 PM 10.5275 50.9495 199.6 7.4606 17.8125 10.5275
5/13/2021 2:25:57 PM 10.545 50.981 199.55 7.3997 22.74 10.545
5/13/2021 2:40:57 PM 10.6175 51.1115 199.6 7.4263 24.95 10.6175
5/13/2021 2:55:57 PM 10.65 51.17 199.55 7.4466 22.9525 10.65
5/13/2021 3:10:57 PM 10.63 51.134 199.9501 7.4578 22.5525 10.63
5/13/2021 3:25:57 PM 10.6525 51.1745 199.9 7.4599 21.4575 10.6525
5/13/2021 3:40:57 PM 10.65 51.17 200.2499 7.4669 20.245 10.65
5/13/2021 3:55:57 PM 10.65 51.17 200.2499 7.4711 19.22 10.65
5/13/2021 4:10:57 PM 10.6325 51.1385 200.3 7.476 18.675 10.6325
5/13/2021 4:25:57 PM 10.6125 51.1025 200.2499 7.4816 18.4025 10.6125
5/13/2021 4:40:57 PM 10.6325 51.1385 200.3 7.4802 18.1125 10.6325
5/13/2021 4:55:56 PM 10.67 51.206 199.9501 7.4851 17.6775 10.67
5/13/2021 5:10:56 PM 10.65 51.17 200.3 7.49 17.83 10.65
5/13/2021 5:25:56 PM 10.665 51.197 200.6499 7.4907 17.4675 10.665
5/13/2021 5:40:57 PM 10.6675 51.2015 200.55 7.4942 17.5 10.6675
5/13/2021 5:55:57 PM 10.6825 51.2285 200.9501 7.4998 17.3325 10.6825
5/13/2021 6:10:57 PM 10.665 51.197 200.9501 7.5054 17.57 10.665
5/13/2021 6:25:57 PM 10.665 51.197 201.3 7.5047 17.115 10.665
5/13/2021 6:40:57 PM 10.65 51.17 201.3 7.5096 17.05 10.65
5/13/2021 6:55:57 PM 10.65 51.17 201.6499 7.5152 17.1 10.65
5/13/2021 7:10:57 PM 10.6675 51.2015 201.7 7.5145 16.945 10.6675
5/13/2021 7:25:57 PM 10.6675 51.2015 202 7.518 16.905 10.6675
5/13/2021 7:40:57 PM 10.665 51.197 202.3501 7.525 17.03 10.665
5/13/2021 7:55:57 PM 10.6475 51.1655 202.7 7.525 17.1725 10.6475
5/13/2021 8:10:57 PM 10.65 51.17 203.0499 7.5292 16.93 10.65
5/13/2021 8:25:57 PM 10.6325 51.1385 203.4 7.5292 17.085 10.6325
5/13/2021 8:40:57 PM 10.6 51.08 203.7501 7.5348 16.8425 10.6
5/13/2021 8:55:57 PM 10.565 51.017 204.45 7.539 17.1075 10.565
5/13/2021 9:10:57 PM 10.53 50.954 204.8 7.5411 16.8275 10.53
5/13/2021 9:25:57 PM 10.49 50.882 205.5 7.5397 16.7525 10.49
5/13/2021 9:40:57 PM 10.4925 50.8865 205.55 7.5446 16.7 10.4925
5/13/2021 9:55:57 PM 10.475 50.855 205.9 7.5439 16.7925 10.475
5/13/2021 10:10:57 PM 10.4425 50.7965 206.2499 7.5425 16.775 10.4425
5/13/2021 10:25:57 PM 10.405 50.729 206.9 7.546 16.7725 10.405
5/13/2021 10:40:57 PM 10.3525 50.6345 207.3 7.5453 16.78 10.3525
5/13/2021 10:55:57 PM 10.3025 50.5445 208 7.5453 16.9875 10.3025
5/13/2021 11:10:57 PM 10.27 50.486 208.3501 7.5453 16.675 10.27
5/13/2021 11:25:57 PM 10.215 50.387 208.7 7.5404 16.7075 10.215
5/13/2021 11:40:57 PM 10.1825 50.3285 209.1 7.5404 16.64 10.1825
5/14/2021 12:10:57 AM 10.115 50.207 209.45 7.539 16.6575 10.115
5/14/2021 12:25:57 AM 10.115 50.207 209.8 7.5404 16.61 10.115
5/14/2021 12:40:57 AM 10.285 50.513 209.0499 7.5411 16.6225 10.285
5/14/2021 12:55:57 AM 10.4075 50.7335 208.3501 7.5334 16.7425 10.4075
5/14/2021 1:10:57 AM 10.4725 50.8505 208.3501 7.5334 16.61 10.4725
5/14/2021 1:25:57 AM 10.5075 50.9135 208.3 7.5327 16.4025 10.5075
5/14/2021 1:40:56 AM 10.5225 50.9405 208.6 7.5285 16.435 10.5225
5/14/2021 1:55:56 AM 10.53 50.954 208.55 7.5285 16.37 10.53
5/14/2021 2:10:56 AM 10.3375 50.6075 210 7.5292 16.285 10.3375
5/14/2021 2:25:56 AM 10.145 50.261 211.45 7.5299 16.3025 10.145
5/14/2021 2:40:56 AM 10.025 50.045 212.2 7.5299 16.2 10.025
5/14/2021 2:55:56 AM 10.01 50.018 212.55 7.5292 16.465 10.01
5/14/2021 3:10:57 AM 10.165 50.297 211.45 7.5285 16.4625 10.165
5/14/2021 3:25:57 AM 10.285 50.513 211.1 7.5299 16.2675 10.285
5/14/2021 3:40:57 AM 10.335 50.603 211.1 7.5306 16.4575 10.335
5/14/2021 3:55:56 AM 10.3875 50.6975 211.0499 7.5292 16.1225 10.3875
5/14/2021 4:10:56 AM 10.4025 50.7245 211.4 7.5278 16.37 10.4025
5/14/2021 4:25:56 AM 10.42 50.756 211.7 7.5236 16.2425 10.42
5/14/2021 4:40:56 AM 10.44 50.792 211.7501 7.5243 16.2125 10.44
5/14/2021 4:55:56 AM 10.425 50.765 212.0499 7.525 16.5625 10.425
5/14/2021 5:10:56 AM 10.145 50.261 213.85 7.5257 16.0525 10.145
5/14/2021 5:25:57 AM 9.9925 49.9865 215.3 7.5236 15.9725 9.9925
5/14/2021 5:40:57 AM 10.095 50.171 215 7.5194 16.0075 10.095
5/14/2021 5:55:57 AM 10.215 50.387 214.55 7.5187 16.075 10.215
5/14/2021 6:10:56 AM 10.2675 50.4815 214.2 7.5131 16.16 10.2675
5/14/2021 6:25:57 AM 10.3 50.54 214.2 7.5152 16.175 10.3
5/14/2021 6:40:57 AM 10.315 50.567 214.15 7.5138 16.0525 10.315
5/14/2021 6:55:57 AM 10.3175 50.5715 213.85 7.5089 16.055 10.3175
5/14/2021 7:10:57 AM 10.3375 50.6075 213.85 7.5096 15.7625 10.3375
5/14/2021 7:25:57 AM 10.355 50.639 213.8 7.504 15.8825 10.355
5/14/2021 7:40:57 AM 10.37 50.666 213.8 7.5054 13.2275 10.37
5/14/2021 7:55:57 AM 10.235 50.423 214.5 7.5005 13.35 10.235
5/14/2021 8:10:57 AM 10.0575 50.1035 215.6 7.4991 13.2775 10.0575
5/14/2021 8:25:57 AM 9.9725 49.9505 216.3 7.5005 13.35 9.972504
5/14/2021 8:40:57 AM 9.955 49.919 216.6499 7.4956 13.1075 9.955002
5/14/2021 8:55:57 AM 9.975 49.955 216.6499 7.4956 12.985 9.974998
5/14/2021 9:10:57 AM 9.9925 49.9865 217.0499 7.49 12.97 9.9925
5/14/2021 9:25:57 AM 10.0425 50.0765 216.6499 7.4921 12.8475 10.0425
5/14/2021 9:40:57 AM 10.095 50.171 216.6499 7.4907 12.83 10.095
5/14/2021 9:55:56 AM 10.1625 50.2925 216.3 7.4907 12.8275 10.1625
5/14/2021 10:10:56 AM 10.23 50.414 215.9501 7.4914 12.7225 10.23
5/14/2021 10:25:57 AM 10.3025 50.5445 215.9501 7.49 12.635 10.3025
5/14/2021 10:40:56 AM 10.405 50.729 215.6 7.4893 12.6 10.405
5/14/2021 10:55:56 AM 10.4875 50.8775 215.55 7.4907 12.355 10.4875
5/14/2021 11:10:56 AM 10.5775 51.0395 215.55 7.497 12.4775 10.5775
5/14/2021 11:25:56 AM 10.665 51.197 215.5 7.4949 13.15 10.665
5/14/2021 11:40:56 AM 10.7525 51.3545 215.5 7.4942 12.9825 10.7525
5/14/2021 11:55:56 AM 10.84 51.512 215.2 7.5005 12.8425 10.84
5/14/2021 12:10:56 PM 10.93 51.674 214.8 7.5054 12.77 10.93
5/14/2021 12:25:56 PM 11.015 51.827 214.85 7.5047 12.705 11.015
5/14/2021 12:40:57 PM 11.0825 51.9485 214.85 7.5103 12.5825 11.0825
5/14/2021 12:55:57 PM 11.135 52.043 214.7501 7.5152 12.6375 11.135
5/14/2021 1:10:56 PM 11.1875 52.1375 214.8 7.5145 12.79 11.1875
5/14/2021 1:25:57 PM 11.24 52.232 214.8 7.5194 12.6875 11.24
5/14/2021 1:40:57 PM 11.255 52.259 215.15 7.5201 12.62 11.255
5/14/2021 1:55:56 PM 11.2575 52.2635 215.15 7.525 12.5375 11.2575
5/14/2021 2:10:56 PM 11.24 52.232 215.15 7.5229 12.555 11.24
5/14/2021 2:25:57 PM 11.205 52.169 215.15 7.5271 12.57 11.205
5/14/2021 2:40:57 PM 11.1675 52.1015 215.15 7.5299 13.0625 11.1675
5/14/2021 2:55:56 PM 11.1525 52.0745 215.15 7.5334 12.5525 11.1525
5/14/2021 3:10:57 PM 11.1875 52.1375 214.7501 7.5341 12.2975 11.1875
5/14/2021 3:25:57 PM 11.225 52.205 214.8 7.5411 12.3825 11.225
5/14/2021 3:40:57 PM 11.2575 52.2635 214.8 7.5376 12.4125 11.2575
5/14/2021 3:55:56 PM 11.2925 52.3265 214.8 7.5376 12.295 11.2925
5/14/2021 4:10:57 PM 11.3425 52.4165 214.8 7.5376 12.315 11.3425
5/14/2021 4:25:56 PM 11.395 52.511 215.1 7.5425 12.14 11.395
5/14/2021 4:40:57 PM 11.43 52.574 215.15 7.5481 12.3975 11.43
5/14/2021 4:55:57 PM 11.4475 52.6055 215.45 7.553699 12.4325 11.4475
5/14/2021 5:10:56 PM 11.48 52.664 215.45 7.558599 12.2975 11.48
5/14/2021 5:25:57 PM 11.515 52.727 215.45 7.559299 12.535 11.515
5/14/2021 5:40:57 PM 11.5 52.7 215.5 7.562099 12.4325 11.5
5/14/2021 5:55:57 PM 11.4825 52.6685 215.5 7.573999 12.3275 11.4825
5/14/2021 6:10:57 PM 11.5175 52.7315 215.45 7.573299 12.5675 11.5175
5/14/2021 6:25:57 PM 11.515 52.727 215.45 7.578199 12.3625 11.515
5/14/2021 6:40:56 PM 11.5325 52.7585 215.8 7.582399 12.605 11.5325
5/14/2021 6:55:56 PM 11.5175 52.7315 216.15 7.586599 12.45 11.5175
5/14/2021 7:10:57 PM 11.515 52.727 216.15 7.592199 12.4675 11.515
5/14/2021 7:25:56 PM 11.5175 52.7315 216.55 7.598499 12.6375 11.5175
5/14/2021 7:40:56 PM 11.515 52.727 216.85 7.601999 12.655 11.515
5/14/2021 7:55:56 PM 11.5325 52.7585 217.2 7.608299 12.625 11.5325
5/14/2021 8:10:56 PM 11.57 52.826 217.6 7.606899 12.6925 11.57
5/14/2021 8:25:56 PM 11.5875 52.8575 217.9501 7.611799 12.4375 11.5875
5/14/2021 8:40:56 PM 11.5875 52.8575 218.3 7.611099 12.525 11.5875
5/14/2021 8:55:56 PM 11.57 52.826 218.6499 7.616699 12.6975 11.57
5/14/2021 9:10:57 PM 11.5525 52.7945 219 7.616699 12.8975 11.5525
5/14/2021 9:25:56 PM 11.555 52.799 219.3 7.618099 12.85 11.555
5/14/2021 9:40:57 PM 11.515 52.727 219.3501 7.617399 12.76 11.515
5/14/2021 9:55:56 PM 11.4625 52.6325 219.7 7.622299 12.7625 11.4625
5/14/2021 10:10:57 PM 11.43 52.574 219.7 7.620199 12.6725 11.43
5/14/2021 10:25:57 PM 11.375 52.475 220.0499 7.620899 12.88 11.375
5/14/2021 10:40:57 PM 11.3075 52.3535 220.0499 7.622299 12.7775 11.3075
5/14/2021 10:55:57 PM 11.2725 52.2905 220.0499 7.622999 12.6975 11.2725
5/14/2021 11:10:57 PM 11.255 52.259 220.4 7.623699 12.6275 11.255
5/14/2021 11:25:57 PM 11.2025 52.1645 220.45 7.618799 12.6275 11.2025
5/14/2021 11:40:57 PM 11.17 52.106 220.8 7.618099 12.51 11.17
5/15/2021 12:10:57 AM 11.1175 52.0115 221.45 7.611799 12.54 11.1175
5/15/2021 12:25:57 AM 11.1025 51.9845 221.5 7.613199 12.545 11.1025
5/15/2021 12:40:57 AM 11.0675 51.9215 221.85 7.607599 12.4775 11.0675
5/15/2021 12:55:57 AM 11.0675 51.9215 221.85 7.608299 12.5625 11.0675
5/15/2021 1:10:57 AM 11.0525 51.8945 222.2 7.607599 12.4625 11.0525
5/15/2021 1:25:57 AM 11.035 51.863 222.2 7.604099 12.82 11.035
5/15/2021 1:40:57 AM 11.035 51.863 222.55 7.597799 12.7 11.035
5/15/2021 1:55:57 AM 11.0175 51.8315 222.9501 7.598499 12.5975 11.0175
5/15/2021 2:10:57 AM 11.0175 51.8315 223.2499 7.593599 12.48 11.0175
5/15/2021 2:25:57 AM 11 51.8 223.6 7.587299 12.6825 11
5/15/2021 2:40:57 AM 11.155 52.079 222.5 7.589399 12.87 11.155
5/15/2021 2:55:57 AM 11.275 52.295 221.8 7.583799 12.6125 11.275
5/15/2021 3:10:57 AM 11.3625 52.4525 221.45 7.586599 13.8825 11.3625
5/15/2021 3:25:57 AM 11.4125 52.5425 221.1 7.587999 16.335 11.4125
5/15/2021 3:40:57 AM 11.4475 52.6055 221.0499 7.587299 16.52 11.4475
5/15/2021 3:55:57 AM 11.2875 52.3175 222.45 7.588699 16.2475 11.2875
5/15/2021 4:10:57 AM 11.1175 52.0115 223.9 7.586599 16.285 11.1175
5/15/2021 4:25:56 AM 11.0125 51.8225 225.3 7.592199 16.495 11.0125
5/15/2021 4:40:57 AM 10.9475 51.7055 226 7.589399 16.4425 10.9475
5/15/2021 4:55:56 AM 10.895 51.611 227.0499 7.588699 16.2375 10.895
5/15/2021 5:10:56 AM 10.86 51.548 227.8 7.589399 16.1025 10.86
5/15/2021 5:25:56 AM 11.015 51.827 227.0499 7.590099 15.925 11.015
5/15/2021 5:40:56 AM 11.1175 52.0115 226.6499 7.583799 15.6325 11.1175
5/15/2021 5:55:56 AM 11.15 52.07 226.6499 7.583099 15.6775 11.15
5/15/2021 6:10:57 AM 11.185 52.133 226.6 7.581699 15.7825 11.185
5/15/2021 6:25:57 AM 11.205 52.169 226.6 7.576099 15.3 11.205
5/15/2021 6:40:56 AM 11.05 51.89 227.6499 7.578199 15.1325 11.05
5/15/2021 6:55:57 AM 10.8725 51.5705 229.0499 7.573299 15.3875 10.8725
5/15/2021 7:10:57 AM 10.77 51.386 230.15 7.572599 15.1125 10.77
5/15/2021 7:25:57 AM 10.7375 51.3275 230.5 7.568399 15.095 10.7375
5/15/2021 7:40:57 AM 10.7025 51.2645 230.85 7.569799 15.08 10.7025
5/15/2021 7:55:57 AM 10.685 51.233 230.85 7.565599 15.205 10.685
5/15/2021 8:10:57 AM 10.6875 51.2375 231.2499 7.564899 15.025 10.6875
5/15/2021 8:25:57 AM 10.705 51.269 231.2 7.559299 15.0625 10.705
5/15/2021 8:40:57 AM 10.72 51.296 231.2 7.553699 14.7825 10.72
5/15/2021 8:55:57 AM 10.755 51.359 231.2499 7.553699 14.905 10.755
5/15/2021 9:10:57 AM 10.8075 51.4535 231.2 7.554399 14.905 10.8075
5/15/2021 9:25:57 AM 10.86 51.548 231.2 7.5495 14.6925 10.86
5/15/2021 9:40:57 AM 10.9275 51.6695 231.2 7.5432 14.7125 10.9275
5/15/2021 9:55:57 AM 10.9975 51.7955 230.8 7.5439 14.6375 10.9975
5/15/2021 10:10:57 AM 11.065 51.917 230.8 7.5446 14.495 11.065
5/15/2021 10:25:57 AM 11.185 52.133 230.45 7.5432 14.5475 11.185
5/15/2021 10:40:57 AM 11.3075 52.3535 229.7501 7.5432 14.5825 11.3075
5/15/2021 10:55:57 AM 11.41 52.538 229.4 7.5439 14.475 11.41
5/15/2021 11:10:57 AM 11.5175 52.7315 229.4 7.5502 14.355 11.5175
5/15/2021 11:25:57 AM 11.62 52.916 229.0499 7.553699 14.1575 11.62
5/15/2021 11:40:57 AM 11.745 53.141 228.9501 7.552999 14.2125 11.745
5/15/2021 11:55:57 AM 11.8475 53.3255 229 7.559999 14.35 11.8475
5/15/2021 12:10:57 PM 11.9175 53.4515 229 7.558599 14.2625 11.9175
5/15/2021 12:25:57 PM 11.985 53.573 229 7.562799 14.14 11.985
5/15/2021 12:40:57 PM 12.0725 53.7305 229 7.566999 14.2125 12.0725
5/15/2021 12:55:57 PM 12.16 53.888 228.9501 7.571899 14.0875 12.16
5/15/2021 1:10:57 PM 12.2125 53.9825 228.9501 7.577499 14.1075 12.2125
5/15/2021 1:25:57 PM 12.28 54.104 228.9501 7.578899 13.9825 12.28
5/15/2021 1:40:57 PM 12.385 54.293 229 7.587999 15.47 12.385
5/15/2021 1:55:56 PM 12.505 54.509 228.6499 7.596399 17.685 12.505
5/15/2021 2:10:56 PM 12.5775 54.6395 228.6499 7.595699 17.95 12.5775
5/15/2021 2:25:56 PM 12.59 54.662 228.9501 7.603399 18.0525 12.59
5/15/2021 2:40:56 PM 12.6425 54.7565 228.9501 7.606899 17.7375 12.6425
5/15/2021 2:55:57 PM 12.6775 54.8195 229.2499 7.611099 17.425 12.6775
5/15/2021 3:10:56 PM 12.7475 54.9455 229.3 7.615999 17.06 12.7475
5/15/2021 3:25:57 PM 12.7825 55.0085 229.3 7.625799 16.9925 12.7825
5/15/2021 3:40:57 PM 12.8175 55.0715 228.9501 7.625799 16.455 12.8175
5/15/2021 3:55:57 PM 12.85 55.13 228.9501 7.632099 16.61 12.85
5/15/2021 4:10:57 PM 12.85 55.13 228.9501 7.634199 16.3475 12.85
5/15/2021 4:25:57 PM 12.885 55.193 228.9501 7.641199 16.105 12.885
5/15/2021 4:40:57 PM 12.92 55.256 228.9501 7.646099 16.0025 12.92
5/15/2021 4:55:57 PM 12.9375 55.2875 228.9501 7.648899 15.7225 12.9375
5/15/2021 5:10:57 PM 12.92 55.256 228.9501 7.656601 15.6375 12.92
5/15/2021 5:25:57 PM 12.9375 55.2875 229.3 7.662901 15.6375 12.9375
5/15/2021 5:40:57 PM 12.94 55.292 229.2499 7.668501 15.495 12.94
5/15/2021 5:55:57 PM 12.9725 55.3505 229.6 7.674101 15.6175 12.9725
5/15/2021 6:10:56 PM 12.99 55.382 229.6 7.678301 15.6175 12.99
5/15/2021 6:25:57 PM 13.0225 55.4405 229.6 7.683901 15.355 13.0225
5/15/2021 6:40:57 PM 13.0225 55.4405 229.6 7.688801 15.5125 13.0225
5/15/2021 6:55:57 PM 12.9875 55.3775 229.6499 7.695101 15.4975 12.9875
5/15/2021 7:10:57 PM 12.97 55.346 229.9501 7.694401 15.93 12.97
5/15/2021 7:25:57 PM 12.935 55.283 230.3 7.700001 15.825 12.935
5/15/2021 7:40:57 PM 12.9375 55.2875 230.7 7.698601 15.4425 12.9375
5/15/2021 7:55:57 PM 12.9025 55.2245 231 7.699301 15.62 12.9025
5/15/2021 8:10:57 PM 12.85 55.13 231 7.702801 15.67 12.85
5/15/2021 8:25:57 PM 12.7975 55.0355 231.4 7.702801 15.9675 12.7975
5/15/2021 8:40:57 PM 12.7625 54.9725 231.3501 7.707701 15.53 12.7625
5/15/2021 8:55:57 PM 12.745 54.941 231.7 7.709801 15.3575 12.745
5/15/2021 9:10:57 PM 12.73 54.914 231.7 7.708401 15.3425 12.73
5/15/2021 9:25:57 PM 12.7125 54.8825 232.0499 7.713301 15.375 12.7125
5/15/2021 9:40:57 PM 12.68 54.824 232.4 7.708401 15.375 12.68
5/15/2021 9:55:57 PM 12.645 54.761 232.45 7.713301 15.5725 12.645
5/15/2021 10:10:57 PM 12.5925 54.6665 232.8 7.707701 15.675 12.5925
5/15/2021 10:25:57 PM 12.525 54.545 233.1 7.709101 15.5225 12.525
5/15/2021 10:40:57 PM 12.49 54.482 233.45 7.703501 15.715 12.49
5/15/2021 10:55:57 PM 12.4375 54.3875 233.45 7.705601 15.77 12.4375
5/15/2021 11:10:56 PM 12.4225 54.3605 233.8 7.704901 15.6825 12.4225
5/15/2021 11:25:56 PM 12.3875 54.2975 233.85 7.703501 15.4325 12.3875
5/15/2021 11:40:56 PM 12.3875 54.2975 233.85 7.698601 15.385 12.3875
5/16/2021 12:10:56 AM 12.3125 54.1625 234.55 7.699301 15.415 12.3125
5/16/2021 12:25:57 AM 12.295 54.131 234.9 7.704901 15.2225 12.295
5/16/2021 12:40:57 AM 12.28 54.104 235.2499 7.703501 15.14 12.28
5/16/2021 12:55:57 AM 12.245 54.041 235.2499 7.700001 15.3125 12.245
5/16/2021 1:10:57 AM 12.21 53.978 235.2499 7.700001 15.3825 12.21
5/16/2021 1:25:57 AM 12.1925 53.9465 235.2499 7.700701 15.42 12.1925
5/16/2021 1:40:57 AM 12.16 53.888 235.2499 7.699301 15.4025 12.16
5/16/2021 1:55:57 AM 12.125 53.825 235.6499 7.693001 15.315 12.125
5/16/2021 2:10:57 AM 12.09 53.762 235.6499 7.695101 15.1925 12.09
5/16/2021 2:25:56 AM 12.055 53.699 235.9501 7.693701 15.07 12.055
5/16/2021 2:40:56 AM 12.0225 53.6405 235.9501 7.690901 15.105 12.0225
5/16/2021 2:55:56 AM 11.985 53.573 236.3501 7.690901 14.9325 11.985
5/16/2021 3:10:57 AM 11.9675 53.5415 236.3501 7.685301 15.125 11.97
5/16/2021 3:25:57 AM 11.935 53.483 236.3501 7.684601 15.0575 11.935
5/16/2021 3:40:57 AM 11.8975 53.4155 236.3 7.686701 15.0025 11.8975
5/16/2021 3:55:57 AM 11.88 53.384 236.3501 7.680401 15.02 11.88
5/16/2021 4:10:57 AM 11.865 53.357 236.3501 7.681101 15.025 11.865
5/16/2021 4:25:57 AM 11.8475 53.3255 236.7 7.679701 14.935 11.8475
5/16/2021 4:40:56 AM 11.815 53.267 236.7501 7.681801 14.7975 11.815
5/16/2021 4:55:56 AM 11.8 53.24 236.7 7.675501 14.85 11.8
5/16/2021 5:10:56 AM 11.7625 53.1725 237.1 7.669901 14.8475 11.7625
5/16/2021 5:25:57 AM 11.7275 53.1095 237.4 7.667101 14.8475 11.7275
5/16/2021 5:40:56 AM 11.6925 53.0465 237.8 7.667101 14.9375 11.6925
5/16/2021 5:55:57 AM 11.6575 52.9835 238.15 7.662901 14.92 11.6575
5/16/2021 6:10:57 AM 11.625 52.925 238.15 7.656601 13.925 11.625
5/16/2021 6:25:56 AM 11.5725 52.8305 238.5 7.650999 13.3975 11.5725
5/16/2021 6:40:56 AM 11.555 52.799 238.85 7.647499 13.1275 11.555
5/16/2021 6:55:56 AM 11.5375 52.7675 238.9 7.641899 13.1225 11.5375
5/16/2021 7:10:56 AM 11.54 52.772 238.85 7.641899 13.0525 11.54
5/16/2021 7:25:56 AM 11.5375 52.7675 239.2 7.637699 13.035 11.5375
5/16/2021 7:40:56 AM 11.535 52.763 239.2 7.638399 12.7975 11.535
5/16/2021 7:55:56 AM 11.5375 52.7675 239.5 7.633499 12.7925 11.5375
5/16/2021 8:10:56 AM 11.535 52.763 239.85 7.632799 12.7075 11.535
5/16/2021 8:25:56 AM 11.535 52.763 239.9 7.632799 12.5375 11.535
5/16/2021 8:40:56 AM 11.5375 52.7675 240.2 7.627199 12.41 11.5375
5/16/2021 8:55:56 AM 11.5525 52.7945 240.15 7.623699 12.305 11.5525
5/16/2021 9:10:56 AM 11.555 52.799 240.2499 7.622299 12.1525 11.555
5/16/2021 9:25:56 AM 11.57 52.826 240.2 7.624399 12.215 11.57
5/16/2021 9:40:56 AM 11.57 52.826 240.2 7.618799 12.11 11.57
5/16/2021 9:55:56 AM 11.585 52.853 240.2 7.618099 12.0225 11.585
5/16/2021 10:10:56 AM 11.605 52.889 240.2 7.616699 11.88 11.605
5/16/2021 10:25:56 AM 11.655 52.979 240.15 7.616699 11.895 11.655
5/16/2021 10:40:56 AM 11.7075 53.0735 240.15 7.622299 11.8075 11.7075
5/16/2021 10:55:56 AM 11.7775 53.1995 240.2 7.620899 11.7 11.7775
5/16/2021 11:10:56 AM 11.8475 53.3255 240.15 7.622299 11.5775 11.8475
5/16/2021 11:25:56 AM 11.915 53.447 240.15 7.622299 11.505 11.915
5/16/2021 11:40:56 AM 11.9825 53.5685 239.7501 7.622299 11.455 11.9825
5/16/2021 11:55:56 AM 12.07 53.726 239.4 7.627199 11.4525 12.07
5/16/2021 12:10:56 PM 12.23 54.014 238.7 7.632099 11.2125 12.23
5/16/2021 12:25:56 PM 12.335 54.203 238.3501 7.632799 11.16 12.335
5/16/2021 12:40:56 PM 12.405 54.329 238.3501 7.637699 11.1775 12.405
5/16/2021 12:55:56 PM 12.49 54.482 238.3501 7.641899 11.1425 12.49
5/16/2021 1:10:57 PM 12.56 54.608 238.3 7.646799 11.125 12.56
5/16/2021 1:25:57 PM 12.6275 54.7295 238.3 7.649599 10.98 12.6275
5/16/2021 1:40:57 PM 12.7125 54.8825 237.9501 7.654499 10.825 12.7125
5/16/2021 1:55:57 PM 12.785 55.013 238.3 7.665001 10.845 12.785
5/16/2021 2:10:56 PM 12.85 55.13 238.3 7.669201 10.7575 12.8525
5/16/2021 2:25:57 PM 12.9225 55.2605 238.3 7.680401 10.755 12.9225
5/16/2021 2:40:57 PM 12.9725 55.3505 238.3 7.685301 10.7725 12.9725
5/16/2021 2:55:57 PM 13.025 55.445 238.3501 7.693701 10.65 13.025
5/16/2021 3:10:57 PM 13.0925 55.5665 238.6499 7.705601 10.74 13.0925
5/16/2021 3:25:57 PM 13.1825 55.7285 238.6499 7.709101 10.5825 13.1825
5/16/2021 3:40:57 PM 13.2325 55.8185 238.6 7.718201 10.6525 13.2325
5/16/2021 3:55:57 PM 13.3 55.94 239 7.725201 10.58 13.3
5/16/2021 4:10:56 PM 13.3525 56.0345 238.9501 7.733601 10.7375 13.3525
5/16/2021 4:25:56 PM 13.4225 56.1605 239 7.737801 10.53 13.4225
5/16/2021 4:40:56 PM 13.51 56.318 238.6 7.751801 20.155 13.51
5/16/2021 4:55:56 PM 13.5425 56.3765 238.2499 7.7672 30.4275 13.5425
5/16/2021 5:10:56 PM 13.56 56.408 238.6 7.7826 27.0275 13.56
5/16/2021 5:25:56 PM 13.5075 56.3135 238.9501 7.7707 20.095 13.5075
5/16/2021 5:40:56 PM 13.4925 56.2865 239.3 7.7707 14.23 13.4925
5/16/2021 5:55:56 PM 13.46 56.228 239.6499 7.7777 12.285 13.46
5/16/2021 6:10:56 PM 13.475 56.255 239.6499 7.7875 11.43 13.475
5/16/2021 6:25:56 PM 13.44 56.192 240.0499 7.791 10.8975 13.44
5/16/2021 6:40:56 PM 13.44 56.192 240.3501 7.7973 10.67 13.44
5/16/2021 6:55:56 PM 13.425 56.165 240.7 7.8015 10.41 13.425
5/16/2021 7:10:56 PM 13.4075 56.1335 240.7 7.8008 10.34 13.4075
5/16/2021 7:25:56 PM 13.3925 56.1065 240.7501 7.805 10.255 13.3925
5/16/2021 7:40:56 PM 13.3725 56.0705 240.7501 7.8106 10.305 13.3725
5/16/2021 7:55:56 PM 13.355 56.039 240.7 7.8169 10.4275 13.355
5/16/2021 8:10:56 PM 13.3375 56.0075 240.7 7.8169 10.48 13.3375
5/16/2021 8:25:56 PM 13.3025 55.9445 241.0499 7.8176 10.36 13.3025
5/16/2021 8:40:56 PM 13.27 55.886 241.0499 7.8162 10.305 13.27
5/16/2021 8:55:56 PM 13.235 55.823 241.4 7.8169 10.24 13.235
5/16/2021 9:10:56 PM 13.1825 55.7285 241.7 7.8169 10.215 13.1825
5/16/2021 9:25:56 PM 13.1325 55.6385 241.7501 7.8162 10.205 13.1325
5/16/2021 9:40:56 PM 13.08 55.544 242.1 7.8169 10.3275 13.08
5/16/2021 9:55:56 PM 13.01 55.418 242.5 7.8162 10.1175 13.0125
5/16/2021 10:10:56 PM 12.9425 55.2965 242.8 7.8113 10.2775 12.9425
5/16/2021 10:25:57 PM 12.835 55.103 243.2 7.8071 10.59 12.835
5/16/2021 10:40:56 PM 12.75 54.95 243.5 7.8078 10.225 12.75
5/16/2021 10:55:56 PM 12.645 54.761 243.9 7.8029 10.3825 12.645
5/16/2021 11:10:57 PM 12.575 54.635 243.85 7.7952 10.345 12.575
5/16/2021 11:25:57 PM 12.505 54.509 244.2 7.7924 10.24 12.505
5/16/2021 11:40:56 PM 12.45 54.41 244.2499 7.7875 10.255 12.45
5/17/2021 12:10:57 AM 12.365 54.257 244.6 7.7833 10.295 12.365
5/17/2021 12:25:57 AM 12.3325 54.1985 244.6 7.7763 10.3625 12.3325
5/17/2021 12:40:57 AM 12.28 54.104 244.9501 7.7735 10.4 12.28
5/17/2021 12:55:56 AM 12.21 53.978 244.9501 7.7714 10.4175 12.21
5/17/2021 1:10:56 AM 12.175 53.915 244.9501 7.7672 10.45 12.175
5/17/2021 1:25:56 AM 12.125 53.825 245.3501 7.7623 10.4175 12.125
5/17/2021 1:40:56 AM 12.09 53.762 245.3501 7.760201 10.5725 12.09
5/17/2021 1:55:56 AM 12.0375 53.6675 245.7 7.753201 10.52 12.0375
5/17/2021 2:10:56 AM 11.9875 53.5775 245.7 7.753201 10.5725 11.9875
5/17/2021 2:25:56 AM 11.9525 53.5145 246 7.749001 10.61 11.9525
5/17/2021 2:40:56 AM 11.9175 53.4515 246.0499 7.744101 10.5875 11.9175
5/17/2021 2:55:56 AM 11.8825 53.3885 246.0499 7.744101 10.6275 11.8825
5/17/2021 3:10:56 AM 11.865 53.357 246.0499 7.739901 11.045 11.865
5/17/2021 3:25:56 AM 11.85 53.33 246.45 7.737801 11.325 11.85
5/17/2021 3:40:56 AM 11.85 53.33 246.45 7.734301 11.4425 11.85
5/17/2021 3:55:56 AM 11.85 53.33 246.8 7.733601 11.36 11.85
5/17/2021 4:10:56 AM 11.8475 53.3255 246.7501 7.734301 11.27 11.8475
5/17/2021 4:25:57 AM 11.835 53.303 247.1 7.734301 11.29 11.835
5/17/2021 4:40:56 AM 11.8325 53.2985 247.5 7.730101 11.41 11.8325
5/17/2021 4:55:56 AM 11.815 53.267 247.8 7.730101 11.29 11.815
5/17/2021 5:10:56 AM 11.815 53.267 248.15 7.730101 11.4475 11.815
5/17/2021 5:25:56 AM 11.8175 53.2715 248.15 7.730801 11.4275 11.8175
5/17/2021 5:40:56 AM 11.8 53.24 248.15 7.725201 11.3925 11.8
5/17/2021 5:55:57 AM 11.7975 53.2355 248.55 7.725201 11.3775 11.7975
5/17/2021 6:10:56 AM 11.7975 53.2355 248.5 7.726601 11.3775 11.7975
5/17/2021 6:25:57 AM 11.7975 53.2355 248.9 7.721001 11.43 11.7975
5/17/2021 6:40:57 AM 11.7825 53.2085 249.2499 7.721001 11.31 11.7825
5/17/2021 6:55:57 AM 11.78 53.204 249.55 7.716101 11.2575 11.78
5/17/2021 7:10:57 AM 11.8 53.24 249.9 7.716101 11.1175 11.8
5/17/2021 7:40:57 AM 11.835 53.303 250.55 7.715401 11.0625 11.835
5/17/2021 7:55:57 AM 11.85 53.33 250.6 7.715401 10.9275 11.85
5/17/2021 8:10:57 AM 11.8675 53.3615 250.55 7.716801 10.855 11.8675
5/17/2021 8:25:57 AM 11.905 53.429 250.9 7.714001 10.785 11.905
5/17/2021 8:40:57 AM 11.9175 53.4515 250.85 7.715401 10.7325 11.9175
5/17/2021 8:55:57 AM 11.9525 53.5145 251.2499 7.714701 10.6425 11.9525
5/17/2021 9:10:57 AM 12.005 53.609 251.2 7.714001 10.7125 12.0025
5/17/2021 9:25:57 AM 12.055 53.699 251.2 7.715401 10.4175 12.055
5/17/2021 9:40:57 AM 12.1025 53.7845 251.15 7.714701 10.48 12.1025
5/17/2021 9:55:57 AM 12.195 53.951 251.2499 7.714001 9.004997 12.195
5/17/2021 10:10:57 AM 12.2625 54.0725 251.2499 7.718201 9.267502 12.2625
5/17/2021 10:25:57 AM 12.33 54.194 251.15 7.725201 8.3825 12.33
5/17/2021 10:40:56 AM 12.4375 54.3875 250.8 7.728701 8.207497 12.4375
5/17/2021 10:55:56 AM 12.5225 54.5405 250.7501 7.728001 8.169998 12.5225
5/17/2021 11:10:56 AM 12.6275 54.7295 250.8 7.733601 8.120003 12.6275
5/17/2021 11:25:56 AM 12.73 54.914 250.8 7.738501 8.032501 12.73
5/17/2021 11:40:56 AM 12.87 55.166 250.8 7.748301 8.067497 12.87
5/17/2021 11:55:56 AM 13.0075 55.4135 250.7501 7.7903 7.769997 13.0075
5/17/2021 12:10:56 PM 12.99 55.382 251.0499 7.680401 29.2375 12.99
5/17/2021 12:25:56 PM 13.045 55.481 251.4 7.727301 10.3575 13.045
5/17/2021 12:40:56 PM 13.165 55.697 251.5 7.751801 9.040001 13.165
5/17/2021 12:55:56 PM 13.32 55.976 251.4 7.763 8.675003 13.32
5/17/2021 1:10:56 PM 13.44 56.192 251.45 7.7735 8.360001 13.44
5/17/2021 1:25:56 PM 13.5625 56.4125 251.4 7.7819 8.397499 13.5625
5/17/2021 1:40:56 PM 13.6525 56.5745 251.7501 7.7917 8.237503 13.6525
5/17/2021 1:55:56 PM 13.72 56.696 251.4 7.7973 8.099998 13.72
5/17/2021 2:10:56 PM 13.7375 56.7275 251.45 7.7994 7.927498 13.7375
5/17/2021 2:25:57 PM 13.8225 56.8805 251.7501 7.8064 7.942497 13.8225
5/17/2021 2:40:56 PM 13.875 56.975 251.8 7.8106 8.097504 13.875
5/17/2021 2:55:56 PM 13.91 57.038 251.8 7.8155 8.112503 13.91
5/17/2021 3:10:57 PM 13.96 57.128 251.7501 7.826 8.082497 13.96
5/17/2021 3:25:57 PM 14.065 57.317 252.1 7.8302 8.152496 14.065
5/17/2021 3:40:56 PM 14.0975 57.3755 251.7501 7.8302 8.1325 14.0975
5/17/2021 3:55:56 PM 14.115 57.407 251.7501 7.8337 7.9925 14.115
5/17/2021 4:10:56 PM 14.2 57.56 251.7501 7.8358 7.995003 14.2
5/17/2021 4:25:57 PM 14.36 57.848 251.7501 7.8477 8.0625 14.36
5/17/2021 4:40:57 PM 14.53 58.154 252.0499 7.854 8.144997 14.53
5/17/2021 4:55:56 PM 14.6175 58.3115 252.1 7.8589 8.077499 14.6175
5/17/2021 5:10:56 PM 14.6525 58.3745 252.45 7.8645 8.112503 14.6525
5/17/2021 5:25:57 PM 14.705 58.469 252.7501 7.8743 8.080002 14.705
5/17/2021 5:40:57 PM 14.7575 58.5635 252.8 7.8827 8.165001 14.7575
5/17/2021 5:55:57 PM 14.81 58.658 253.15 7.8946 8.184998 14.81
5/17/2021 6:10:57 PM 14.88 58.784 253.15 7.9016 8.237503 14.88
5/17/2021 6:25:57 PM 14.93 58.874 253.15 7.9135 8.097504 14.93
5/17/2021 6:40:57 PM 14.9125 58.8425 253.15 7.9177 8.0625 14.9125
5/17/2021 6:55:57 PM 14.88 58.784 253.45 7.9212 8.027496 14.88
5/17/2021 7:10:57 PM 14.86 58.748 253.5 7.9268 8.1325 14.86
5/17/2021 7:25:57 PM 14.845 58.721 253.8 7.9275 8.202499 14.845
5/17/2021 7:40:56 PM 14.8775 58.7795 254.2 7.9366 8.394997 14.8775
5/17/2021 7:55:56 PM 14.8975 58.8155 254.5 7.9464 8.550003 14.8975
5/17/2021 8:10:56 PM 14.86 58.748 254.85 7.952 8.599998 14.86
5/17/2021 8:25:56 PM 14.7925 58.6265 255.6 7.9506 8.565002 14.7925
5/17/2021 8:40:56 PM 14.7425 58.5365 255.9 7.9562 8.550003 14.7425
5/17/2021 8:55:56 PM 14.69 58.442 256.2499 7.9618 8.364998 14.69
5/17/2021 9:10:56 PM 14.6025 58.2845 256.6 7.9632 8.449997 14.6025
5/17/2021 9:25:56 PM 14.5325 58.1585 256.9501 7.9583 8.587502 14.5325
5/17/2021 9:40:56 PM 14.4475 58.0055 257.3501 7.9534 8.917503 14.4475
5/17/2021 9:55:57 PM 14.38 57.884 257.6499 7.9485 8.610001 14.38
5/17/2021 10:10:57 PM 14.295 57.731 258 7.9422 8.345001 14.295
5/17/2021 10:25:56 PM 14.2225 57.6005 258.3501 7.9387 8.419998 14.2225
5/17/2021 10:40:57 PM 14.1375 57.4475 258.7501 7.9275 8.297501 14.1375
5/17/2021 10:55:57 PM 14.07 57.326 259.0499 7.924 8.317497 14.07
5/17/2021 11:10:57 PM 14.0175 57.2315 259.0499 7.9128 8.379997 14.0175
5/17/2021 11:25:57 PM 13.965 57.137 259.45 7.9058 8.297501 13.965
5/17/2021 11:40:57 PM 13.95 57.11 259.4 7.8939 8.352501 13.95
5/18/2021 12:10:57 AM 13.915 57.047 259.8 7.8799 12.9875 13.915
5/18/2021 12:25:57 AM 13.88 56.984 259.8 7.875 13.53 13.88
5/18/2021 12:40:57 AM 13.8625 56.9525 260.15 7.8659 12.8825 13.8625
5/18/2021 12:55:57 AM 13.81 56.858 260.15 7.8596 10.7125 13.81
5/18/2021 1:10:56 AM 13.76 56.768 260.5 7.8519 9.862503 13.76
5/18/2021 1:25:57 AM 13.7075 56.6735 260.5 7.8519 10.0375 13.71
5/18/2021 1:40:57 AM 13.65 56.57 260.9 7.8449 9.5075 13.65
5/18/2021 1:55:57 AM 13.5975 56.4755 260.85 7.8442 9.022499 13.5975
5/18/2021 2:10:57 AM 13.5475 56.3855 260.85 7.8442 9.302498 13.5475
5/18/2021 2:25:57 AM 13.4775 56.2595 261.2 7.8407 9.127502 13.4775
5/18/2021 2:40:57 AM 13.445 56.201 261.55 7.8351 9.080002 13.445
5/18/2021 2:55:57 AM 13.39 56.102 261.6 7.8365 9.147499 13.39
5/18/2021 3:10:57 AM 13.3575 56.0435 261.6 7.8316 9.097504 13.3575
5/18/2021 3:25:57 AM 13.305 55.949 261.9 7.8253 9.012497 13.305
5/18/2021 3:40:57 AM 13.2675 55.8815 261.9 7.8225 9.025002 13.2675
5/18/2021 3:55:57 AM 13.235 55.823 261.9501 7.8176 9.044998 13.235
5/18/2021 4:10:57 AM 13.2025 55.7645 261.9501 7.8155 9.147499 13.2025
5/18/2021 4:25:56 AM 13.185 55.733 261.9501 7.812 9.1875 13.185
5/18/2021 4:40:57 AM 13.15 55.67 261.9501 7.8071 9.220001 13.15
5/18/2021 4:55:56 AM 13.1175 55.6115 262.3 7.8022 9.167503 13.1175
5/18/2021 5:10:56 AM 13.0975 55.5755 262.3 7.7973 9.464996 13.0975
5/18/2021 5:25:56 AM 13.0625 55.5125 262.6499 7.7959 9.535004 13.0625
5/18/2021 5:40:56 AM 13.045 55.481 263.0499 7.7938 9.557503 13.045
5/18/2021 5:55:56 AM 13.01 55.418 263.0499 7.7896 9.724998 13.01
5/18/2021 6:10:56 AM 12.9925 55.3865 263 7.7833 9.7425 12.9925
5/18/2021 6:25:56 AM 12.9775 55.3595 263 7.777 9.552498 12.9775
5/18/2021 6:40:56 AM 12.96 55.328 263 7.7798 9.602501 12.96
5/18/2021 6:55:57 AM 12.9425 55.2965 263.0499 7.7735 9.57 12.9425
5/18/2021 7:10:57 AM 12.9425 55.2965 263 7.7693 9.445 12.9425
5/18/2021 7:25:56 AM 12.9425 55.2965 263 7.7693 9.330002 12.9425
5/18/2021 7:40:56 AM 12.94 55.292 263 7.7686 9.3125 12.94
5/18/2021 7:55:56 AM 12.96 55.328 263.0499 7.7644 9.292503 12.96
5/18/2021 8:10:56 AM 12.975 55.355 263 7.763 9.082497 12.975
5/18/2021 8:25:57 AM 12.9925 55.3865 263 7.763 8.959999 12.9925
5/18/2021 8:40:56 AM 13.0275 55.4495 263 7.757401 9.095001 13.0275
5/18/2021 8:55:57 AM 13.0625 55.5125 262.6499 7.7623 8.9925 13.0625
5/18/2021 9:10:57 AM 13.115 55.607 262.2499 7.7623 9.0075 13.115
5/18/2021 9:25:56 AM 13.1625 55.6925 262.2 7.7651 8.830002 13.1625
5/18/2021 9:40:56 AM 13.235 55.823 261.85 7.7665 8.817497 13.235
5/18/2021 9:55:56 AM 13.3225 55.9805 261.5 7.7679 8.712502 13.3225
5/18/2021 10:10:57 AM 13.4425 56.1965 261.15 7.7728 8.610001 13.4425
5/18/2021 10:25:56 AM 13.5825 56.4485 260.45 7.7756 8.605003 13.5825
5/18/2021 10:40:56 AM 13.7025 56.6645 260.1 7.7805 8.587502 13.7025
5/18/2021 10:55:56 AM 13.825 56.885 259.7501 7.7861 8.519997 13.825
5/18/2021 11:10:57 AM 13.945 57.101 259.3501 7.791 8.550003 13.945
5/18/2021 11:25:57 AM 14.0475 57.2855 259.0499 7.8001 8.550003 14.0475
5/18/2021 11:40:57 AM 14.135 57.443 259 7.8113 8.377502 14.135
5/18/2021 11:55:56 AM 14.2375 57.6275 259 7.8239 8.410004 14.2375
5/18/2021 12:10:57 PM 14.3425 57.8165 258.7 7.8295 8.357498 14.3425
5/18/2021 12:25:57 PM 14.48 58.064 258.7 7.8484 8.480003 14.48
5/18/2021 12:40:57 PM 14.6025 58.2845 258.6499 7.8624 8.357498 14.6025
5/18/2021 12:55:57 PM 14.7225 58.5005 258.7 7.8743 8.375 14.7225
5/18/2021 1:10:56 PM 14.86 58.748 258.7 7.8827 8.532501 14.86
5/18/2021 1:25:57 PM 14.98 58.964 259.0499 7.8939 8.357498 14.98
5/18/2021 1:40:56 PM 15.085 59.153 259 7.9079 8.565002 15.085
5/18/2021 1:55:56 PM 15.2225 59.4005 259.3501 7.917 8.337502 15.2225
5/18/2021 2:10:56 PM 15.33 59.594 259.6499 7.9268 8.427498 15.33
5/18/2021 2:25:56 PM 15.4475 59.8055 259.6499 7.9366 8.355003 15.4475
5/18/2021 2:40:56 PM 15.555 59.999 260.0499 7.945 8.147499 15.555
5/18/2021 2:55:56 PM 15.675 60.215 260 7.9611 8.337502 15.675
5/18/2021 3:10:56 PM 15.78 60.404 260.3501 7.9695 8.129997 15.78
5/18/2021 3:25:56 PM 15.8825 60.5885 260.7 7.9786 8.222504 15.8825
5/18/2021 3:40:56 PM 15.985 60.773 261.0499 7.990499 8.025002 15.985
5/18/2021 3:55:56 PM 16.075 60.935 261.4 8.000299 8.057503 16.075
5/18/2021 4:10:56 PM 16.1625 61.0925 261.4 8.007299 8.059998 16.16
5/18/2021 4:25:56 PM 16.265 61.277 261.7501 8.019899 8.010002 16.265
5/18/2021 4:40:56 PM 16.35 61.43 261.7501 8.028299 8.095001 16.35
5/18/2021 4:55:56 PM 16.4375 61.5875 261.7501 8.038799 8.112503 16.4375
5/18/2021 5:10:56 PM 16.5075 61.7135 262.0499 8.047899 8.0075 16.5075
5/18/2021 5:25:56 PM 16.575 61.835 262.1 8.056999 8.0075 16.575
5/18/2021 5:40:56 PM 16.645 61.961 262.0499 8.066799 7.952499 16.645
5/18/2021 5:55:56 PM 16.68 62.024 262.45 8.073099 7.955002 16.68
5/18/2021 6:10:56 PM 16.7325 62.1185 262.4 8.081499 8.199997 16.7325
5/18/2021 6:25:56 PM 16.7675 62.1815 262.7501 8.091999 8.022499 16.7675
5/18/2021 6:40:56 PM 16.785 62.213 263.15 8.095501 7.885002 16.785
5/18/2021 6:55:57 PM 16.805 62.249 263.45 8.099701 8.044998 16.805
5/18/2021 7:10:56 PM 16.8375 62.3075 263.45 8.114401 8.025002 16.8375
5/18/2021 7:25:57 PM 16.835 62.303 263.8 8.120701 7.902496 16.835
5/18/2021 7:40:57 PM 16.835 62.303 264.15 8.126301 7.834999 16.835
5/18/2021 7:55:56 PM 16.835 62.303 264.15 8.126301 7.745003 16.835
5/18/2021 8:10:56 PM 16.8025 62.2445 264.5 8.129801 8.042503 16.8025
5/18/2021 8:25:57 PM 16.715 62.087 265.15 8.130501 7.817497 16.715
5/18/2021 8:40:56 PM 16.645 61.961 265.85 8.136101 8.252502 16.645
5/18/2021 8:55:56 PM 16.5775 61.8395 266.6 8.134701 10.23 16.5775
5/18/2021 9:10:56 PM 16.49 61.682 266.9 8.134701 10.8025 16.49
5/18/2021 9:25:57 PM 16.42 61.556 267.2499 8.136101 10.8025 16.42
5/18/2021 9:40:57 PM 16.3525 61.4345 268 8.136801 9.347504 16.3525
5/18/2021 9:55:57 PM 16.3325 61.3985 268.3 6.379101 33.57 16.3325
5/18/2021 10:10:56 PM 16.2475 61.2455 268.3501 8.091999 6.135002 16.2475
5/18/2021 10:25:57 PM 16.18 61.124 269 8.100401 6.065002 16.18
5/18/2021 10:40:57 PM 16.1125 61.0025 269.4 8.101801 6 16.1125
5/18/2021 10:55:56 PM 16.0575 60.9035 269.7501 8.099001 6.067497 16.0575
5/18/2021 11:10:56 PM 15.99 60.782 270.1 8.088499 5.949997 15.99
5/18/2021 11:25:56 PM 15.9225 60.6605 270.45 8.077299 6 15.9225
5/18/2021 11:40:56 PM 15.87 60.566 270.8 8.072399 6.105003 15.87
5/19/2021 12:10:56 AM 15.7475 60.3455 271.5 8.056299 6.245003 15.7475
5/19/2021 12:25:56 AM 15.695 60.251 271.85 8.045799 6.472504 15.695
5/19/2021 12:40:56 AM 15.6275 60.1295 272.2 8.035999 6.474998 15.6275
5/19/2021 12:55:56 AM 15.575 60.035 272.2 8.026199 6.995003 15.575
5/19/2021 1:10:56 AM 15.525 59.945 272.55 8.017099 7.114998 15.525
5/19/2021 1:25:56 AM 15.4725 59.8505 272.9501 8.005899 7.012497 15.4725
5/19/2021 1:40:56 AM 15.42 59.756 273.3 8.002399 7.535004 15.42
5/19/2021 1:55:56 AM 15.37 59.666 273.3 7.997499 7.275002 15.37
5/19/2021 2:10:56 AM 15.335 59.603 273.6 7.991899 7.362503 15.335
5/19/2021 2:25:56 AM 15.285 59.513 273.6499 7.9863 7.834999 15.285
5/19/2021 2:40:57 AM 15.25 59.45 273.9501 7.9828 6.959999 15.25
5/19/2021 2:55:56 AM 15.195 59.351 273.9501 7.9772 7.639999 15.195
5/19/2021 3:10:56 AM 15.1575 59.2835 274 7.9744 7.462502 15.1575
5/19/2021 3:25:56 AM 15.125 59.225 274.3501 7.9716 8.190002 15.125
5/19/2021 3:40:56 AM 15.0725 59.1305 274.3501 7.9674 7.292503 15.0725
5/19/2021 3:55:56 AM 15.0375 59.0675 274.6499 7.9618 8.07 15.0375
5/19/2021 4:10:56 AM 15.005 59.009 274.6499 7.9583 7.635002 15.005
5/19/2021 4:25:56 AM 14.97 58.946 275.0499 7.952 7.709999 14.97
5/19/2021 4:40:56 AM 14.9375 58.8875 275.4 7.9422 8.002502 14.9375
5/19/2021 4:55:56 AM 14.9025 58.8245 275.4 7.9366 7.377502 14.9025
5/19/2021 5:10:56 AM 14.8675 58.7615 275.7501 7.9317 7.8125 14.8675
5/19/2021 5:25:57 AM 14.8325 58.6985 276.1 7.9226 8.125 14.8325
5/19/2021 5:40:57 AM 14.7975 58.6355 276.1 7.9191 7.9375 14.7975
5/19/2021 5:55:57 AM 14.765 58.577 276.1 7.9086 7.862503 14.765
5/19/2021 6:10:57 AM 14.745 58.541 276.4 7.9044 7.970001 14.745
5/19/2021 6:25:57 AM 14.7275 58.5095 276.4 7.903 7.517502 14.7275
5/19/2021 6:40:57 AM 14.7125 58.4825 276.7501 7.8988 7.480003 14.7125
5/19/2021 6:55:57 AM 14.6925 58.4465 277.15 7.8995 7.447502 14.6925
5/19/2021 7:10:56 AM 14.6775 58.4195 277.15 7.8939 7.364998 14.6775
5/19/2021 7:25:57 AM 14.675 58.415 277.1 7.8925 7.324997 14.675
5/19/2021 7:40:56 AM 14.69 58.442 277.15 7.889 7.309998 14.69
5/19/2021 7:55:56 AM 14.7075 58.4735 277.15 7.889 7.302498 14.7075
5/19/2021 8:10:56 AM 14.7275 58.5095 277.1 7.8925 7.342499 14.7275
5/19/2021 8:25:56 AM 14.76 58.568 277.1 7.8953 7.287498 14.76
5/19/2021 8:40:56 AM 14.795 58.631 277.0499 7.8645 7.167503 14.795
5/19/2021 8:55:56 AM 14.8475 58.7255 277.0499 7.8645 7.147499 14.8475
5/19/2021 9:10:56 AM 14.9025 58.8245 277.0499 7.8736 7.150002 14.9025
5/19/2021 9:25:56 AM 14.9525 58.9145 276.7 7.8806 7.220001 14.9525
5/19/2021 9:40:56 AM 15.0225 59.0405 276.7 7.8883 7.269997 15.0225
5/19/2021 9:55:56 AM 15.1425 59.2565 276.3501 7.8981 7.32 15.1425
5/19/2021 10:10:56 AM 15.2475 59.4455 276 7.9044 7.197502 15.2475
5/19/2021 10:25:56 AM 15.3475 59.6255 275.6 7.9128 7.282501 15.3475
5/19/2021 10:40:57 AM 15.47 59.846 275.6499 7.917 7.334999 15.47
5/19/2021 10:55:57 AM 15.5725 60.0305 275.2499 7.931 7.190002 15.5725
5/19/2021 11:10:57 AM 15.66 60.188 274.9 7.9415 7.142502 15.66
5/19/2021 11:40:57 AM 15.815 60.467 274.9 7.966 7.297501 15.815
5/19/2021 11:55:56 AM 15.9175 60.6515 275.2499 7.9737 7.227501 15.9175
5/19/2021 12:10:56 PM 16.0225 60.8405 275.2 7.9877 7.4375 16.0225
5/19/2021 12:25:57 PM 16.125 61.025 275.2499 8.004499 7.540001 16.125
5/19/2021 12:40:57 PM 16.2475 61.2455 275.2 8.017799 7.815002 16.2475
5/19/2021 12:55:57 PM 16.3675 61.4615 275.2499 8.026899 7.589996 16.3675
5/19/2021 1:10:56 PM 16.47 61.646 275.2 8.040899 7.485001 16.47
5/19/2021 1:25:57 PM 16.5575 61.8035 275.2 8.057699 7.190002 16.5575
5/19/2021 1:40:56 PM 16.6775 62.0195 275.2499 8.068199 7.502502 16.6775
5/19/2021 1:55:57 PM 16.8025 62.2445 275.2499 8.075199 7.205002 16.8025
5/19/2021 2:10:56 PM 16.9225 62.4605 275.2499 8.086399 7.397499 16.9225
5/19/2021 2:25:57 PM 17.0275 62.6495 275.2 8.099001 7.379997 17.0275
5/19/2021 2:40:57 PM 17.1275 62.8295 275.2 8.111601 7.43 17.1275
5/19/2021 2:55:57 PM 17.25 63.05 275.55 8.119301 7.532501 17.25
5/19/2021 3:10:57 PM 17.3525 63.2345 275.5 8.126301 7.552498 17.3525
5/19/2021 3:25:57 PM 17.4425 63.3965 275.85 8.138901 7.322502 17.4425
5/19/2021 3:40:57 PM 17.545 63.581 276.2499 8.144501 7.377502 17.545
5/19/2021 3:55:57 PM 17.615 63.707 276.2499 8.153601 7.272499 17.615
5/19/2021 4:10:57 PM 17.6675 63.8015 276.55 8.157801 7.239998 17.6675
5/19/2021 4:25:57 PM 17.755 63.959 276.9 8.162701 6.962502 17.755
5/19/2021 4:40:57 PM 17.8225 64.0805 276.9 8.178801 7.102501 17.8225
5/19/2021 4:55:57 PM 17.91 64.238 277.2499 8.184401 7.345001 17.91
5/19/2021 5:10:57 PM 17.9625 64.3325 277.2499 8.186501 7.360001 17.9625
5/19/2021 5:25:56 PM 18.0125 64.4225 277.2499 8.197701 7.447502 18.0125
5/19/2021 5:40:56 PM 18.05 64.49 277.6 8.2075 7.099998 18.05
5/19/2021 5:55:56 PM 18.1025 64.5845 277.9501 8.211 7.135002 18.1025
5/19/2021 6:10:56 PM 18.1175 64.6115 277.9501 8.2124 7.290001 18.1175
5/19/2021 6:25:56 PM 18.1525 64.6745 278.3 8.2215 7.324997 18.1525
5/19/2021 6:40:56 PM 18.1875 64.7375 278.3 8.2264 7.1875 18.1875
5/19/2021 6:55:56 PM 18.205 64.769 278.6499 8.2348 7.205002 18.205
5/19/2021 7:10:56 PM 18.205 64.769 278.6499 8.2397 7.307503 18.205
5/19/2021 7:25:57 PM 18.1875 64.7375 279 8.2418 7.1875 18.1875
5/19/2021 7:40:56 PM 18.17 64.706 279.3 8.246 7.175003 18.17
5/19/2021 7:55:57 PM 18.1025 64.5845 280 8.2495 7.065002 18.1025
5/19/2021 8:10:57 PM 17.9975 64.3955 280.7 8.2572 7.135002 17.9975
5/19/2021 8:25:57 PM 17.9125 64.2425 281.45 8.2607 6.982498 17.9125
5/19/2021 8:40:56 PM 17.84 64.112 282.1 8.2656 6.962502 17.84
5/19/2021 8:55:57 PM 17.79 64.022 282.8 8.2607 6.980003 17.79
5/19/2021 9:10:56 PM 17.7225 63.9005 283.15 8.26 7.262497 17.7225
5/19/2021 9:25:57 PM 17.6675 63.8015 283.85 8.2621 7.190002 17.6675
5/19/2021 9:40:57 PM 17.6 63.68 284.55 8.2572 7.139999 17.6
5/19/2021 9:55:57 PM 17.5475 63.5855 284.9 8.2285 6.964996 17.5475
5/19/2021 10:10:57 PM 17.4975 63.4955 285.2499 8.2271 7.207497 17.4975
5/19/2021 10:25:57 PM 17.4275 63.3695 285.9501 8.2243 7.315002 17.4275
5/19/2021 10:40:57 PM 17.375 63.275 286.3 8.2138 7.352501 17.375
5/19/2021 10:55:57 PM 17.305 63.149 286.6499 8.2096 7.264999 17.305
5/19/2021 11:10:57 PM 17.2725 63.0905 286.7 8.1984 7.279999 17.2725
5/19/2021 11:25:57 PM 17.2025 62.9645 287.0499 8.189301 7.510002 17.2025
5/19/2021 11:40:57 PM 17.1525 62.8745 287.4 8.178801 7.839996 17.1525
5/20/2021 12:10:57 AM 17.0625 62.7125 288.0499 8.161301 8.362503 17.0625
5/20/2021 12:25:57 AM 17.03 62.654 288.4 8.155001 9.004997 17.03
5/20/2021 12:40:57 AM 16.98 62.564 288.7501 8.139601 9.125 16.98
5/20/2021 12:55:57 AM 16.91 62.438 288.7501 8.131901 9.144997 16.91
5/20/2021 1:10:57 AM 16.8575 62.3435 289.5 8.120701 7.842499 16.8575
5/20/2021 1:25:57 AM 16.8075 62.2535 289.8 8.111601 7.6875 16.8075
5/20/2021 1:40:57 AM 16.755 62.159 290.15 8.107401 7.445 16.755
5/20/2021 1:55:57 AM 16.72 62.096 290.15 8.098301 7.529999 16.72
5/20/2021 2:10:57 AM 16.6675 62.0015 290.55 8.092699 7.514999 16.6675
5/20/2021 2:25:57 AM 16.6325 61.9385 290.55 8.089199 7.459999 16.6325
5/20/2021 2:40:57 AM 16.5825 61.8485 290.9 8.078699 7.287498 16.5825
5/20/2021 2:55:57 AM 16.5625 61.8125 291.2 8.059099 7.305 16.5625
5/20/2021 3:10:57 AM 16.5125 61.7225 291.2499 8.053499 7.1875 16.5125
5/20/2021 3:25:57 AM 16.4775 61.6595 291.55 8.045099 7.6875 16.4775
5/20/2021 3:40:57 AM 16.445 61.601 291.55 8.035999 7.464996 16.445
5/20/2021 3:55:56 AM 16.41 61.538 291.6 8.030399 7.445 16.41
5/20/2021 4:10:56 AM 16.375 61.475 291.9501 8.019899 7.377502 16.375
5/20/2021 4:25:57 AM 16.34 61.412 291.9501 8.011499 7.7425 16.34
5/20/2021 4:40:57 AM 16.325 61.385 291.9501 7.999599 7.690002 16.325
5/20/2021 4:55:57 AM 16.3075 61.3535 291.9501 7.990499 8.072502 16.3075
5/20/2021 5:10:57 AM 16.27 61.286 291.9501 7.9877 7.672501 16.27
5/20/2021 5:25:57 AM 16.2375 61.2275 292.3 7.9772 7.57 16.2375
5/20/2021 5:40:57 AM 16.22 61.196 292.3 7.9674 7.657501 16.22
5/20/2021 5:55:57 AM 16.185 61.133 292.6499 7.9625 7.692497 16.185
5/20/2021 6:10:57 AM 16.15 61.07 293 7.9527 7.709999 16.15
5/20/2021 6:25:57 AM 16.115 61.007 293.3501 7.9478 7.605003 16.115
5/20/2021 6:40:57 AM 16.1 60.98 293.3501 7.9373 7.847504 16.1
5/20/2021 6:55:57 AM 16.1 60.98 293.3501 7.9331 7.8125 16.1
5/20/2021 7:10:57 AM 16.0975 60.9755 293.3501 7.9338 7.849998 16.0975
5/20/2021 7:25:57 AM 16.0975 60.9755 293.3501 7.9282 7.915001 16.0975
5/20/2021 7:40:57 AM 16.0975 60.9755 293.3501 7.9233 7.9375 16.0975
5/20/2021 7:55:57 AM 16.1125 61.0025 293.3501 7.9226 8.142502 16.1125
5/20/2021 8:10:57 AM 16.1325 61.0385 292.9501 7.9219 8.037498 16.1325
5/20/2021 8:25:57 AM 16.165 61.097 292.9501 7.924 8.612503 16.165
5/20/2021 8:40:57 AM 16.2 61.16 292.9501 7.9142 7.6175 16.2
5/20/2021 8:55:57 AM 16.235 61.223 292.9501 7.9135 7.407501 16.235
5/20/2021 9:10:57 AM 16.27 61.286 292.6 7.9114 7.497498 16.27
5/20/2021 9:25:57 AM 16.305 61.349 292.6 7.917 7.6325 16.305
5/20/2021 9:40:57 AM 16.3375 61.4075 292.2499 7.9219 7.352501 16.3375
5/20/2021 9:55:57 AM 16.405 61.529 291.85 7.9282 7.544998 16.405
5/20/2021 10:10:57 AM 16.51 61.718 291.15 7.9366 7.212502 16.51
5/20/2021 10:25:57 AM 16.6475 61.9655 290.45 7.9464 7.315002 16.6475
5/20/2021 10:40:57 AM 16.7675 62.1815 290.15 7.959 7.419998 16.7675
5/20/2021 10:55:57 AM 16.8725 62.3705 289.4 7.9688 7.297501 16.8725
5/20/2021 11:10:57 AM 16.975 62.555 289.0499 7.9793 7.434998 16.975
5/20/2021 11:25:57 AM 17.08 62.744 288.7 7.992599 7.417503 17.08
5/20/2021 11:40:57 AM 17.165 62.897 288.4 8.009399 7.315002 17.165
5/20/2021 11:55:57 AM 17.25 63.05 288 8.026899 7.239998 17.25
5/20/2021 12:10:57 PM 13.2075 55.7735 541.85 7.3598 4.897499 13.2075
5/20/2021 12:25:56 PM 17.075 62.735 289.6499 7.9149 37.135 17.075
5/20/2021 12:40:57 PM 17.355 63.239 288.3 7.9821 21.6225 17.355
5/20/2021 12:55:56 PM 17.51 63.518 288 8.042999 13.6475 17.51
5/20/2021 1:10:56 PM 17.65 63.77 287.6499 8.089899 10.6975 17.65
5/20/2021 1:25:57 PM 17.755 63.959 287.2499 8.129801 10.3825 17.755
5/20/2021 1:40:56 PM 17.945 64.301 286.55 8.157801 17.5825 17.945
5/20/2021 1:55:57 PM 18.0825 64.5485 285.85 8.178101 20.2725 18.0825
5/20/2021 2:10:56 PM 18.185 64.733 285.5 8.152901 20.065 18.185
5/20/2021 2:25:57 PM 18.2725 64.8905 285.5 8.162001 12.535 18.2725
5/20/2021 2:40:56 PM 18.3425 65.0165 285.2 8.181601 10.3625 18.3425
5/20/2021 2:55:57 PM 18.4275 65.1695 285.15 8.197701 9.127502 18.4275
5/20/2021 3:10:57 PM 18.535 65.363 284.85 8.2103 8.470001 18.535
5/20/2021 3:25:56 PM 18.6375 65.5475 284.85 8.2215 8.057503 18.6375
5/20/2021 3:40:57 PM 18.74 65.732 284.8 8.2313 7.739998 18.74
5/20/2021 3:55:57 PM 18.845 65.921 284.45 8.2453 7.517502 18.845
5/20/2021 4:10:56 PM 18.915 66.047 284.5 8.2593 7.254997 18.915
5/20/2021 4:25:57 PM 18.965 66.137 284.45 8.2796 7.1325 18.965
5/20/2021 4:40:57 PM 19 66.2 284.5 8.2992 7.099998 19
5/20/2021 4:55:57 PM 19.0375 66.2675 284.5 8.2642 7.029999 19.0375
5/20/2021 5:10:57 PM 19.05 66.29 284.5 8.2761 6.957497 19.05
5/20/2021 5:25:57 PM 19.07 66.326 284.45 8.2838 6.925003 19.07
5/20/2021 5:40:57 PM 19.1025 66.38451 284.45 8.295 6.855003 19.1025
5/20/2021 5:55:56 PM 19.1375 66.4475 284.5 8.2992 6.822502 19.1375
5/20/2021 6:10:57 PM 19.155 66.479 284.5 8.3146 6.735001 19.155
5/20/2021 6:25:57 PM 19.1225 66.4205 284.85 8.3181 6.68 19.1225
5/20/2021 6:40:57 PM 19.105 66.389 284.8 8.3328 6.629997 19.105
5/20/2021 6:55:57 PM 19.02 66.236 285.2 8.337 6.597504 19.02
5/20/2021 7:10:57 PM 18.9825 66.1685 285.15 8.3524 6.629997 18.9825
5/20/2021 7:25:57 PM 18.95 66.11 285.5 8.3321 6.597504 18.95
5/20/2021 7:40:57 PM 18.9675 66.1415 285.5 8.344 6.5625 18.9675
5/20/2021 7:55:57 PM 18.9825 66.1685 285.9 8.3482 6.597504 18.9825
5/20/2021 8:10:57 PM 18.985 66.173 286.2499 8.3531 6.597504 18.985
5/20/2021 8:25:57 PM 18.935 66.083 286.6 8.3573 6.5625 18.935
5/20/2021 8:40:56 PM 18.8825 65.9885 286.9501 8.3622 6.702499 18.8825
5/20/2021 8:55:56 PM 18.7975 65.8355 287.3 8.3741 6.635002 18.7975
5/20/2021 9:10:57 PM 18.73 65.714 288 8.3727 6.669998 18.73
5/20/2021 9:25:56 PM 18.6575 65.5835 288.4 8.3412 6.652496 18.6575
5/20/2021 9:40:56 PM 18.6075 65.4935 288.7501 8.3552 6.745003 18.6075
5/20/2021 9:55:56 PM 18.555 65.399 288.7501 8.3566 6.709999 18.555
5/20/2021 10:10:56 PM 18.5225 65.3405 289.0499 8.3559 7.057503 18.5225
5/20/2021 10:25:56 PM 18.47 65.246 289.1 8.3538 6.762497 18.47
5/20/2021 10:40:57 PM 18.4175 65.1515 289.45 8.3503 6.760002 18.4175
5/20/2021 10:55:57 PM 18.35 65.03 289.8 8.3447 6.747498 18.35
5/20/2021 11:10:57 PM 18.3175 64.9715 290.15 8.3398 6.727501 18.3175
5/20/2021 11:25:57 PM 18.2475 64.8455 290.5 8.33 6.730003 18.2475
5/20/2021 11:40:57 PM 18.1775 64.7195 291.15 8.3314 7.042503 18.1775
5/21/2021 12:10:57 AM 18.0575 64.5035 291.55 8.3013 6.904999 18.0575
5/21/2021 12:25:57 AM 17.97 64.346 291.9 8.2936 6.974998 17.97
5/21/2021 12:40:57 AM 17.92 64.256 291.9 8.2782 6.904999 17.92
5/21/2021 12:55:57 AM 17.85 64.13 292.2499 8.2677 6.940002 17.85
5/21/2021 1:10:57 AM 17.7975 64.0355 292.3 8.2572 7.027496 17.7975
5/21/2021 1:25:57 AM 17.7275 63.9095 292.6 8.2439 6.925003 17.7275
5/21/2021 1:40:57 AM 17.66 63.788 293 8.2334 6.957497 17.66
5/21/2021 1:55:57 AM 17.6075 63.6935 293.3501 8.2264 6.889999 17.6075
5/21/2021 2:10:57 AM 17.5375 63.5675 293.6499 8.2096 6.805 17.5375
5/21/2021 2:25:57 AM 17.5025 63.5045 294 8.2019 6.997498 17.5025
5/21/2021 2:40:57 AM 17.4375 63.3875 294.3501 8.190701 6.942497 17.4375
5/21/2021 2:55:57 AM 17.4 63.32 294.7501 8.182301 7.1875 17.4
5/21/2021 3:10:57 AM 17.365 63.257 294.7 8.171101 7.394997 17.365
5/21/2021 3:25:57 AM 17.35 63.23 295.0499 8.167601 7.485001 17.35
5/21/2021 3:40:57 AM 17.2975 63.1355 295.1 8.157801 7.432503 17.2975
5/21/2021 3:55:57 AM 17.28 63.104 295.45 8.152901 7.482498 17.28
5/21/2021 4:10:57 AM 17.245 63.041 295.45 8.142401 7.675003 17.245
5/21/2021 4:25:57 AM 17.21 62.978 295.7501 8.138201 7.660004 17.21
5/21/2021 4:40:57 AM 17.16 62.888 296.1 8.127701 7.207497 17.16
5/21/2021 4:55:57 AM 17.1225 62.8205 296.1 8.120001 6.997498 17.1225
5/21/2021 5:10:57 AM 17.1075 62.7935 296.1 8.114401 7 17.1075
5/21/2021 5:25:57 AM 17.0725 62.7305 296.1 8.105301 6.962502 17.0725
5/21/2021 5:40:57 AM 17.0375 62.6675 296.45 8.094101 7 17.0375
5/21/2021 5:55:57 AM 16.9825 62.5685 296.85 8.068199 7.014999 16.9825
5/21/2021 6:10:56 AM 16.93 62.474 296.85 8.059099 6.925003 16.93
5/21/2021 6:25:57 AM 16.895 62.411 297.2 8.049299 6.997498 16.895
5/21/2021 6:40:56 AM 16.8575 62.3435 297.2 8.040899 7.167503 16.8575
5/21/2021 6:55:56 AM 16.86 62.348 297.5 8.029699 7.044998 16.86
5/21/2021 7:10:56 AM 16.86 62.348 297.5 8.019899 7.027496 16.86
5/21/2021 7:25:56 AM 16.8775 62.3795 297.55 8.010099 7.342499 16.8775
5/21/2021 7:40:56 AM 16.895 62.411 297.15 8.005899 7.445 16.895
5/21/2021 7:55:56 AM 16.915 62.447 297.1 8.001699 7.307503 16.915
5/21/2021 8:10:56 AM 16.95 62.51 296.8 7.996799 7.485001 16.95
5/21/2021 8:25:57 AM 16.9825 62.5685 296.8 7.992599 7.502502 16.9825
5/21/2021 8:40:56 AM 17.035 62.663 296.4 7.9856 7.182503 17.035
5/21/2021 8:55:56 AM 17.105 62.789 296.45 7.987 7.375 17.105
5/21/2021 9:10:57 AM 17.1725 62.9105 296.1 7.990499 7.199997 17.1725
5/21/2021 9:25:56 AM 17.2425 63.0365 296.0499 7.990499 7.150002 17.2425
5/21/2021 9:40:57 AM 17.31 63.158 296.0499 7.991199 7.080002 17.31
5/21/2021 9:55:57 AM 17.395 63.311 296 8.000999 7.144997 17.395
5/21/2021 10:10:56 AM 17.5 63.5 295.6499 8.004499 7.197502 17.5
5/21/2021 10:25:57 AM 17.6025 63.6845 295.3 8.019899 6.8125 17.6025
5/21/2021 10:40:56 AM 17.7075 63.8735 295.3501 8.027599 6.832497 17.7075
5/21/2021 10:55:56 AM 17.81 64.058 295 8.042299 6.727501 17.81
5/21/2021 11:10:56 AM 17.915 64.247 294.6 8.058399 6.620003 17.915
5/21/2021 11:25:57 AM 18 64.4 294.55 8.072399 6.602501 18
5/21/2021 11:40:57 AM 18.1025 64.5845 294.15 8.086399 6.5625 18.1025
5/21/2021 11:55:57 AM 18.1875 64.7375 294.2499 8.111601 6.599998 18.1875
5/21/2021 12:10:57 PM 18.31 64.958 294.2 8.130501 6.587502 18.31
5/21/2021 12:25:57 PM 18.415 65.147 293.85 8.148001 6.599998 18.415
5/21/2021 12:40:57 PM 18.5325 65.3585 293.8 8.169701 6.595001 18.5325
5/21/2021 12:55:57 PM 18.655 65.579 293.5 8.189301 6.717499 18.655
5/21/2021 1:10:57 PM 18.7775 65.7995 293.5 8.2075 6.544998 18.7775
5/21/2021 1:25:57 PM 18.88 65.984 293.5 8.178101 6.93 18.88
5/21/2021 1:40:57 PM 19.0025 66.2045 293.5 8.2012 6.997498 19.0025
5/21/2021 1:55:57 PM 19.105 66.389 293.45 8.2215 6.889999 19.105
5/21/2021 2:10:57 PM 19.2275 66.6095 293.45 8.2299 6.904999 19.2275
5/21/2021 2:25:57 PM 19.33 66.794 293.5 8.2446 6.614998 19.33
5/21/2021 2:40:57 PM 19.435 66.983 293.5 8.2544 6.767502 19.435
5/21/2021 2:55:56 PM 19.555 67.199 293.0499 8.2705 6.735001 19.555
5/21/2021 3:10:57 PM 19.66 67.388 293.1 8.2803 6.612503 19.66
5/21/2021 3:25:56 PM 19.7125 67.4825 293.1 8.288 6.440002 19.7125
5/21/2021 3:40:56 PM 19.815 67.667 293.1 8.2943 6.352501 19.815
5/21/2021 3:55:56 PM 19.8875 67.7975 292.7501 8.3076 6.322502 19.8875
5/21/2021 4:10:56 PM 19.97 67.946 292.7501 8.3146 6.440002 19.97
5/21/2021 4:25:56 PM 20.04 68.07201 292.8 8.3286 6.504997 20.04
5/21/2021 4:40:56 PM 20.1425 68.2565 292.7501 8.3433 6.370003 20.1425
5/21/2021 4:55:57 PM 20.23 68.414 292.7501 8.3608 6.4375 20.23
5/21/2021 5:10:56 PM 20.3175 68.5715 292.7501 8.3818 6.247498 20.3175
5/21/2021 5:25:56 PM 20.3525 68.63451 292.7501 8.337 6.527496 20.3525
5/21/2021 5:40:57 PM 20.35 68.63 292.7501 8.3566 6.647499 20.35
5/21/2021 5:55:57 PM 20.355 68.639 293.1 8.3566 6.610001 20.355
5/21/2021 6:10:56 PM 20.3175 68.5715 293.5 8.3622 6.489998 20.3175
5/21/2021 6:25:57 PM 20.37 68.666 293.1 8.3727 6.355003 20.37
5/21/2021 6:40:57 PM 20.44 68.792 292.7501 8.3867 6.3125 20.44
5/21/2021 6:55:57 PM 20.4725 68.8505 293.1 8.3965 6.334999 20.475
5/21/2021 7:10:57 PM 20.475 68.855 293.1 8.4105 6.717499 20.475
5/21/2021 7:25:57 PM 20.4575 68.8235 293.45 8.4252 6.629997 20.4575
5/21/2021 7:40:57 PM 20.455 68.819 293.45 8.431499 6.355003 20.455
5/21/2021 7:55:57 PM 20.405 68.729 293.8 8.3776 6.4925 20.405
5/21/2021 8:10:57 PM 20.3525 68.63451 294.2 8.4021 6.474998 20.3525
5/21/2021 8:25:57 PM 20.3175 68.5715 294.5 8.3965 6.737503 20.3175
5/21/2021 8:40:57 PM 20.2525 68.4545 294.55 8.3958 6.720001 20.2525
5/21/2021 8:55:56 PM 20.2 68.36 294.85 8.4014 6.512497 20.2
5/21/2021 9:10:57 PM 20.1325 68.2385 295.6 8.4063 6.355003 20.1325
5/21/2021 9:25:57 PM 20.0625 68.1125 295.9501 8.4112 6.477501 20.0625
5/21/2021 9:40:57 PM 20.01 68.018 296.3 8.4182 8.947502 20.01
5/21/2021 9:55:57 PM 19.975 67.955 296.3 8.432199 11.7225 19.975
5/21/2021 10:10:57 PM 19.905 67.829 297 8.4028 11.2375 19.905
5/21/2021 10:25:57 PM 19.8375 67.7075 297.3501 8.4042 11.0325 19.8375
5/21/2021 10:40:57 PM 19.735 67.523 297.7 8.3965 10.4875 19.735
5/21/2021 10:55:57 PM 19.685 67.433 298 8.3895 10.2375 19.685
5/21/2021 11:10:57 PM 19.58 67.244 298.7 8.3846 9.904999 19.58
5/21/2021 11:25:57 PM 19.51 67.118 299.1 8.3804 9.767502 19.51
5/21/2021 11:40:57 PM 19.4425 66.9965 299.45 8.3699 28.8675 19.4425
5/22/2021 12:10:57 AM 19.37 66.866 299.3501 8.3503 33.225 19.37
5/22/2021 12:25:57 AM 19.32 66.776 299.8 8.3398 23.76 19.32
5/22/2021 12:40:56 AM 19.2525 66.6545 300.1 8.33 20.085 19.2525
5/22/2021 12:55:56 AM 19.185 66.533 300.45 8.3209 18.345 19.185
5/22/2021 1:10:56 AM 19.115 66.407 300.8 8.3125 17.6825 19.115
5/22/2021 1:25:56 AM 19.025 66.245 300.8 8.3069 17.2325 19.025
5/22/2021 1:40:58 AM 18.9575 66.1235 301.2 8.2957 16.4575 18.9575
5/22/2021 1:55:56 AM 18.89 66.002 301.55 8.2866 15.415 18.89
5/22/2021 2:10:56 AM 18.805 65.849 301.9 8.2719 14.945 18.805
5/22/2021 2:25:56 AM 18.72 65.696 302.3 8.2628 13.87 18.72
5/22/2021 2:40:57 AM 18.665 65.597 302.2499 8.2544 13.85 18.665
5/22/2021 2:55:57 AM 18.5975 65.4755 302.6 8.2432 13.87 18.5975
5/22/2021 3:10:57 AM 18.525 65.345 302.6 8.2348 13.73 18.525
5/22/2021 3:25:57 AM 18.4725 65.2505 302.9 8.2257 13.5575 18.4725
5/22/2021 3:40:56 AM 18.405 65.129 303.3 8.2138 13.51 18.405
5/22/2021 3:55:57 AM 18.3375 65.0075 303.3 8.180901 12.2925 18.3375
5/22/2021 4:10:56 AM 18.285 64.913 303.6499 8.155001 12.3275 18.285
5/22/2021 4:25:57 AM 18.2475 64.8455 303.6499 8.133301 12.45 18.2475
5/22/2021 4:40:56 AM 18.1975 64.7555 304 8.138901 12.2925 18.1975
5/22/2021 4:55:57 AM 18.1475 64.6655 304.3501 8.103901 12.555 18.1475
5/22/2021 5:10:57 AM 18.11 64.598 304.7 8.124201 12.125 18.11
5/22/2021 5:25:57 AM 18.075 64.535 304.7 8.092699 12.0825 18.075
5/22/2021 5:40:57 AM 18.025 64.445 305.0499 8.095501 12.05 18.025
5/22/2021 5:55:57 AM 17.9875 64.3775 305.1 8.080099 12.2425 17.9875
5/22/2021 6:10:57 AM 17.955 64.319 305.4 8.099001 12.33 17.955
5/22/2021 6:25:57 AM 17.92 64.256 305.45 8.079399 8.699997 17.92
5/22/2021 6:40:57 AM 17.905 64.229 305.45 8.042299 8.165001 17.905
5/22/2021 6:55:57 AM 17.9025 64.2245 305.45 8.049999 7.557503 17.9025
5/22/2021 7:10:57 AM 17.905 64.229 305.45 8.031799 7.449997 17.905
5/22/2021 7:25:57 AM 17.905 64.229 305.45 8.016399 7.504997 17.905
5/22/2021 7:40:57 AM 17.92 64.256 305.45 8.021999 7.394997 17.92
5/22/2021 7:55:57 AM 17.9225 64.2605 305.45 8.000999 7.239998 17.9225
5/22/2021 8:10:57 AM 17.9575 64.3235 305.45 7.987 7.224998 17.9575
5/22/2021 8:25:57 AM 18.01 64.418 305.0499 7.9716 7.294998 18.01
5/22/2021 8:40:57 AM 18.0425 64.4765 305.0499 7.9723 7.309998 18.0425
5/22/2021 8:55:57 AM 18.095 64.571 305.1 7.9779 7.135002 18.095
5/22/2021 9:10:57 AM 18.1275 64.6295 305.1 7.9674 7.184998 18.1275
5/22/2021 9:25:56 AM 18.18 64.724 304.7 7.9716 7.150002 18.18
5/22/2021 9:40:56 AM 18.25 64.85 304.6499 7.991899 6.959999 18.25
5/22/2021 9:55:56 AM 18.335 65.003 304.3501 7.9863 6.9925 18.335
5/22/2021 10:10:56 AM 18.4375 65.1875 303.9501 8.035299 6.887497 18.4375
5/22/2021 10:25:56 AM 18.5225 65.3405 304 8.068199 6.989998 18.5225
5/22/2021 10:40:56 AM 18.5925 65.4665 303.9501 8.000999 6.955002 18.5925
5/22/2021 10:55:56 AM 18.6625 65.5925 303.6 8.003799 7.002502 18.6625
5/22/2021 11:10:56 AM 18.7125 65.6825 303.2499 8.009399 6.847504 18.7125
5/22/2021 11:25:56 AM 18.8 65.84 303.2499 8.041599 6.724998 18.8
5/22/2021 11:40:57 AM 18.885 65.993 302.85 8.038099 6.847504 18.885
5/22/2021 11:55:57 AM 18.955 66.119 302.85 8.052099 6.690002 18.9525
5/22/2021 12:10:56 PM 19.0225 66.24049 302.85 8.076599 6.809998 19.0225
5/22/2021 12:25:57 PM 19.11 66.398 302.85 8.124901 6.772499 19.11
5/22/2021 12:40:57 PM 19.1775 66.5195 302.5 8.095501 6.739998 19.1775
5/22/2021 12:55:56 PM 19.245 66.641 302.1 8.140301 6.682503 19.245
5/22/2021 1:10:57 PM 19.315 66.767 302.15 8.168301 6.877502 19.315
5/22/2021 1:25:57 PM 19.4025 66.9245 302.15 8.153601 6.667503 19.4025
5/22/2021 1:40:57 PM 19.4725 67.0505 302.1 8.2117 6.577499 19.4725
5/22/2021 1:55:57 PM 19.56 67.208 302.15 8.2411 6.527496 19.56
5/22/2021 2:10:57 PM 19.61 67.298 302.15 8.2131 6.822502 19.61
5/22/2021 2:25:57 PM 19.665 67.397 302.15 8.2502 6.737503 19.665
5/22/2021 2:40:57 PM 19.6975 67.4555 302.15 8.2404 6.650002 19.6975
5/22/2021 2:55:57 PM 19.765 67.577 302.45 8.2712 6.580002 19.765
5/22/2021 3:10:57 PM 19.8175 67.6715 302.45 8.3146 6.612503 19.8175
5/22/2021 3:25:57 PM 19.8875 67.7975 302.45 8.2943 6.717499 19.8875
5/22/2021 3:40:57 PM 19.9225 67.8605 302.45 8.3048 6.6175 19.9225
5/22/2021 3:55:57 PM 19.955 67.919 302.45 8.3678 6.527496 19.955
5/22/2021 4:10:57 PM 20.0075 68.0135 302.15 8.3237 6.337502 20.0075
5/22/2021 4:25:57 PM 20.0425 68.0765 302.45 8.33 6.302498 20.0425
5/22/2021 4:40:57 PM 20.095 68.171 302.45 8.3419 6.407501 20.095
5/22/2021 4:55:57 PM 20.1275 68.2295 302.45 8.3804 6.317497 20.1275
5/22/2021 5:10:56 PM 20.165 68.297 302.1 8.3867 6.32 20.165
5/22/2021 5:25:56 PM 20.215 68.387 302.1 8.4175 6.422501 20.215
5/22/2021 5:40:56 PM 20.2525 68.4545 302.1 8.4252 6.457497 20.2525
5/22/2021 5:55:56 PM 20.25 68.45 302.1 8.435699 6.300003 20.25
5/22/2021 6:10:56 PM 20.23 68.414 302.1 8.434999 6.612503 20.23
5/22/2021 6:25:56 PM 20.215 68.387 302.15 8.441999 6.412498 20.215
5/22/2021 6:40:56 PM 20.18 68.324 302.1 8.3783 6.389999 20.18
5/22/2021 6:55:56 PM 20.1625 68.2925 302.1 8.3832 6.474998 20.1625
5/22/2021 7:10:56 PM 20.165 68.297 302.5 8.4007 6.459999 20.165
5/22/2021 7:25:56 PM 20.1125 68.2025 302.5 8.3587 6.237503 20.1125
5/22/2021 7:40:56 PM 20.06 68.108 302.8 8.3447 6.355003 20.06
5/22/2021 7:55:56 PM 20.025 68.045 303.2 8.3636 6.217499 20.025
5/22/2021 8:10:56 PM 19.975 67.955 303.2 8.3671 6.199997 19.975
5/22/2021 8:25:56 PM 19.94 67.892 303.5 8.3636 6.199997 19.94
5/22/2021 8:40:56 PM 19.87 67.766 303.9 8.3503 6.202499 19.87
5/22/2021 8:55:56 PM 19.8175 67.6715 304.2 8.3489 6.167503 19.8175
5/22/2021 9:10:56 PM 19.7675 67.5815 304.6 8.3433 6.272499 19.7675
5/22/2021 9:25:56 PM 19.715 67.487 304.9 8.3209 6.272499 19.715
5/22/2021 9:40:56 PM 19.68 67.424 305.3 8.344 6.205002 19.68
5/22/2021 9:55:56 PM 19.63 67.334 305.6499 8.3335 6.237503 19.63
5/22/2021 10:10:56 PM 19.58 67.244 305.6499 8.3678 6.290001 19.58
5/22/2021 10:25:56 PM 19.545 67.181 306 8.33 6.272499 19.545
5/22/2021 10:40:56 PM 19.49 67.082 306.3501 8.3111 6.275002 19.49
5/22/2021 10:55:56 PM 19.4575 67.0235 306.3501 8.3097 6.307503 19.4575
5/22/2021 11:10:56 PM 19.405 66.929 307.0499 8.2957 6.497498 19.405
5/22/2021 11:25:57 PM 19.355 66.839 307.3501 8.3006 6.622498 19.355
5/22/2021 11:40:56 PM 19.3025 66.7445 307.4 8.281 7.004997 19.3025
5/23/2021 12:10:57 AM 19.215 66.587 308.0499 8.2677 19.1775 19.215
5/23/2021 12:25:56 AM 19.18 66.524 308.4 8.2663 13.81 19.18
5/23/2021 12:40:56 AM 19.15 66.47 308.8 8.2621 11.85 19.15
5/23/2021 12:55:56 AM 19.11 66.398 309.1 8.253 11.4325 19.11
5/23/2021 1:10:56 AM 19.0575 66.3035 309.4 8.2467 10.9925 19.0575
5/23/2021 1:25:56 AM 19.0075 66.2135 309.8 8.2362 10.8275 19.0075
5/23/2021 1:40:56 AM 18.955 66.119 310.15 8.2292 10.495 18.955
5/23/2021 1:55:57 AM 18.905 66.029 310.5 8.2173 10.96 18.905
5/23/2021 2:10:56 AM 18.8325 65.8985 310.8 8.2145 10.1975 18.8325
5/23/2021 2:25:56 AM 18.7825 65.8085 311.2 8.2033 10.045 18.7825
5/23/2021 2:40:56 AM 18.73 65.714 311.5 8.194201 10.1775 18.73
5/23/2021 2:55:56 AM 18.695 65.651 311.5 8.185801 9.847504 18.695
5/23/2021 3:10:56 AM 18.6425 65.5565 311.9 8.183701 9.822502 18.6425
5/23/2021 3:25:56 AM 18.5925 65.4665 312.55 8.178801 10.045 18.5925
5/23/2021 3:40:56 AM 18.54 65.372 312.6 8.169701 9.472504 18.54
5/23/2021 3:55:56 AM 18.47 65.246 312.9501 8.164101 9.489998 18.47
5/23/2021 4:10:56 AM 18.4175 65.1515 313.3 8.161301 9.802498 18.4175
5/23/2021 4:25:56 AM 18.3675 65.0615 313.6499 8.151501 9.699997 18.3675
5/23/2021 4:55:56 AM 18.3 64.94 314 8.136101 9.282501 18.3
5/23/2021 5:10:56 AM 18.265 64.877 314.3 8.131901 9.267502 18.265
5/23/2021 5:25:56 AM 18.245 64.841 314.7 8.127701 9.247498 18.245
5/23/2021 5:40:56 AM 18.2125 64.7825 315.0499 8.117901 9.114998 18.2125
5/23/2021 5:55:56 AM 18.175 64.715 315.0499 8.108101 10.2575 18.175
5/23/2021 6:10:56 AM 18.1425 64.6565 315.4 8.098301 9.197502 18.1425
5/23/2021 6:25:56 AM 18.125 64.625 315.7501 8.087099 7.375 18.125
5/23/2021 6:55:56 AM 18.0725 64.5305 316.1 8.068199 6.697502 18.0725
5/23/2021 7:10:56 AM 18.055 64.499 316.45 8.059099 7.014999 18.055
5/23/2021 7:25:57 AM 18.055 64.499 316.45 8.049999 6.849998 18.055
5/23/2021 7:40:56 AM 18.055 64.499 316.45 8.038799 6.817497 18.055
5/23/2021 7:55:57 AM 18.07 64.526 316.4 8.035999 6.677498 18.07
5/23/2021 8:10:56 AM 18.105 64.589 316.1 8.031099 6.650002 18.105
5/23/2021 8:25:57 AM 18.16 64.688 316.1 8.025499 6.785004 18.16
5/23/2021 8:40:56 AM 18.1925 64.7465 315.7 8.019199 6.764999 18.1925
5/23/2021 8:55:57 AM 18.225 64.805 315.7 8.020599 6.794998 18.225
5/23/2021 9:10:56 AM 18.28 64.904 315.7501 8.014299 6.467499 18.28
5/23/2021 9:25:57 AM 18.3325 64.9985 315.3501 8.008699 6.464996 18.3325
5/23/2021 9:40:57 AM 18.365 65.057 315.3501 8.007999 6.815002 18.365
5/23/2021 9:55:56 AM 18.4175 65.1515 315.3501 8.002399 6.449997 18.4175
5/23/2021 10:10:56 AM 18.485 65.273 315.3 8.007299 6.532501 18.485
5/23/2021 10:25:57 AM 18.57 65.426 314.9501 8.014299 6.43 18.57
5/23/2021 10:40:57 AM 18.64 65.552 314.9501 8.019199 6.360001 18.64
5/23/2021 10:55:57 AM 18.71 65.67799 315 8.022699 6.342499 18.71
5/23/2021 11:10:57 AM 18.7425 65.7365 314.9501 8.033199 6.514999 18.7425
5/23/2021 11:25:56 AM 18.795 65.831 314.9501 8.040899 6.410004 18.795
5/23/2021 11:40:57 AM 18.8625 65.9525 314.6 8.047899 6.269997 18.8625
5/23/2021 11:55:56 AM 18.935 66.083 314.3 8.062599 6.342499 18.935
5/23/2021 12:10:56 PM 18.97 66.146 314.2499 8.065399 6.360001 18.97
5/23/2021 12:25:56 PM 19.0225 66.24049 313.9 8.081499 6.237503 19.0225
5/23/2021 12:40:56 PM 19.0725 66.3305 313.55 8.096201 6.269997 19.0725
5/23/2021 12:55:56 PM 19.1425 66.4565 313.6 8.110201 6.237503 19.1425
5/23/2021 1:10:56 PM 19.2125 66.5825 313.9501 8.124201 6.272499 19.2125
5/23/2021 1:25:56 PM 19.2825 66.7085 313.55 8.134001 6.345001 19.2825
5/23/2021 1:40:56 PM 19.3525 66.8345 313.55 8.149401 6.339996 19.3525
5/23/2021 1:55:56 PM 19.4 66.92 313.2 8.164801 6.290001 19.4
5/23/2021 2:10:56 PM 19.455 67.019 313.2 8.178801 6.410004 19.455
5/23/2021 2:25:56 PM 19.54 67.172 312.85 8.192801 6.375 19.54
5/23/2021 2:40:56 PM 19.61 67.298 312.85 8.2075 6.514999 19.61
5/23/2021 2:55:56 PM 19.595 67.271 313.2 8.2173 6.394997 19.595
5/23/2021 3:10:56 PM 19.5775 67.2395 313.9 8.2278 6.360001 19.5775
5/23/2021 3:25:56 PM 19.61 67.298 313.9501 8.2376 6.480003 19.61
5/23/2021 3:40:56 PM 19.6475 67.36549 314.2499 8.2411 6.339996 19.6475
5/23/2021 3:55:56 PM 19.665 67.397 314.6 8.2523 6.5 19.665
5/23/2021 4:10:56 PM 19.77 67.586 314.6 8.2607 6.237503 19.77
5/23/2021 4:25:56 PM 19.855 67.739 314.6 8.2698 6.220001 19.855
5/23/2021 4:40:56 PM 19.91 67.838 314.9501 8.2761 6.307503 19.91
5/23/2021 4:55:56 PM 19.925 67.865 315.7 8.2852 6.205002 19.925
5/23/2021 5:10:56 PM 19.8725 67.7705 316.3501 8.2978 6.237503 19.8725
5/23/2021 5:25:56 PM 19.8075 67.6535 317.0499 8.295 6.224998 19.8075
5/23/2021 5:40:56 PM 19.7875 67.6175 317.4 8.302 6.294998 19.7875
5/23/2021 5:55:56 PM 19.7525 67.5545 317.45 8.3125 6.695 19.7525
5/23/2021 6:10:56 PM 19.685 67.433 318.15 8.3125 6.470001 19.685
5/23/2021 6:25:57 PM 19.6025 67.2845 318.5 8.3013 6.262497 19.6025
5/23/2021 6:40:56 PM 19.5475 67.1855 318.85 8.2964 6.245003 19.5475
5/23/2021 6:55:56 PM 19.495 67.091 319.2 8.3034 6.297501 19.495
5/23/2021 7:10:57 PM 19.445 67.001 319.2 8.2971 6.142502 19.445
5/23/2021 7:25:57 PM 19.375 66.875 319.15 8.2873 6.370003 19.375
5/23/2021 7:40:56 PM 19.36 66.848 319.6 8.2929 6.232498 19.36
5/23/2021 7:55:57 PM 19.325 66.785 319.55 8.2866 6.177498 19.325
5/23/2021 8:10:57 PM 19.2725 66.6905 319.9 8.2817 6.144997 19.2725
5/23/2021 8:25:57 PM 19.255 66.659 320.2499 8.2824 6.110001 19.255
5/23/2021 8:40:57 PM 19.22 66.596 320.2499 8.2789 6.144997 19.22
5/23/2021 8:55:56 PM 19.15 66.47 320.6 8.2642 6.144997 19.15
5/23/2021 9:10:56 PM 19.0825 66.3485 320.9501 8.2544 6.162498 19.0825
5/23/2021 9:25:56 PM 19.0325 66.2585 320.9501 8.2383 6.077499 19.0325
5/23/2021 9:40:56 PM 18.9425 66.0965 321.3 8.2264 6.160004 18.9425
5/23/2021 9:55:56 PM 18.8925 66.0065 321.7 8.2152 6.182503 18.8925
5/23/2021 10:10:56 PM 18.8225 65.8805 322 8.2103 6.300003 18.8225
5/23/2021 10:25:56 PM 18.77 65.786 322.3501 8.2103 6.597504 18.77
5/23/2021 10:40:56 PM 18.7025 65.6645 322.7 8.1998 6.945 18.7025
5/23/2021 10:55:56 PM 18.6325 65.5385 323.0499 8.191401 6.6325 18.6325
5/23/2021 11:10:56 PM 18.545 65.381 323.45 8.180901 6.772499 18.545
5/23/2021 11:25:56 PM 18.4775 65.25951 324.15 8.166201 6.754997 18.4775
5/23/2021 11:40:56 PM 18.39 65.102 324.45 8.152201 7.050003 18.39
5/24/2021 12:10:56 AM 18.27 64.886 325.2 8.127001 6.2575 18.27
5/24/2021 12:25:56 AM 18.2 64.76 325.5 8.115801 6.0625 18.2
5/24/2021 12:55:56 AM 18.08 64.544 326.2499 8.091299 6.220001 18.08
5/24/2021 1:10:56 AM 18.0275 64.4495 326.55 8.081499 6.150002 18.0275
5/24/2021 1:25:57 AM 17.9725 64.3505 326.9 8.070299 5.9925 17.9725
5/24/2021 1:40:56 AM 17.935 64.283 326.9 8.060499 6.057503 17.935
5/24/2021 1:55:56 AM 18.04 64.472 326.2 8.049999 6.162498 18.04
5/24/2021 2:10:56 AM 17.92 64.256 326.9 8.044399 6.107498 17.92
5/24/2021 2:25:57 AM 17.815 64.067 327.6 8.040899 6.197502 17.815
5/24/2021 2:40:57 AM 17.8325 64.0985 327.2499 8.028999 5.955002 17.8325
5/24/2021 2:55:57 AM 17.87 64.166 326.85 8.026199 5.989998 17.87
5/24/2021 3:10:57 AM 17.7 63.86 327.9501 8.020599 5.805 17.7
5/24/2021 3:25:57 AM 17.68 63.824 327.9501 8.017099 5.837502 17.68
5/24/2021 3:40:57 AM 17.7325 63.9185 327.55 8.010799 5.849998 17.7325
5/24/2021 3:55:57 AM 17.5425 63.5765 328.6499 8.006599 5.942497 17.5425
5/24/2021 4:10:57 AM 17.5425 63.5765 328.6499 8.000299 5.959999 17.5425
5/24/2021 4:25:57 AM 17.575 63.635 327.9 7.998199 5.817497 17.575
5/24/2021 4:40:57 AM 17.4025 63.3245 328.9501 7.993299 5.822502 17.4025
5/24/2021 4:55:57 AM 17.37 63.266 329 7.9863 5.925003 17.37
5/24/2021 5:10:57 AM 17.42 63.356 328.6 7.9807 5.872498 17.42
5/24/2021 5:25:57 AM 17.285 63.113 329.3501 7.9765 6.047501 17.285
5/24/2021 5:40:57 AM 17.1975 62.9555 330 7.9737 5.875 17.1975
5/24/2021 5:55:57 AM 17.2475 63.0455 329.3501 7.9688 5.957497 17.2475
5/24/2021 6:10:57 AM 17.16 62.888 329.6499 7.9639 5.974998 17.16
5/24/2021 6:25:56 AM 17.0225 62.6405 330.7501 7.9576 5.889999 17.0225
5/24/2021 6:40:56 AM 17.09 62.762 330 7.9541 5.922501 17.09
5/24/2021 6:55:56 AM 17.075 62.735 330 7.9478 6.025002 17.075
5/24/2021 7:10:57 AM 16.9 62.42 331.4 7.9436 6.082497 16.9
5/24/2021 7:25:56 AM 16.955 62.519 330.7 7.9387 6.080002 16.955
5/24/2021 7:40:56 AM 16.9875 62.5775 330.3501 7.9401 6.010002 16.9875
5/24/2021 7:55:56 AM 16.865 62.357 331.4 7.9324 5.9925 16.865
5/24/2021 8:10:56 AM 16.8125 62.2625 331.7501 7.9345 6.029999 16.8125
5/24/2021 8:25:56 AM 16.9 62.42 331.0499 7.9345 5.940002 16.9
5/24/2021 8:40:56 AM 16.865 62.357 331.3501 7.9282 5.922501 16.865
5/24/2021 8:55:56 AM 16.7775 62.1995 332.4 7.9303 5.977501 16.7775
5/24/2021 9:10:56 AM 16.76 62.168 332.45 7.9247 5.837502 16.76
5/24/2021 9:25:56 AM 16.7425 62.1365 332.8 7.9044 12.8475 16.7425
5/24/2021 9:40:56 AM 16.78 62.204 332.8 7.9107 7.019997 16.78
5/24/2021 9:55:56 AM 16.8475 62.3255 332.4 7.91 6.235001 16.8475
5/24/2021 10:10:56 AM 16.8825 62.3885 332.45 7.9093 6.202499 16.8825
5/24/2021 10:25:56 AM 16.9325 62.4785 332.45 7.9114 6.147499 16.9325
5/24/2021 10:40:56 AM 16.985 62.573 332.4 7.9156 6.177498 16.985
5/24/2021 10:55:56 AM 17.0375 62.6675 332.4 7.9149 6.080002 17.0375
5/24/2021 11:10:56 AM 17.09 62.762 332.45 7.9191 5.955002 17.09
5/24/2021 11:25:56 AM 17.1425 62.8565 332.4 7.924 5.870003 17.1425
5/24/2021 11:40:57 AM 17.1925 62.9465 332.4 7.9352 5.762497 17.1925
5/24/2021 11:55:56 AM 17.2475 63.0455 332.4 7.9436 5.902496 17.2475
5/24/2021 12:10:57 PM 17.2975 63.1355 332.4 7.9541 5.747498 17.2975
5/24/2021 12:25:57 PM 17.35 63.23 332.3501 7.9639 5.762497 17.35
5/24/2021 12:40:57 PM 17.42 63.356 332.3501 7.9765 5.762497 17.42
5/24/2021 12:55:57 PM 17.47 63.446 332.4 7.991899 5.762497 17.47
5/24/2021 1:10:57 PM 17.5575 63.6035 332.3501 8.011499 8.752502 17.5575
5/24/2021 1:25:57 PM 17.7125 63.8825 332 8.045099 9.614998 17.7125
5/24/2021 1:40:57 PM 17.7625 63.9725 332 8.059799 7.529999 17.7625
5/24/2021 1:55:57 PM 17.8 64.04 332.0499 8.068199 6.419998 17.8
5/24/2021 2:10:57 PM 17.8325 64.0985 332 8.074499 6.059998 17.8325
5/24/2021 2:25:57 PM 17.885 64.193 331.6499 8.082199 5.845001 17.885
5/24/2021 2:40:57 PM 17.9375 64.2875 331.6499 8.098301 5.7575 17.9375
5/24/2021 2:55:57 PM 17.99 64.382 332 8.113001 5.690002 17.99
5/24/2021 3:10:57 PM 18.075 64.535 332 8.123501 5.654999 18.075
5/24/2021 3:25:56 PM 18.145 64.661 331.6499 8.131901 5.599998 18.145
5/24/2021 3:40:56 PM 18.2125 64.7825 331.3 8.151501 5.532501 18.2125
5/24/2021 3:55:56 PM 18.2675 64.8815 331.2499 8.165501 5.5 18.2675
5/24/2021 4:10:56 PM 18.3525 65.0345 331.3 8.180201 5.375 18.3525
5/24/2021 4:25:56 PM 18.42 65.156 331.3 8.195601 5.397499 18.42
5/24/2021 4:40:56 PM 18.5075 65.3135 331.3 8.2047 5.342499 18.5075
5/24/2021 4:55:56 PM 18.5575 65.4035 331.3 8.2208 5.394997 18.5575
5/24/2021 5:10:56 PM 18.595 65.471 331.3 8.2355 5.309998 18.595
5/24/2021 5:25:56 PM 18.6125 65.5025 331.3 8.2481 5.330002 18.6125
5/24/2021 5:40:56 PM 18.6275 65.5295 331.3501 8.26 5.309998 18.6275
5/24/2021 5:55:56 PM 18.6625 65.5925 331.3 8.2481 5.43 18.6625
5/24/2021 6:10:56 PM 18.6825 65.6285 331.7 8.2593 5.260002 18.6825
5/24/2021 6:25:56 PM 18.7175 65.6915 331.6499 8.2733 5.2575 18.7175
5/24/2021 6:40:56 PM 18.735 65.723 331.6499 8.2824 5.205002 18.735
5/24/2021 6:55:56 PM 18.7675 65.7815 331.7 8.2873 5.154999 18.7675
5/24/2021 7:10:56 PM 18.8 65.84 332 8.2992 5.207497 18.8
5/24/2021 7:25:56 PM 18.8025 65.8445 332.0499 8.3076 5.207497 18.8025
5/24/2021 7:40:56 PM 18.77 65.786 332.3501 8.309 5.239998 18.77
5/24/2021 7:55:56 PM 18.72 65.696 332.7501 8.3118 5.292503 18.72
5/24/2021 8:10:56 PM 18.685 65.633 333.0499 8.3069 5.245003 18.685
5/24/2021 8:25:57 PM 18.6325 65.5385 333.45 8.3076 5.190002 18.6325
5/24/2021 8:40:56 PM 18.58 65.444 333.4 8.3076 5.292503 18.58
5/24/2021 8:55:56 PM 18.545 65.381 333.4 8.3069 5.277496 18.545
5/24/2021 9:25:57 PM 18.495 65.291 333.8 8.3041 5.3125 18.495
5/24/2021 9:40:57 PM 18.475 65.255 333.8 8.2999 5.260002 18.475
5/24/2021 9:55:57 PM 18.4425 65.1965 333.8 8.3055 5.347504 18.4425
5/24/2021 10:10:57 PM 18.445 65.201 334.1 8.3027 5.294998 18.445
5/24/2021 10:25:57 PM 18.4425 65.1965 334.2 8.3041 5.332497 18.4425
5/24/2021 10:40:57 PM 18.4425 65.1965 334.15 8.3041 5.3825 18.4425
5/24/2021 10:55:57 PM 18.41 65.138 334.15 8.2985 5.522499 18.41
5/24/2021 11:10:57 PM 18.3575 65.0435 334.5 8.2887 5.730003 18.3575
5/24/2021 11:25:57 PM 18.3075 64.9535 334.5 8.2894 5.782501 18.3075
5/24/2021 11:40:56 PM 18.2525 64.8545 334.85 8.281 5.817497 18.2525
5/25/2021 12:10:57 AM 18.15 64.67 335.2 8.2586 5.852501 18.15
5/25/2021 12:25:56 AM 18.0975 64.5755 335.2 8.2572 5.782501 18.0975
5/25/2021 12:40:56 AM 18.0625 64.5125 335.6 8.2453 5.712502 18.0625
5/25/2021 12:55:56 AM 18.03 64.454 335.5 8.2404 5.504997 18.03
5/25/2021 1:10:56 AM 17.9775 64.3595 335.55 8.2348 5.542503 17.9775
5/25/2021 1:25:56 AM 17.925 64.265 335.9 8.225 5.595001 17.925
5/25/2021 1:40:56 AM 17.8925 64.2065 335.9 8.2208 5.472504 17.8925
5/25/2021 1:55:56 AM 17.8375 64.1075 335.85 8.2173 5.610001 17.8375
5/25/2021 2:10:56 AM 17.785 64.013 335.85 8.2117 5.907501 17.785
5/25/2021 2:25:56 AM 17.7325 63.9185 335.9 8.2068 5.955002 17.7325
5/25/2021 2:40:56 AM 17.665 63.797 335.9 8.196301 5.957497 17.665
5/25/2021 2:55:56 AM 17.595 63.671 335.85 8.192801 5.925003 17.595
5/25/2021 3:10:56 AM 17.5275 63.5495 336.2499 8.191401 5.974998 17.5275
5/25/2021 3:25:56 AM 17.4725 63.4505 336.2 8.187901 5.940002 17.4725
5/25/2021 3:40:56 AM 17.405 63.329 336.2499 8.181601 5.957497 17.405
5/25/2021 3:55:56 AM 17.3525 63.2345 336.2499 8.178101 5.925003 17.3525
5/25/2021 4:10:56 AM 17.3175 63.1715 336.2499 8.173901 5.922501 17.3175
5/25/2021 4:25:56 AM 17.265 63.077 336.2 8.169001 5.925003 17.265
5/25/2021 4:40:56 AM 17.2325 63.0185 336.2499 8.162701 5.974998 17.2325
5/25/2021 4:55:56 AM 17.195 62.951 336.6 8.164801 5.925003 17.195
5/25/2021 5:10:56 AM 17.1625 62.8925 336.6 8.157801 5.872498 17.1625
5/25/2021 5:25:57 AM 17.1075 62.7935 336.9 8.154301 5.974998 17.1075
5/25/2021 5:40:56 AM 17.0925 62.7665 337.3 8.152901 5.9925 17.0925
5/25/2021 6:10:57 AM 17.005 62.609 337.6 8.143101 6.150002 17.005
5/25/2021 6:25:56 AM 16.9725 62.5505 337.6499 8.138201 6.029999 16.9725
5/25/2021 6:40:56 AM 16.935 62.483 337.6 8.134001 6.044998 16.935
5/25/2021 6:55:57 AM 16.9175 62.4515 337.6499 8.128401 7.955002 16.9175
5/25/2021 7:10:57 AM 16.885 62.393 338 8.129801 6.392502 16.885
5/25/2021 7:25:57 AM 16.85 62.33 337.9501 8.125601 6.32 16.85
5/25/2021 7:40:57 AM 16.815 62.267 338.3501 8.119301 6.355003 16.815
5/25/2021 7:55:57 AM 16.7975 62.2355 338.3501 8.118601 6.287498 16.7975
5/25/2021 8:10:57 AM 16.7775 62.1995 338.3501 8.115801 6.150002 16.7775
5/25/2021 8:25:57 AM 16.7625 62.1725 338.3501 8.115101 6.322502 16.7625
5/25/2021 8:40:57 AM 16.76 62.168 338.7 8.115101 6.097504 16.76
5/25/2021 8:55:57 AM 16.76 62.168 338.7 8.114401 5.989998 16.76
5/25/2021 9:10:56 AM 16.76 62.168 339.0499 8.110201 6.044998 16.76
5/25/2021 9:25:57 AM 16.78 62.204 339.0499 8.108801 6.077499 16.78
5/25/2021 9:40:56 AM 16.7925 62.2265 339.4 8.106001 5.972504 16.7925
5/25/2021 9:55:56 AM 16.83 62.294 339.3501 8.105301 5.75 16.83
5/25/2021 10:10:56 AM 16.8625 62.3525 339.3501 8.097601 5.864998 16.8625
5/25/2021 10:25:56 AM 16.8975 62.4155 339.7 8.094801 5.782501 16.8975
5/25/2021 10:40:56 AM 16.9325 62.4785 339.7 8.096201 5.800003 16.9325
5/25/2021 10:55:56 AM 16.9675 62.5415 339.6499 8.094101 5.762497 16.9675
5/25/2021 11:10:56 AM 17.0375 62.6675 339.7 8.092699 5.745003 17.0375
5/25/2021 11:25:56 AM 17.1075 62.7935 339.7 8.094101 5.767502 17.1075
5/25/2021 11:40:56 AM 17.1775 62.9195 339.7 8.094101 5.735001 17.1775
5/25/2021 11:55:57 AM 17.25 63.05 339.3501 8.094101 5.785004 17.25
5/25/2021 12:10:57 PM 17.3325 63.1985 339.3 8.103901 5.782501 17.3325
5/25/2021 12:25:56 PM 17.4175 63.3515 338.9501 8.108801 5.709999 17.4175
5/25/2021 12:40:57 PM 17.4875 63.4775 338.9501 8.117201 5.834999 17.4875
5/25/2021 12:55:56 PM 17.59 63.662 338.55 8.122101 5.8675 17.59
5/25/2021 1:10:56 PM 17.695 63.851 338.2 8.127001 5.739998 17.695
5/25/2021 1:25:57 PM 17.815 64.067 338.2499 8.138201 5.690002 17.815
5/25/2021 1:40:57 PM 17.92 64.256 337.85 8.143101 5.760002 17.92
5/25/2021 1:55:57 PM 18.0425 64.4765 337.8 8.152201 5.7425 18.0425
5/25/2021 2:10:56 PM 18.1625 64.6925 337.5 8.159901 5.722504 18.1625
5/25/2021 2:25:57 PM 18.28 64.904 337.55 8.164801 5.6875 18.28
5/25/2021 2:40:56 PM 18.37 65.066 337.5 8.169001 5.705002 18.37
5/25/2021 2:55:57 PM 18.4525 65.2145 337.5 8.175301 5.690002 18.4525
5/25/2021 3:10:57 PM 18.5575 65.4035 337.2 8.185801 5.705002 18.5575
5/25/2021 3:25:57 PM 18.6275 65.5295 337.45 8.189301 5.667503 18.6275
5/25/2021 3:40:57 PM 18.73 65.714 337.85 8.194901 5.622498 18.73
5/25/2021 3:55:57 PM 18.935 66.083 337.8 8.2033 6.237503 18.935
5/25/2021 4:10:57 PM 19.18 66.524 337.45 8.218 8.377502 19.18
5/25/2021 4:25:57 PM 19.335 66.80299 337.1 8.2341 8.184998 19.335
5/25/2021 4:40:57 PM 19.455 67.019 337.8 8.2383 7.942497 19.455
5/25/2021 4:55:57 PM 19.5425 67.1765 337.85 8.2439 7.525002 19.5425
5/25/2021 5:10:57 PM 19.63 67.334 337.45 8.2537 7.387497 19.63
5/25/2021 5:25:57 PM 19.6825 67.4285 337.8 8.2621 7.527496 19.6825
5/25/2021 5:40:57 PM 19.7875 67.6175 337.85 8.2621 7.402496 19.7875
5/25/2021 5:55:57 PM 19.8375 67.7075 337.85 8.2817 7.315002 19.8375
5/25/2021 6:10:57 PM 19.9075 67.8335 337.8 8.2915 7.057503 19.9075
5/25/2021 6:25:57 PM 19.96 67.92799 338.5 8.2957 7.072502 19.96
5/25/2021 6:40:57 PM 20.0475 68.0855 338.5 8.232 6.8125 20.0475
5/25/2021 6:55:57 PM 20.1 68.18 338.15 8.2719 6.827499 20.1
5/25/2021 7:10:56 PM 20.135 68.243 338.5 8.2754 7.142502 20.135
5/25/2021 7:25:56 PM 20.1525 68.2745 338.5 8.2824 7.127502 20.1525
5/25/2021 7:40:56 PM 20.1875 68.3375 338.85 8.2761 7.022499 20.1875
5/25/2021 7:55:56 PM 20.1875 68.3375 338.85 8.2768 6.987503 20.1875
5/25/2021 8:10:56 PM 20.205 68.369 339.2 8.2754 6.815002 20.205
5/25/2021 8:25:56 PM 20.205 68.369 339.55 8.2782 6.695 20.205
5/25/2021 8:40:56 PM 20.2075 68.3735 339.55 8.2726 6.762497 20.2075
5/25/2021 8:55:56 PM 20.2075 68.3735 339.9 8.2663 6.815002 20.2075
5/25/2021 9:10:56 PM 20.19 68.342 339.9 8.2628 6.675003 20.19
5/25/2021 9:25:56 PM 20.155 68.279 340.3 8.2579 6.815002 20.155
5/25/2021 9:40:57 PM 20.12 68.216 340.2499 8.2544 6.660004 20.12
5/25/2021 9:55:56 PM 20.1025 68.1845 340.6 8.2474 6.834999 20.1025
5/25/2021 10:10:57 PM 20.085 68.153 340.6 8.2446 6.709999 20.085
5/25/2021 10:25:57 PM 20.05 68.09 340.9 8.2425 6.730003 20.05
5/25/2021 10:40:57 PM 20.0325 68.0585 340.9501 8.2327 6.934998 20.0325
5/25/2021 10:55:56 PM 19.9975 67.9955 341.3501 8.2229 6.940002 19.9975
5/25/2021 11:10:57 PM 19.9475 67.9055 341.6499 8.2145 6.764999 19.9475
5/25/2021 11:25:56 PM 19.8775 67.7795 342 8.2047 6.712502 19.8775
5/25/2021 11:40:56 PM 19.825 67.685 342.3501 8.194901 7.080002 19.825
5/26/2021 12:10:57 AM 19.705 67.469 343.0499 8.170401 6.735001 19.705
5/26/2021 12:25:57 AM 19.6525 67.3745 343.4 8.162701 7.042503 19.65
5/26/2021 12:40:57 AM 19.5825 67.2485 343.7501 8.152201 7.150002 19.5825
5/26/2021 12:55:57 AM 19.5325 67.1585 344.1 8.141001 7.135002 19.5325
5/26/2021 1:10:57 AM 19.445 67.001 344.15 8.127001 6.907501 19.445
5/26/2021 1:25:57 AM 19.3775 66.8795 344.8 8.117901 6.872498 19.3775
5/26/2021 1:40:57 AM 19.305 66.749 344.7501 8.103901 6.817497 19.305
5/26/2021 1:55:57 AM 19.24 66.632 345.15 8.091999 6.699997 19.24
5/26/2021 2:10:57 AM 19.185 66.533 345.2 8.084999 6.682503 19.185
5/26/2021 2:25:57 AM 19.1175 66.4115 345.5 8.073799 6.644997 19.1175
5/26/2021 2:40:57 AM 19.065 66.317 345.5 8.063999 6.752502 19.065
5/26/2021 2:55:57 AM 19.03 66.254 345.85 8.056299 6.927498 19.03
5/26/2021 3:10:57 AM 18.995 66.191 345.9 8.045799 6.889999 18.995
5/26/2021 3:25:57 AM 18.96 66.128 345.9 8.040199 6.977501 18.96
5/26/2021 3:40:57 AM 18.91 66.038 346.2499 4.092199 6.857498 18.91
5/26/2021 3:55:57 AM 18.8575 65.9435 346.2499 7.042 6.857498 18.8575
5/26/2021 4:10:57 AM 18.8925 66.0065 346.5 7.91 11.8425 18.8925
5/26/2021 4:25:56 AM 18.805 65.849 346.9 7.9338 9.514999 18.805
5/26/2021 4:40:56 AM 18.755 65.759 347.2 7.9373 9.165001 18.755
5/26/2021 4:55:56 AM 18.7 65.66 347.2 7.9436 8.837502 18.7
5/26/2021 5:10:56 AM 18.65 65.57 347.2499 7.9443 7.639999 18.65
5/26/2021 5:25:56 AM 18.6 65.48 347.6 7.938 7.955002 18.6
5/26/2021 5:40:56 AM 18.565 65.417 347.6499 7.9394 8.027496 18.565
5/26/2021 5:55:56 AM 18.53 65.354 348 7.9373 7.622498 18.53
5/26/2021 6:10:56 AM 18.4775 65.25951 347.9501 7.9429 7.942497 18.4775
5/26/2021 6:25:57 AM 18.445 65.201 347.9501 7.9373 7.397499 18.445
5/26/2021 6:40:56 AM 18.4075 65.1335 347.9501 7.9415 7.552498 18.4075
5/26/2021 6:55:56 AM 18.375 65.075 348.3 7.9429 7.347504 18.375
5/26/2021 7:10:56 AM 18.3575 65.0435 347.9501 7.9422 7.205002 18.3575
5/26/2021 7:25:56 AM 18.32 64.976 347.9 7.9429 7.217499 18.32
5/26/2021 7:40:56 AM 18.305 64.949 347.9501 7.9422 7.447502 18.305
5/26/2021 7:55:56 AM 18.3225 64.9805 347.9 7.9436 7.205002 18.3225
5/26/2021 8:10:56 AM 18.3375 65.0075 347.6 7.9464 7.762497 18.3375
5/26/2021 8:25:56 AM 18.3725 65.0705 347.2 7.9471 6.980003 18.3725
5/26/2021 8:40:56 AM 18.39 65.102 347.2499 7.9471 7.254997 18.39
5/26/2021 8:55:56 AM 18.4225 65.1605 347.2499 7.9527 6.957497 18.4225
5/26/2021 9:10:56 AM 18.4575 65.2235 346.85 7.9513 7.150002 18.4575
5/26/2021 9:25:56 AM 18.4925 65.2865 346.85 7.9513 6.887497 18.4925
5/26/2021 9:40:56 AM 18.5425 65.3765 346.55 7.9506 6.785004 18.5425
5/26/2021 9:55:56 AM 18.645 65.561 346.1 7.952 6.870003 18.645
5/26/2021 10:10:56 AM 18.7275 65.7095 346.1 7.9513 6.695 18.7275
5/26/2021 10:25:56 AM 18.78 65.804 346.15 7.952 6.745003 18.78
5/26/2021 10:40:56 AM 18.8525 65.9345 346.1 7.9499 6.635002 18.8525
5/26/2021 10:55:56 AM 18.955 66.119 345.7501 7.9492 6.657501 18.955
5/26/2021 11:10:56 AM 19.005 66.209 345.7 7.9506 6.792503 19.005
5/26/2021 11:25:57 AM 19.09 66.362 345.7501 7.9555 6.672501 19.09
5/26/2021 11:40:56 AM 19.1775 66.5195 345.7 7.9604 6.7425 19.1775
5/26/2021 11:55:57 AM 19.265 66.677 345.7 7.9646 6.552498 19.265
5/26/2021 12:10:56 PM 19.3675 66.8615 345.4 7.9751 6.657501 19.3675
5/26/2021 12:25:56 PM 19.4725 67.0505 345.7 7.9786 6.527496 19.4725
5/26/2021 12:40:56 PM 19.5575 67.2035 345.7501 7.9891 6.6325 19.5575
5/26/2021 12:55:56 PM 19.66 67.388 346.0499 7.993299 6.580002 19.66
5/26/2021 1:10:56 PM 19.765 67.577 346.0499 8.003099 6.514999 19.765
5/26/2021 1:25:56 PM 19.835 67.703 346.1 8.012899 6.514999 19.835
5/26/2021 1:40:56 PM 19.9375 67.8875 346.0499 8.021999 6.964996 19.9375
5/26/2021 1:55:56 PM 20.025 68.045 346.0499 8.026199 6.324997 20.025
5/26/2021 2:10:56 PM 20.095 68.171 346.7 8.035299 6.495003 20.095
5/26/2021 2:25:56 PM 20.0575 68.1035 347.8 8.036699 6.962502 20.0575
5/26/2021 2:40:56 PM 20.04 68.07201 348.1 8.047199 6.550003 20.04
5/26/2021 2:55:56 PM 20.0775 68.1395 348.5 8.046499 6.447502 20.0775
5/26/2021 3:10:56 PM 20.145 68.261 348.8 8.057699 6.445 20.145
5/26/2021 3:25:56 PM 20.25 68.45 348.45 8.061899 6.495003 20.25
5/26/2021 3:40:56 PM 20.41 68.738 348.5 8.064699 6.535004 20.41
5/26/2021 3:55:56 PM 20.565 69.017 348.1 8.075899 6.252502 20.565
5/26/2021 4:10:56 PM 20.7375 69.3275 348.1 8.080099 6.252502 20.7375
5/26/2021 4:25:56 PM 20.8075 69.4535 348.45 8.079399 6.199997 20.8075
5/26/2021 4:40:56 PM 20.86 69.548 349.15 8.084999 6.337502 20.86
5/26/2021 4:55:56 PM 20.9125 69.6425 349.2 8.085699 6.477501 20.9125
5/26/2021 5:10:56 PM 20.9475 69.7055 349.5 8.079399 6.599998 20.9475
5/26/2021 5:25:57 PM 21.0175 69.8315 349.9 8.080099 6.567497 21.0175
5/26/2021 5:40:57 PM 21.0375 69.8675 349.85 8.084999 6.637497 21.0375
5/26/2021 5:55:56 PM 20.985 69.773 350.2 8.086399 6.43 20.985
5/26/2021 6:10:57 PM 20.965 69.737 350.6 8.081499 6.672501 20.965
5/26/2021 6:25:57 PM 21.02 69.836 350.2499 8.070999 6.695 21.02
5/26/2021 6:40:57 PM 21.0525 69.8945 350.2 8.072399 6.589996 21.0525
5/26/2021 6:55:57 PM 21.09 69.962 350.6 8.066099 6.625 21.09
5/26/2021 7:10:56 PM 21.1425 70.0565 350.9501 8.067499 6.172501 21.1425
5/26/2021 7:25:57 PM 21.195 70.151 351.3 8.067499 6.449997 21.195
5/26/2021 7:40:57 PM 21.2275 70.2095 351.3501 8.067499 6.485001 21.2275
5/26/2021 7:55:57 PM 21.2275 70.2095 351.6499 8.067499 6.470001 21.2275
5/26/2021 8:10:57 PM 21.2125 70.1825 351.6499 8.061199 6.154999 21.2125
5/26/2021 8:25:57 PM 21.195 70.151 352 8.048599 6.309998 21.195
5/26/2021 8:40:57 PM 21.1775 70.1195 352.3501 8.039499 6.237503 21.1775
5/26/2021 8:55:57 PM 21.1625 70.0925 352.7 8.028299 6.347504 21.1625
5/26/2021 9:10:57 PM 21.125 70.025 352.7 8.019199 6.470001 21.125
5/26/2021 9:25:57 PM 21.0725 69.9305 353 7.999599 6.449997 21.0725
5/26/2021 9:40:57 PM 21.02 69.836 352.7 7.9786 6.589996 21.02
5/26/2021 9:55:56 PM 20.985 69.773 353.4 7.9765 7.147499 20.985
5/26/2021 10:10:56 PM 20.9875 69.7775 353.7501 7.9702 6.642502 20.9875
5/26/2021 10:25:56 PM 20.9525 69.7145 353.7 7.9611 6.537498 20.9525
5/26/2021 10:40:57 PM 20.9375 69.6875 354.1 7.9499 6.572502 20.9375
5/26/2021 10:55:56 PM 20.92 69.656 354.45 7.9401 7.010002 20.92
5/26/2021 11:10:56 PM 20.865 69.557 355.1 7.9366 6.712502 20.865
5/26/2021 11:25:56 PM 20.815 69.467 355.15 7.9261 6.592499 20.815
5/26/2021 11:40:56 PM 20.765 69.377 355.85 7.9177 6.769997 20.765
5/27/2021 12:10:56 AM 20.6775 69.2195 356.55 7.8883 6.542503 20.6775
5/27/2021 12:25:56 AM 20.6225 69.1205 356.9 7.8652 6.330002 20.6225
5/27/2021 12:40:56 AM 20.5725 69.0305 356.9 7.8442 6.004997 20.5725
5/27/2021 12:55:56 AM 20.5225 68.9405 356.9501 7.8295 6.040001 20.5225
5/27/2021 1:10:56 AM 20.4675 68.8415 356.9 7.8162 6.0075 20.4675
5/27/2021 1:25:56 AM 20.4 68.72 357.2499 7.8071 5.900002 20.4
5/27/2021 1:40:56 AM 20.3325 68.5985 357.6 7.8008 5.797501 20.3325
5/27/2021 1:55:56 AM 20.28 68.504 357.9501 7.7917 5.8675 20.28
5/27/2021 2:10:56 AM 20.2275 68.4095 358.3 7.7826 5.955002 20.2275
5/27/2021 2:25:57 AM 20.175 68.315 358.3 7.7735 6.025002 20.175
5/27/2021 2:40:57 AM 20.105 68.189 358.6499 7.763 6.282501 20.105
5/27/2021 2:55:56 AM 20.0375 68.0675 359 7.753901 5.800003 20.0375
5/27/2021 3:10:56 AM 19.965 67.937 359 7.749001 5.802498 19.965
5/27/2021 3:25:57 AM 19.9 67.82 359.3501 7.739201 5.800003 19.9
5/27/2021 3:40:57 AM 19.8125 67.6625 359.7 7.728701 6.197502 19.8125
5/27/2021 3:55:57 AM 19.7625 67.5725 359.7 7.723801 6.097504 19.7625
5/27/2021 4:10:57 AM 19.76 67.568 359.7501 7.718201 5.925003 19.76
5/27/2021 4:25:57 AM 19.71 67.478 359.7501 7.709101 6.0075 19.71
5/27/2021 4:40:57 AM 19.64 67.352 360.0499 7.704201 6.095001 19.64
5/27/2021 4:55:57 AM 19.6225 67.3205 360.4 7.698601 6.910004 19.6225
5/27/2021 5:10:57 AM 19.5525 67.1945 360.7501 7.703501 12.6575 19.5525
5/27/2021 5:25:57 AM 19.465 67.037 361.0499 7.709101 11.7025 19.465
5/27/2021 5:40:57 AM 19.395 66.911 361.4 7.705601 10.9875 19.395
5/27/2021 5:55:57 AM 19.3275 66.7895 361.7501 7.686001 8.769997 19.3275
5/27/2021 6:10:57 AM 19.26 66.668 362.45 7.679701 7.2575 19.26
5/27/2021 6:25:56 AM 19.205 66.569 362.85 7.670601 6.720001 19.205
5/27/2021 6:40:56 AM 19.155 66.479 363.2 7.665001 6.547501 19.155
5/27/2021 6:55:56 AM 19.1225 66.4205 363.2 7.665701 6.459999 19.1225
5/27/2021 7:10:57 AM 19.0875 66.3575 363.5 7.660101 6.32 19.0875
5/27/2021 7:25:56 AM 19.0525 66.2945 363.5 7.660801 6.165001 19.0525
5/27/2021 7:40:56 AM 19.0325 66.2585 363.85 7.661501 6.074997 19.0325
5/27/2021 7:55:56 AM 18.9975 66.1955 363.85 7.661501 6.18 18.9975
5/27/2021 8:10:56 AM 18.965 66.137 364.2 7.664301 6.112503 18.965
5/27/2021 8:25:56 AM 18.9275 66.0695 364.2 7.665001 6.355003 18.9275
5/27/2021 8:40:56 AM 18.9125 66.0425 364.6 7.665701 6.337502 18.9125
5/27/2021 8:55:56 AM 18.895 66.011 364.9 7.665001 6.787498 18.895
5/27/2021 9:10:56 AM 18.8925 66.0065 364.9 7.650999 15.9575 18.8925
5/27/2021 9:25:56 AM 18.895 66.011 365.2499 7.655899 11.3225 18.895
5/27/2021 9:40:57 AM 18.8925 66.0065 365.55 7.660801 9.339996 18.8925
5/27/2021 9:55:57 AM 18.9125 66.0425 365.9501 7.670601 5.972504 18.9125
5/27/2021 10:10:56 AM 18.9125 66.0425 366.3 7.676901 5.297501 18.9125
5/27/2021 10:25:56 AM 18.93 66.074 366.6499 7.679701 4.967499 18.93
5/27/2021 10:40:57 AM 18.9625 66.1325 367 7.686001 4.7575 18.9625
5/27/2021 10:55:56 AM 18.9975 66.1955 367.3501 7.690201 4.642502 18.9975
5/27/2021 11:10:56 AM 19.035 66.263 367.6499 7.694401 4.6175 19.035
5/27/2021 11:25:57 AM 19.0675 66.3215 368.0499 7.700001 4.512497 19.0675
5/27/2021 11:40:56 AM 19.0825 66.3485 368.3501 7.705601 4.495003 19.0825
5/27/2021 11:55:57 AM 19.1025 66.38451 368.7 7.704901 4.477501 19.1025
5/27/2021 12:10:56 PM 19.1175 66.4115 369 7.709101 4.495003 19.1175
5/27/2021 12:25:56 PM 19.155 66.479 369.4 7.713301 4.550003 19.155
5/27/2021 12:40:56 PM 19.2075 66.5735 369.7 7.718901 4.807503 19.2075
5/27/2021 12:55:56 PM 19.255 66.659 369.7 7.724501 5.279999 19.255
5/27/2021 1:10:56 PM 19.31 66.758 370.0499 7.728701 4.947502 19.31
5/27/2021 1:25:56 PM 19.38 66.884 370.0499 7.738501 4.720001 19.38
5/27/2021 1:40:57 PM 19.435 66.983 370.1 7.746901 4.602501 19.435
5/27/2021 1:55:56 PM 19.4975 67.0955 370.0499 7.758801 4.614998 19.4975
5/27/2021 2:10:56 PM 19.57 67.226 370.4 7.77 4.550003 19.57
5/27/2021 2:25:57 PM 19.64 67.352 370.3501 7.7777 4.547501 19.64
5/27/2021 2:40:56 PM 19.725 67.505 370.7 7.7903 4.667503 19.725
5/27/2021 2:55:57 PM 19.8275 67.6895 370.7501 7.8022 4.565002 19.8275
5/27/2021 3:10:57 PM 19.915 67.847 370.7501 7.8169 5.137497 19.915
5/27/2021 3:25:57 PM 20.02 68.036 371.0499 7.8316 5.675003 20.02
5/27/2021 3:40:57 PM 20.105 68.189 371.1 7.8393 4.667503 20.105
5/27/2021 3:55:57 PM 20.1925 68.3465 370.7501 7.8561 5.190002 20.1925
5/27/2021 4:10:57 PM 20.26 68.468 371.0499 7.8645 5.050003 20.26
5/27/2021 4:25:56 PM 20.365 68.657 370.7501 7.8757 5.292503 20.365
5/27/2021 4:40:56 PM 20.435 68.783 371.1 7.8883 5.050003 20.435
5/27/2021 4:55:56 PM 20.485 68.873 371.1 7.8974 4.720001 20.485
5/27/2021 5:10:56 PM 20.5725 69.0305 371.1 7.9044 4.754997 20.5725
5/27/2021 5:25:56 PM 20.66 69.188 370.7501 7.9142 4.720001 20.66
5/27/2021 5:40:56 PM 20.745 69.341 370.7501 7.924 4.6325 20.745
5/27/2021 5:55:56 PM 20.835 69.503 370.4 7.9317 4.717499 20.835
5/27/2021 6:10:56 PM 20.905 69.629 370.0499 7.9373 4.6175 20.905
5/27/2021 6:25:56 PM 20.9375 69.6875 369.7501 7.9429 4.6325 20.9375
5/27/2021 6:40:57 PM 20.99 69.782 369.7 7.9527 4.720001 20.99
5/27/2021 6:55:57 PM 21.005 69.809 369.3501 7.9569 4.595001 21.005
5/27/2021 7:10:56 PM 21.025 69.845 369.4 7.9625 4.580002 21.025
5/27/2021 7:25:57 PM 21.025 69.845 369.3501 7.9667 4.614998 21.025
5/27/2021 7:40:57 PM 21.0075 69.8135 369.0499 7.9674 4.635002 21.0075
5/27/2021 7:55:57 PM 20.9725 69.7505 369.0499 7.9723 4.620003 20.9725
5/27/2021 8:10:57 PM 20.9225 69.6605 369.0499 7.9716 4.547501 20.9225
5/27/2021 8:25:57 PM 20.8525 69.5345 369.0499 7.9765 4.7575 20.8525
5/27/2021 8:40:57 PM 20.7825 69.4085 369.0499 7.9779 4.862503 20.7825
5/27/2021 8:55:57 PM 20.6975 69.2555 369.4 7.9723 4.669998 20.6975
5/27/2021 9:10:57 PM 20.645 69.161 369.4 7.9723 4.6875 20.645
5/27/2021 9:25:57 PM 20.6125 69.1025 369.0499 7.9681 4.692497 20.6125
5/27/2021 9:40:57 PM 20.5775 69.0395 369.1 7.9618 5.004997 20.5775
5/27/2021 9:55:56 PM 20.49 68.882 369.0499 7.9583 4.845001 20.49
5/27/2021 10:10:57 PM 20.4225 68.7605 369.0499 7.9541 4.8125 20.4225
5/27/2021 10:25:57 PM 20.37 68.666 369.1 7.9506 4.849998 20.37
5/27/2021 10:40:57 PM 20.285 68.513 369.45 7.9422 4.830002 20.285
5/27/2021 10:55:57 PM 20.1975 68.3555 369.1 7.9359 4.904999 20.1975
5/27/2021 11:10:57 PM 20.13 68.234 369.1 7.9233 5.057503 20.13
5/27/2021 11:25:57 PM 20.095 68.171 369.1 7.9156 4.885002 20.095
5/27/2021 11:40:57 PM 19.9925 67.9865 369.1 7.9065 4.957497 19.9925
5/28/2021 12:10:57 AM 19.865 67.757 369.45 7.8806 4.827499 19.865
5/28/2021 12:25:57 AM 19.7775 67.5995 369.5 7.8659 4.915001 19.7775
5/28/2021 12:40:57 AM 19.7125 67.4825 369.5 7.8561 4.8825 19.71
5/28/2021 12:55:57 AM 19.625 67.325 369.5 7.8428 5.004997 19.625
5/28/2021 1:10:57 AM 19.555 67.199 369.5 7.8316 4.967499 19.555
5/28/2021 1:25:57 AM 19.6225 67.3205 368.4 7.8218 5.035004 19.6225
5/28/2021 1:40:56 AM 19.535 67.163 368.4 7.8078 5.017502 19.535
5/28/2021 1:55:57 AM 19.3975 66.9155 369.1 7.7987 5 19.3975
5/28/2021 2:10:56 AM 19.295 66.731 369.45 7.7826 5.037498 19.295
5/28/2021 2:25:56 AM 19.2575 66.6635 369.15 7.7714 5.105003 19.2575
5/28/2021 2:40:56 AM 19.3125 66.7625 368.0499 7.7616 5.072502 19.3125
5/28/2021 2:55:56 AM 19.1925 66.5465 368.7501 7.753901 5.057503 19.1925
5/28/2021 3:10:56 AM 19.055 66.299 369.45 7.748301 5.072502 19.055
5/28/2021 3:25:56 AM 19.0025 66.2045 369.45 7.740601 5.077499 19.0025
5/28/2021 3:40:56 AM 19.055 66.299 368.45 7.730101 5.025002 19.055
5/28/2021 3:55:56 AM 18.985 66.173 368.45 7.724501 4.987503 18.985
5/28/2021 4:10:57 AM 18.8125 65.8625 369.5 7.720301 5.042503 18.8125
5/28/2021 4:25:57 AM 18.74 65.732 369.8 7.711901 5.042503 18.74
5/28/2021 4:40:57 AM 18.7925 65.8265 369.15 7.705601 5.425003 18.7925
5/28/2021 4:55:57 AM 18.655 65.579 369.45 7.705601 7.300003 18.655
5/28/2021 5:10:57 AM